<?xml version="1.0" encoding="UTF-8" standalone="no" ?>
<gpx xmlns="http://www.topografix.com/GPX/1/1" xmlns:xsi="http://www.w3.org/2001/XMLSchema-instance" xsi:schemaLocation="http://www.topografix.com/GPX/1/1 http://www.topografix.com/GPX/1/1/gpx.xsd" version="1.1" creator="VisuGPX - https://www.visugpx.com">
  <metadata>
    <name>Fillols &gt; Cortalet &gt; pic canigou</name>
  </metadata>
  <wpt lat="42.53685" lon="2.43315">
    <ele>1735.3</ele>
    <name><![CDATA[Refuge de Bonne-Aigue]]></name>
  </wpt>
  <wpt lat="42.53267" lon="2.46386">
    <ele>2153.1</ele>
    <name><![CDATA[Refuge de Cortalets]]></name>
  </wpt>
  <wpt lat="42.51807" lon="2.464">
    <ele>2706.1</ele>
    <name><![CDATA[Crêtes de Barbet]]></name>
  </wpt>
  <wpt lat="42.51905" lon="2.45658">
    <ele>2774.7</ele>
    <name><![CDATA[Pic du Canigou]]></name>
  </wpt>
  <trk>
    <name><![CDATA[Fillols > Cortalet > pic canigou]]></name>
    <trkseg>
      <trkpt lat="42.55765" lon="2.41576">
        <ele>842.379058</ele>
        <time>2026-07-16T22:42:36.116Z</time>
      </trkpt>
      <trkpt lat="42.55769" lon="2.41559">
        <ele>842.379058</ele>
        <time>2026-07-16T22:42:52.425Z</time>
      </trkpt>
      <trkpt lat="42.55775" lon="2.41546">
        <ele>842.379058</ele>
        <time>2026-07-16T22:43:06.212Z</time>
      </trkpt>
      <trkpt lat="42.55798" lon="2.41563">
        <ele>842.379058</ele>
        <time>2026-07-16T22:43:38.242Z</time>
      </trkpt>
      <trkpt lat="42.55807" lon="2.41574">
        <ele>842.379058</ele>
        <time>2026-07-16T22:43:54.955Z</time>
      </trkpt>
      <trkpt lat="42.55816" lon="2.416">
        <ele>842.379058</ele>
        <time>2026-07-16T22:44:24.474Z</time>
      </trkpt>
      <trkpt lat="42.55818" lon="2.41612">
        <ele>842.682799</ele>
        <time>2026-07-16T22:44:36.973Z</time>
      </trkpt>
      <trkpt lat="42.55812" lon="2.41634">
        <ele>844.503607</ele>
        <time>2026-07-16T22:45:02.898Z</time>
      </trkpt>
      <trkpt lat="42.55813" lon="2.41642">
        <ele>845.133482</ele>
        <time>2026-07-16T22:45:11.839Z</time>
      </trkpt>
      <trkpt lat="42.55809" lon="2.41654">
        <ele>846.085257</ele>
        <time>2026-07-16T22:45:26.171Z</time>
      </trkpt>
      <trkpt lat="42.55812" lon="2.41658">
        <ele>846.478578</ele>
        <time>2026-07-16T22:45:32.139Z</time>
      </trkpt>
      <trkpt lat="42.55817" lon="2.41661">
        <ele>847.076844</ele>
        <time>2026-07-16T22:45:41.266Z</time>
      </trkpt>
      <trkpt lat="42.55826" lon="2.4168">
        <ele>848.816635</ele>
        <time>2026-07-16T22:46:08.874Z</time>
      </trkpt>
      <trkpt lat="42.55837" lon="2.41691">
        <ele>850.229576</ele>
        <time>2026-07-16T22:46:32.717Z</time>
      </trkpt>
      <trkpt lat="42.55837" lon="2.41696">
        <ele>850.619614</ele>
        <time>2026-07-16T22:46:39.467Z</time>
      </trkpt>
      <trkpt lat="42.55829" lon="2.41714">
        <ele>852.250517</ele>
        <time>2026-07-16T22:47:08.407Z</time>
      </trkpt>
      <trkpt lat="42.55828" lon="2.41724">
        <ele>853.032515</ele>
        <time>2026-07-16T22:47:22.307Z</time>
      </trkpt>
      <trkpt lat="42.55833" lon="2.41735">
        <ele>854.003463</ele>
        <time>2026-07-16T22:47:40.385Z</time>
      </trkpt>
      <trkpt lat="42.55832" lon="2.41745">
        <ele>854.787923</ele>
        <time>2026-07-16T22:47:54.386Z</time>
      </trkpt>
      <trkpt lat="42.55818" lon="2.41759">
        <ele>856.563637</ele>
        <time>2026-07-16T22:48:25.641Z</time>
      </trkpt>
      <trkpt lat="42.55823" lon="2.41763">
        <ele>857.113168</ele>
        <time>2026-07-16T22:48:35.206Z</time>
      </trkpt>
      <trkpt lat="42.55824" lon="2.41772">
        <ele>857.821488</ele>
        <time>2026-07-16T22:48:46.792Z</time>
      </trkpt>
      <trkpt lat="42.55837" lon="2.41774">
        <ele>859.152586</ele>
        <time>2026-07-16T22:49:08.271Z</time>
      </trkpt>
      <trkpt lat="42.55835" lon="2.41778">
        <ele>859.588572</ele>
        <time>2026-07-16T22:49:15.211Z</time>
      </trkpt>
      <trkpt lat="42.55829" lon="2.4178">
        <ele>860.155913</ele>
        <time>2026-07-16T22:49:24.435Z</time>
      </trkpt>
      <trkpt lat="42.55827" lon="2.41789">
        <ele>860.875634</ele>
        <time>2026-07-16T22:49:36.246Z</time>
      </trkpt>
      <trkpt lat="42.5583" lon="2.41792">
        <ele>861.26384</ele>
        <time>2026-07-16T22:49:41.632Z</time>
      </trkpt>
      <trkpt lat="42.55862" lon="2.41782">
        <ele>865.387903</ele>
        <time>2026-07-16T22:50:35.350Z</time>
      </trkpt>
      <trkpt lat="42.55876" lon="2.41787">
        <ele>867.134348</ele>
        <time>2026-07-16T22:50:57.882Z</time>
      </trkpt>
      <trkpt lat="42.55887" lon="2.41796">
        <ele>868.740684</ele>
        <time>2026-07-16T22:51:18.403Z</time>
      </trkpt>
      <trkpt lat="42.55894" lon="2.41797">
        <ele>869.630136</ele>
        <time>2026-07-16T22:51:29.835Z</time>
      </trkpt>
      <trkpt lat="42.55905" lon="2.4181">
        <ele>871.499401</ele>
        <time>2026-07-16T22:51:53.836Z</time>
      </trkpt>
      <trkpt lat="42.5591" lon="2.41827">
        <ele>873.188893</ele>
        <time>2026-07-16T22:52:15.499Z</time>
      </trkpt>
      <trkpt lat="42.55909" lon="2.41848">
        <ele>875.088827</ele>
        <time>2026-07-16T22:52:40.323Z</time>
      </trkpt>
      <trkpt lat="42.55911" lon="2.41867">
        <ele>876.899456</ele>
        <time>2026-07-16T22:53:04.954Z</time>
      </trkpt>
      <trkpt lat="42.55916" lon="2.41882">
        <ele>878.371408</ele>
        <time>2026-07-16T22:53:26.126Z</time>
      </trkpt>
      <trkpt lat="42.5593" lon="2.41889">
        <ele>880.251773</ele>
        <time>2026-07-16T22:53:54.844Z</time>
      </trkpt>
      <trkpt lat="42.55931" lon="2.41893">
        <ele>880.584297</ele>
        <time>2026-07-16T22:54:00.111Z</time>
      </trkpt>
      <trkpt lat="42.55917" lon="2.41893">
        <ele>882.280158</ele>
        <time>2026-07-16T22:54:27.554Z</time>
      </trkpt>
      <trkpt lat="42.55895" lon="2.41877">
        <ele>886.842474</ele>
        <time>2026-07-16T22:55:21.250Z</time>
      </trkpt>
      <trkpt lat="42.5588" lon="2.41883">
        <ele>890.285392</ele>
        <time>2026-07-16T22:55:57.828Z</time>
      </trkpt>
      <trkpt lat="42.55881" lon="2.41889">
        <ele>891.209848</ele>
        <time>2026-07-16T22:56:07.973Z</time>
      </trkpt>
      <trkpt lat="42.55875" lon="2.41887">
        <ele>892.619162</ele>
        <time>2026-07-16T22:56:23.659Z</time>
      </trkpt>
      <trkpt lat="42.55874" lon="2.4189">
        <ele>893.194463</ele>
        <time>2026-07-16T22:56:30.028Z</time>
      </trkpt>
      <trkpt lat="42.55879" lon="2.41895">
        <ele>894.577589</ele>
        <time>2026-07-16T22:56:45.492Z</time>
      </trkpt>
      <trkpt lat="42.55873" lon="2.41902">
        <ele>896.380012</ele>
        <time>2026-07-16T22:57:06.284Z</time>
      </trkpt>
      <trkpt lat="42.55877" lon="2.41906">
        <ele>897.487518</ele>
        <time>2026-07-16T22:57:19.228Z</time>
      </trkpt>
      <trkpt lat="42.55878" lon="2.41912">
        <ele>898.424728</ele>
        <time>2026-07-16T22:57:30.246Z</time>
      </trkpt>
      <trkpt lat="42.55873" lon="2.4192">
        <ele>899.960046</ele>
        <time>2026-07-16T22:57:48.439Z</time>
      </trkpt>
      <trkpt lat="42.55875" lon="2.41928">
        <ele>901.243128</ele>
        <time>2026-07-16T22:58:03.725Z</time>
      </trkpt>
      <trkpt lat="42.55862" lon="2.41944">
        <ele>905.181278</ele>
        <time>2026-07-16T22:58:51.277Z</time>
      </trkpt>
      <trkpt lat="42.55866" lon="2.41952">
        <ele>906.639121</ele>
        <time>2026-07-16T22:59:09.143Z</time>
      </trkpt>
      <trkpt lat="42.5586" lon="2.41961">
        <ele>908.678925</ele>
        <time>2026-07-16T22:59:34.248Z</time>
      </trkpt>
      <trkpt lat="42.55867" lon="2.41978">
        <ele>911.706536</ele>
        <time>2026-07-16T23:00:11.889Z</time>
      </trkpt>
      <trkpt lat="42.55865" lon="2.41987">
        <ele>913.281879</ele>
        <time>2026-07-16T23:00:31.716Z</time>
      </trkpt>
      <trkpt lat="42.5586" lon="2.41995">
        <ele>915.002674</ele>
        <time>2026-07-16T23:00:53.217Z</time>
      </trkpt>
      <trkpt lat="42.55858" lon="2.42006">
        <ele>916.74824</ele>
        <time>2026-07-16T23:01:15.210Z</time>
      </trkpt>
      <trkpt lat="42.55846" lon="2.42019">
        <ele>920.105287</ele>
        <time>2026-07-16T23:01:57.549Z</time>
      </trkpt>
      <trkpt lat="42.55841" lon="2.42032">
        <ele>922.488042</ele>
        <time>2026-07-16T23:02:27.003Z</time>
      </trkpt>
      <trkpt lat="42.55835" lon="2.42039">
        <ele>924.277229</ele>
        <time>2026-07-16T23:02:46.672Z</time>
      </trkpt>
      <trkpt lat="42.5583" lon="2.4204">
        <ele>925.707271</ele>
        <time>2026-07-16T23:03:02.116Z</time>
      </trkpt>
      <trkpt lat="42.55815" lon="2.42059">
        <ele>930.70016</ele>
        <time>2026-07-16T23:03:56.696Z</time>
      </trkpt>
      <trkpt lat="42.55815" lon="2.42077">
        <ele>934.141385</ele>
        <time>2026-07-16T23:04:34.659Z</time>
      </trkpt>
      <trkpt lat="42.558" lon="2.42124">
        <ele>943.366104</ele>
        <time>2026-07-16T23:06:17.329Z</time>
      </trkpt>
      <trkpt lat="42.55796" lon="2.42129">
        <ele>944.821684</ele>
        <time>2026-07-16T23:06:33.754Z</time>
      </trkpt>
      <trkpt lat="42.55796" lon="2.4214">
        <ele>946.871879</ele>
        <time>2026-07-16T23:06:57.003Z</time>
      </trkpt>
      <trkpt lat="42.55793" lon="2.42146">
        <ele>948.153891</ele>
        <time>2026-07-16T23:07:11.271Z</time>
      </trkpt>
      <trkpt lat="42.55793" lon="2.42179">
        <ele>954.04798</ele>
        <time>2026-07-16T23:08:17.082Z</time>
      </trkpt>
      <trkpt lat="42.55781" lon="2.42214">
        <ele>961.274359</ele>
        <time>2026-07-16T23:09:37.010Z</time>
      </trkpt>
      <trkpt lat="42.5578" lon="2.42263">
        <ele>969.673277</ele>
        <time>2026-07-16T23:11:15.056Z</time>
      </trkpt>
      <trkpt lat="42.55776" lon="2.42282">
        <ele>972.977985</ele>
        <time>2026-07-16T23:11:56.807Z</time>
      </trkpt>
      <trkpt lat="42.55774" lon="2.42306">
        <ele>976.739054</ele>
        <time>2026-07-16T23:12:44.302Z</time>
      </trkpt>
      <trkpt lat="42.55771" lon="2.42313">
        <ele>978.218875</ele>
        <time>2026-07-16T23:13:02.307Z</time>
      </trkpt>
      <trkpt lat="42.55772" lon="2.42322">
        <ele>979.661033</ele>
        <time>2026-07-16T23:13:21.307Z</time>
      </trkpt>
      <trkpt lat="42.55779" lon="2.42324">
        <ele>981.141468</ele>
        <time>2026-07-16T23:13:39.266Z</time>
      </trkpt>
      <trkpt lat="42.5578" lon="2.42327">
        <ele>981.757855</ele>
        <time>2026-07-16T23:13:47.154Z</time>
      </trkpt>
      <trkpt lat="42.55762" lon="2.42351">
        <ele>987.144177</ele>
        <time>2026-07-16T23:14:53.921Z</time>
      </trkpt>
      <trkpt lat="42.55734" lon="2.42366">
        <ele>993.749541</ele>
        <time>2026-07-16T23:16:10.710Z</time>
      </trkpt>
      <trkpt lat="42.55693" lon="2.42392">
        <ele>1003.443089</ele>
        <time>2026-07-16T23:17:51.319Z</time>
      </trkpt>
      <trkpt lat="42.55666" lon="2.4239">
        <ele>1008.637723</ele>
        <time>2026-07-16T23:18:48.121Z</time>
      </trkpt>
      <trkpt lat="42.5565" lon="2.42393">
        <ele>1011.29676</ele>
        <time>2026-07-16T23:19:19.173Z</time>
      </trkpt>
      <trkpt lat="42.55647" lon="2.42388">
        <ele>1012.168569</ele>
        <time>2026-07-16T23:19:29.264Z</time>
      </trkpt>
      <trkpt lat="42.55646" lon="2.42369">
        <ele>1014.583652</ele>
        <time>2026-07-16T23:19:57.633Z</time>
      </trkpt>
      <trkpt lat="42.55646" lon="2.42345">
        <ele>1017.563802</ele>
        <time>2026-07-16T23:20:33.447Z</time>
      </trkpt>
      <trkpt lat="42.55648" lon="2.42335">
        <ele>1018.788612</ele>
        <time>2026-07-16T23:20:48.457Z</time>
      </trkpt>
      <trkpt lat="42.55645" lon="2.42287">
        <ele>1024.761516</ele>
        <time>2026-07-16T23:22:02.630Z</time>
      </trkpt>
      <trkpt lat="42.55635" lon="2.42267">
        <ele>1027.837758</ele>
        <time>2026-07-16T23:22:40.345Z</time>
      </trkpt>
      <trkpt lat="42.55611" lon="2.42243">
        <ele>1032.952935</ele>
        <time>2026-07-16T23:23:43.698Z</time>
      </trkpt>
      <trkpt lat="42.55601" lon="2.42238">
        <ele>1034.684697</ele>
        <time>2026-07-16T23:24:05.647Z</time>
      </trkpt>
      <trkpt lat="42.55571" lon="2.42231">
        <ele>1040.523133</ele>
        <time>2026-07-16T23:25:14.552Z</time>
      </trkpt>
      <trkpt lat="42.55551" lon="2.42224">
        <ele>1044.766209</ele>
        <time>2026-07-16T23:26:04.358Z</time>
      </trkpt>
      <trkpt lat="42.55539" lon="2.42225">
        <ele>1047.266346</ele>
        <time>2026-07-16T23:26:34.751Z</time>
      </trkpt>
      <trkpt lat="42.5555" lon="2.42235">
        <ele>1049.895679</ele>
        <time>2026-07-16T23:27:07.301Z</time>
      </trkpt>
      <trkpt lat="42.55581" lon="2.42281">
        <ele>1059.264062</ele>
        <time>2026-07-16T23:29:04.380Z</time>
      </trkpt>
      <trkpt lat="42.55583" lon="2.42302">
        <ele>1062.48267</ele>
        <time>2026-07-16T23:29:43.529Z</time>
      </trkpt>
      <trkpt lat="42.5558" lon="2.42327">
        <ele>1066.296036</ele>
        <time>2026-07-16T23:30:28.463Z</time>
      </trkpt>
      <trkpt lat="42.55538" lon="2.42445">
        <ele>1085.204956</ele>
        <time>2026-07-16T23:34:18.032Z</time>
      </trkpt>
      <trkpt lat="42.5553" lon="2.42454">
        <ele>1087.250292</ele>
        <time>2026-07-16T23:34:42.791Z</time>
      </trkpt>
      <trkpt lat="42.55516" lon="2.4246">
        <ele>1090.063922</ele>
        <time>2026-07-16T23:35:17.058Z</time>
      </trkpt>
      <trkpt lat="42.55513" lon="2.42467">
        <ele>1091.134723</ele>
        <time>2026-07-16T23:35:30.038Z</time>
      </trkpt>
      <trkpt lat="42.55518" lon="2.4248">
        <ele>1093.147131</ele>
        <time>2026-07-16T23:35:54.123Z</time>
      </trkpt>
      <trkpt lat="42.55515" lon="2.42492">
        <ele>1094.822291</ele>
        <time>2026-07-16T23:36:14.439Z</time>
      </trkpt>
      <trkpt lat="42.55524" lon="2.42537">
        <ele>1101.468057</ele>
        <time>2026-07-16T23:37:33.340Z</time>
      </trkpt>
      <trkpt lat="42.55517" lon="2.4253">
        <ele>1103.081634</ele>
        <time>2026-07-16T23:37:52.337Z</time>
      </trkpt>
      <trkpt lat="42.5551" lon="2.42514">
        <ele>1105.783379</ele>
        <time>2026-07-16T23:38:23.435Z</time>
      </trkpt>
      <trkpt lat="42.55497" lon="2.42493">
        <ele>1109.692177</ele>
        <time>2026-07-16T23:39:07.579Z</time>
      </trkpt>
      <trkpt lat="42.55491" lon="2.42488">
        <ele>1111.051976</ele>
        <time>2026-07-16T23:39:22.659Z</time>
      </trkpt>
      <trkpt lat="42.55496" lon="2.4256">
        <ele>1121.507407</ele>
        <time>2026-07-16T23:41:19.633Z</time>
      </trkpt>
      <trkpt lat="42.55493" lon="2.42574">
        <ele>1123.525103</ele>
        <time>2026-07-16T23:41:42.093Z</time>
      </trkpt>
      <trkpt lat="42.55483" lon="2.42587">
        <ele>1126.358492</ele>
        <time>2026-07-16T23:42:14.539Z</time>
      </trkpt>
      <trkpt lat="42.55483" lon="2.42565">
        <ele>1129.498495</ele>
        <time>2026-07-16T23:42:51.246Z</time>
      </trkpt>
      <trkpt lat="42.55464" lon="2.42544">
        <ele>1134.402509</ele>
        <time>2026-07-16T23:43:50.698Z</time>
      </trkpt>
      <trkpt lat="42.55441" lon="2.42505">
        <ele>1141.582608</ele>
        <time>2026-07-16T23:45:20.783Z</time>
      </trkpt>
      <trkpt lat="42.55434" lon="2.425">
        <ele>1143.354023</ele>
        <time>2026-07-16T23:45:41.881Z</time>
      </trkpt>
      <trkpt lat="42.55435" lon="2.42562">
        <ele>1155.258512</ele>
        <time>2026-07-16T23:47:46.330Z</time>
      </trkpt>
      <trkpt lat="42.5543" lon="2.42575">
        <ele>1158.047486</ele>
        <time>2026-07-16T23:48:16.772Z</time>
      </trkpt>
      <trkpt lat="42.55414" lon="2.42594">
        <ele>1163.691257</ele>
        <time>2026-07-16T23:49:19.185Z</time>
      </trkpt>
      <trkpt lat="42.55409" lon="2.42563">
        <ele>1169.897934</ele>
        <time>2026-07-16T23:50:29.956Z</time>
      </trkpt>
      <trkpt lat="42.55401" lon="2.42535">
        <ele>1175.868719</ele>
        <time>2026-07-16T23:51:38.761Z</time>
      </trkpt>
      <trkpt lat="42.55397" lon="2.42536">
        <ele>1176.753202</ele>
        <time>2026-07-16T23:51:48.915Z</time>
      </trkpt>
      <trkpt lat="42.55394" lon="2.42561">
        <ele>1181.629655</ele>
        <time>2026-07-16T23:52:43.566Z</time>
      </trkpt>
      <trkpt lat="42.55383" lon="2.42569">
        <ele>1184.761174</ele>
        <time>2026-07-16T23:53:18.342Z</time>
      </trkpt>
      <trkpt lat="42.55377" lon="2.42551">
        <ele>1188.628643</ele>
        <time>2026-07-16T23:54:01.432Z</time>
      </trkpt>
      <trkpt lat="42.5537" lon="2.42542">
        <ele>1191.286531</ele>
        <time>2026-07-16T23:54:30.382Z</time>
      </trkpt>
      <trkpt lat="42.5537" lon="2.4253">
        <ele>1193.643077</ele>
        <time>2026-07-16T23:54:55.511Z</time>
      </trkpt>
      <trkpt lat="42.55365" lon="2.42516">
        <ele>1196.927085</ele>
        <time>2026-07-16T23:55:30.407Z</time>
      </trkpt>
      <trkpt lat="42.55359" lon="2.42526">
        <ele>1199.515197</ele>
        <time>2026-07-16T23:55:57.968Z</time>
      </trkpt>
      <trkpt lat="42.55349" lon="2.42509">
        <ele>1204.019003</ele>
        <time>2026-07-16T23:56:45.989Z</time>
      </trkpt>
      <trkpt lat="42.55347" lon="2.42514">
        <ele>1205.324494</ele>
        <time>2026-07-16T23:56:59.812Z</time>
      </trkpt>
      <trkpt lat="42.55339" lon="2.42501">
        <ele>1208.721611</ele>
        <time>2026-07-16T23:57:35.458Z</time>
      </trkpt>
      <trkpt lat="42.55332" lon="2.42495">
        <ele>1210.944984</ele>
        <time>2026-07-16T23:57:59.405Z</time>
      </trkpt>
      <trkpt lat="42.5533" lon="2.42484">
        <ele>1213.297846</ele>
        <time>2026-07-16T23:58:24.404Z</time>
      </trkpt>
      <trkpt lat="42.55329" lon="2.4242">
        <ele>1226.462367</ele>
        <time>2026-07-17T00:00:48.196Z</time>
      </trkpt>
      <trkpt lat="42.55304" lon="2.42459">
        <ele>1237.14285</ele>
        <time>2026-07-17T00:02:42.281Z</time>
      </trkpt>
      <trkpt lat="42.55287" lon="2.42513">
        <ele>1248.989352</ele>
        <time>2026-07-17T00:04:48.719Z</time>
      </trkpt>
      <trkpt lat="42.55281" lon="2.42495">
        <ele>1252.816654</ele>
        <time>2026-07-17T00:05:28.859Z</time>
      </trkpt>
      <trkpt lat="42.5527" lon="2.42471">
        <ele>1258.625714</ele>
        <time>2026-07-17T00:06:29.206Z</time>
      </trkpt>
      <trkpt lat="42.55267" lon="2.42481">
        <ele>1260.66223</ele>
        <time>2026-07-17T00:06:50.307Z</time>
      </trkpt>
      <trkpt lat="42.55262" lon="2.42466">
        <ele>1263.976231</ele>
        <time>2026-07-17T00:07:24.550Z</time>
      </trkpt>
      <trkpt lat="42.55258" lon="2.42471">
        <ele>1265.447509</ele>
        <time>2026-07-17T00:07:39.982Z</time>
      </trkpt>
      <trkpt lat="42.55255" lon="2.42487">
        <ele>1268.8572</ele>
        <time>2026-07-17T00:08:15.774Z</time>
      </trkpt>
      <trkpt lat="42.55244" lon="2.42465">
        <ele>1274.172084</ele>
        <time>2026-07-17T00:09:12.510Z</time>
      </trkpt>
      <trkpt lat="42.55239" lon="2.42446">
        <ele>1278.331761</ele>
        <time>2026-07-17T00:09:56.367Z</time>
      </trkpt>
      <trkpt lat="42.55234" lon="2.42439">
        <ele>1280.189964</ele>
        <time>2026-07-17T00:10:15.581Z</time>
      </trkpt>
      <trkpt lat="42.55203" lon="2.42433">
        <ele>1289.023137</ele>
        <time>2026-07-17T00:11:49.308Z</time>
      </trkpt>
      <trkpt lat="42.55211" lon="2.42467">
        <ele>1298.881212</ele>
        <time>2026-07-17T00:13:11.525Z</time>
      </trkpt>
      <trkpt lat="42.5521" lon="2.42473">
        <ele>1300.618044</ele>
        <time>2026-07-17T00:13:26.313Z</time>
      </trkpt>
      <trkpt lat="42.55201" lon="2.42467">
        <ele>1304.265085</ele>
        <time>2026-07-17T00:13:58.224Z</time>
      </trkpt>
      <trkpt lat="42.552" lon="2.42485">
        <ele>1309.134245</ele>
        <time>2026-07-17T00:14:42.091Z</time>
      </trkpt>
      <trkpt lat="42.55191" lon="2.42512">
        <ele>1317.425183</ele>
        <time>2026-07-17T00:15:59.020Z</time>
      </trkpt>
      <trkpt lat="42.55171" lon="2.42583">
        <ele>1338.357983</ele>
        <time>2026-07-17T00:19:35.979Z</time>
      </trkpt>
      <trkpt lat="42.55165" lon="2.42595">
        <ele>1342.58397</ele>
        <time>2026-07-17T00:20:22.897Z</time>
      </trkpt>
      <trkpt lat="42.55134" lon="2.42617">
        <ele>1355.714867</ele>
        <time>2026-07-17T00:22:48.284Z</time>
      </trkpt>
      <trkpt lat="42.55124" lon="2.42634">
        <ele>1361.592224</ele>
        <time>2026-07-17T00:23:55.378Z</time>
      </trkpt>
      <trkpt lat="42.55086" lon="2.42682">
        <ele>1380.416116</ele>
        <time>2026-07-17T00:27:23.732Z</time>
      </trkpt>
      <trkpt lat="42.55064" lon="2.42704">
        <ele>1390.390178</ele>
        <time>2026-07-17T00:29:06.563Z</time>
      </trkpt>
      <trkpt lat="42.5505" lon="2.42724">
        <ele>1397.96661</ele>
        <time>2026-07-17T00:30:20.142Z</time>
      </trkpt>
      <trkpt lat="42.55032" lon="2.42756">
        <ele>1408.672818</ele>
        <time>2026-07-17T00:31:57.755Z</time>
      </trkpt>
      <trkpt lat="42.55018" lon="2.42744">
        <ele>1414.692826</ele>
        <time>2026-07-17T00:32:49.262Z</time>
      </trkpt>
      <trkpt lat="42.55019" lon="2.42768">
        <ele>1421.255683</ele>
        <time>2026-07-17T00:33:43.423Z</time>
      </trkpt>
      <trkpt lat="42.55024" lon="2.42789">
        <ele>1425.422529</ele>
        <time>2026-07-17T00:34:29.966Z</time>
      </trkpt>
      <trkpt lat="42.55035" lon="2.4281">
        <ele>1430.025681</ele>
        <time>2026-07-17T00:35:25.916Z</time>
      </trkpt>
      <trkpt lat="42.55018" lon="2.42806">
        <ele>1434.062557</ele>
        <time>2026-07-17T00:36:14.328Z</time>
      </trkpt>
      <trkpt lat="42.55035" lon="2.42835">
        <ele>1440.266734</ele>
        <time>2026-07-17T00:37:27.288Z</time>
      </trkpt>
      <trkpt lat="42.55028" lon="2.42839">
        <ele>1442.028053</ele>
        <time>2026-07-17T00:37:47.737Z</time>
      </trkpt>
      <trkpt lat="42.55033" lon="2.42847">
        <ele>1443.927847</ele>
        <time>2026-07-17T00:38:09.575Z</time>
      </trkpt>
      <trkpt lat="42.55013" lon="2.42845">
        <ele>1448.721099</ele>
        <time>2026-07-17T00:39:04.168Z</time>
      </trkpt>
      <trkpt lat="42.54969" lon="2.42832">
        <ele>1459.173034</ele>
        <time>2026-07-17T00:40:55.432Z</time>
      </trkpt>
      <trkpt lat="42.54954" lon="2.42825">
        <ele>1462.903474</ele>
        <time>2026-07-17T00:41:33.145Z</time>
      </trkpt>
      <trkpt lat="42.54924" lon="2.42797">
        <ele>1467.213198</ele>
        <time>2026-07-17T00:42:55.162Z</time>
      </trkpt>
      <trkpt lat="42.54912" lon="2.42774">
        <ele>1469.066035</ele>
        <time>2026-07-17T00:43:34.766Z</time>
      </trkpt>
      <trkpt lat="42.54905" lon="2.42755">
        <ele>1470.427563</ele>
        <time>2026-07-17T00:44:00.814Z</time>
      </trkpt>
      <trkpt lat="42.54897" lon="2.42748">
        <ele>1471.243057</ele>
        <time>2026-07-17T00:44:15.971Z</time>
      </trkpt>
      <trkpt lat="42.54888" lon="2.42749">
        <ele>1472.060938</ele>
        <time>2026-07-17T00:44:30.366Z</time>
      </trkpt>
      <trkpt lat="42.54879" lon="2.42761">
        <ele>1473.137676</ele>
        <time>2026-07-17T00:44:48.901Z</time>
      </trkpt>
      <trkpt lat="42.54873" lon="2.42765">
        <ele>1473.803332</ele>
        <time>2026-07-17T00:45:00.108Z</time>
      </trkpt>
      <trkpt lat="42.54854" lon="2.42772">
        <ele>1475.483009</ele>
        <time>2026-07-17T00:45:27.433Z</time>
      </trkpt>
      <trkpt lat="42.5482" lon="2.42799">
        <ele>1478.975505</ele>
        <time>2026-07-17T00:46:20.585Z</time>
      </trkpt>
      <trkpt lat="42.54811" lon="2.42799">
        <ele>1479.767448</ele>
        <time>2026-07-17T00:46:32.051Z</time>
      </trkpt>
      <trkpt lat="42.54799" lon="2.42812">
        <ele>1480.175119</ele>
        <time>2026-07-17T00:46:50.799Z</time>
      </trkpt>
      <trkpt lat="42.54786" lon="2.42819">
        <ele>1479.440236</ele>
        <time>2026-07-17T00:47:08.014Z</time>
      </trkpt>
      <trkpt lat="42.54779" lon="2.42827">
        <ele>1478.971721</ele>
        <time>2026-07-17T00:47:19.377Z</time>
      </trkpt>
      <trkpt lat="42.54767" lon="2.42831">
        <ele>1478.353445</ele>
        <time>2026-07-17T00:47:34.787Z</time>
      </trkpt>
      <trkpt lat="42.54735" lon="2.42835">
        <ele>1476.692666</ele>
        <time>2026-07-17T00:48:18.483Z</time>
      </trkpt>
      <trkpt lat="42.54699" lon="2.42833">
        <ele>1474.867575</ele>
        <time>2026-07-17T00:49:08.140Z</time>
      </trkpt>
      <trkpt lat="42.54683" lon="2.4281">
        <ele>1473.664679</ele>
        <time>2026-07-17T00:49:41.119Z</time>
      </trkpt>
      <trkpt lat="42.54676" lon="2.42793">
        <ele>1472.932613</ele>
        <time>2026-07-17T00:50:01.385Z</time>
      </trkpt>
      <trkpt lat="42.54639" lon="2.42751">
        <ele>1471.311066</ele>
        <time>2026-07-17T00:51:08.998Z</time>
      </trkpt>
      <trkpt lat="42.54615" lon="2.42741">
        <ele>1471.293461</ele>
        <time>2026-07-17T00:51:42.966Z</time>
      </trkpt>
      <trkpt lat="42.54602" lon="2.42742">
        <ele>1471.284431</ele>
        <time>2026-07-17T00:51:59.835Z</time>
      </trkpt>
      <trkpt lat="42.54597" lon="2.42733">
        <ele>1471.278791</ele>
        <time>2026-07-17T00:52:10.004Z</time>
      </trkpt>
      <trkpt lat="42.54587" lon="2.4273">
        <ele>1471.271397</ele>
        <time>2026-07-17T00:52:23.080Z</time>
      </trkpt>
      <trkpt lat="42.54583" lon="2.42737">
        <ele>1471.267229</ele>
        <time>2026-07-17T00:52:30.402Z</time>
      </trkpt>
      <trkpt lat="42.54573" lon="2.42737">
        <ele>1471.260639</ele>
        <time>2026-07-17T00:52:42.489Z</time>
      </trkpt>
      <trkpt lat="42.54544" lon="2.42728">
        <ele>1471.239513</ele>
        <time>2026-07-17T00:53:23.841Z</time>
      </trkpt>
      <trkpt lat="42.54537" lon="2.42721">
        <ele>1471.233411</ele>
        <time>2026-07-17T00:53:36.790Z</time>
      </trkpt>
      <trkpt lat="42.54511" lon="2.42688">
        <ele>1471.208647</ele>
        <time>2026-07-17T00:54:29.483Z</time>
      </trkpt>
      <trkpt lat="42.54497" lon="2.42659">
        <ele>1470.7427</ele>
        <time>2026-07-17T00:55:04.814Z</time>
      </trkpt>
      <trkpt lat="42.54453" lon="2.42599">
        <ele>1467.811902</ele>
        <time>2026-07-17T00:56:23.122Z</time>
      </trkpt>
      <trkpt lat="42.54446" lon="2.42584">
        <ele>1467.226753</ele>
        <time>2026-07-17T00:56:39.243Z</time>
      </trkpt>
      <trkpt lat="42.54445" lon="2.42571">
        <ele>1466.746912</ele>
        <time>2026-07-17T00:56:52.760Z</time>
      </trkpt>
      <trkpt lat="42.54435" lon="2.4255">
        <ele>1465.913616</ele>
        <time>2026-07-17T00:57:16.823Z</time>
      </trkpt>
      <trkpt lat="42.54435" lon="2.42532">
        <ele>1465.28815</ele>
        <time>2026-07-17T00:57:35.339Z</time>
      </trkpt>
      <trkpt lat="42.54432" lon="2.42513">
        <ele>1464.623891</ele>
        <time>2026-07-17T00:57:55.463Z</time>
      </trkpt>
      <trkpt lat="42.54429" lon="2.42504">
        <ele>1464.270471</ele>
        <time>2026-07-17T00:58:06.378Z</time>
      </trkpt>
      <trkpt lat="42.54419" lon="2.42496">
        <ele>1463.731404</ele>
        <time>2026-07-17T00:58:23.373Z</time>
      </trkpt>
      <trkpt lat="42.54419" lon="2.42482">
        <ele>1463.236653</ele>
        <time>2026-07-17T00:58:39.309Z</time>
      </trkpt>
      <trkpt lat="42.54415" lon="2.4248">
        <ele>1463.044554</ele>
        <time>2026-07-17T00:58:45.465Z</time>
      </trkpt>
      <trkpt lat="42.54401" lon="2.42453">
        <ele>1459.421976</ele>
        <time>2026-07-17T00:59:23.045Z</time>
      </trkpt>
      <trkpt lat="42.54398" lon="2.42452">
        <ele>1458.890125</ele>
        <time>2026-07-17T00:59:27.696Z</time>
      </trkpt>
      <trkpt lat="42.54387" lon="2.42468">
        <ele>1455.989072</ele>
        <time>2026-07-17T00:59:54.290Z</time>
      </trkpt>
      <trkpt lat="42.54384" lon="2.42483">
        <ele>1453.913144</ele>
        <time>2026-07-17T01:00:13.879Z</time>
      </trkpt>
      <trkpt lat="42.54376" lon="2.42494">
        <ele>1451.937592</ele>
        <time>2026-07-17T01:00:33.295Z</time>
      </trkpt>
      <trkpt lat="42.54372" lon="2.42506">
        <ele>1450.19602</ele>
        <time>2026-07-17T01:00:50.999Z</time>
      </trkpt>
      <trkpt lat="42.54324" lon="2.42572">
        <ele>1437.929672</ele>
        <time>2026-07-17T01:03:01.347Z</time>
      </trkpt>
      <trkpt lat="42.54319" lon="2.42575">
        <ele>1437.085209</ele>
        <time>2026-07-17T01:03:09.516Z</time>
      </trkpt>
      <trkpt lat="42.54317" lon="2.42573">
        <ele>1436.527248</ele>
        <time>2026-07-17T01:03:14.840Z</time>
      </trkpt>
      <trkpt lat="42.54315" lon="2.42555">
        <ele>1434.178347</ele>
        <time>2026-07-17T01:03:37.312Z</time>
      </trkpt>
      <trkpt lat="42.54308" lon="2.42535">
        <ele>1431.271686</ele>
        <time>2026-07-17T01:04:03.552Z</time>
      </trkpt>
      <trkpt lat="42.54304" lon="2.42555">
        <ele>1430.862701</ele>
        <time>2026-07-17T01:04:27.187Z</time>
      </trkpt>
      <trkpt lat="42.5429" lon="2.42573">
        <ele>1431.039699</ele>
        <time>2026-07-17T01:04:56.481Z</time>
      </trkpt>
      <trkpt lat="42.54292" lon="2.42614">
        <ele>1431.308691</ele>
        <time>2026-07-17T01:05:37.540Z</time>
      </trkpt>
      <trkpt lat="42.5429" lon="2.42636">
        <ele>1431.45125</ele>
        <time>2026-07-17T01:05:57.734Z</time>
      </trkpt>
      <trkpt lat="42.54284" lon="2.42651">
        <ele>1431.564441</ele>
        <time>2026-07-17T01:06:13.267Z</time>
      </trkpt>
      <trkpt lat="42.54274" lon="2.42665">
        <ele>1431.692746</ele>
        <time>2026-07-17T01:06:32.652Z</time>
      </trkpt>
      <trkpt lat="42.5426" lon="2.4272">
        <ele>1432.076051</ele>
        <time>2026-07-17T01:07:41.507Z</time>
      </trkpt>
      <trkpt lat="42.54264" lon="2.42759">
        <ele>1432.334432</ele>
        <time>2026-07-17T01:08:38.020Z</time>
      </trkpt>
      <trkpt lat="42.54261" lon="2.42779">
        <ele>1434.594244</ele>
        <time>2026-07-17T01:09:08.141Z</time>
      </trkpt>
      <trkpt lat="42.54263" lon="2.42798">
        <ele>1437.005436</ele>
        <time>2026-07-17T01:09:35.900Z</time>
      </trkpt>
      <trkpt lat="42.54261" lon="2.42809">
        <ele>1438.545215</ele>
        <time>2026-07-17T01:09:53.921Z</time>
      </trkpt>
      <trkpt lat="42.54251" lon="2.42831">
        <ele>1441.815206</ele>
        <time>2026-07-17T01:10:32.688Z</time>
      </trkpt>
      <trkpt lat="42.54244" lon="2.4284">
        <ele>1443.611102</ele>
        <time>2026-07-17T01:10:54.327Z</time>
      </trkpt>
      <trkpt lat="42.54236" lon="2.42844">
        <ele>1445.143503</ele>
        <time>2026-07-17T01:11:12.972Z</time>
      </trkpt>
      <trkpt lat="42.54231" lon="2.42849">
        <ele>1446.172156</ele>
        <time>2026-07-17T01:11:25.436Z</time>
      </trkpt>
      <trkpt lat="42.54222" lon="2.42895">
        <ele>1452.430192</ele>
        <time>2026-07-17T01:12:43.880Z</time>
      </trkpt>
      <trkpt lat="42.54227" lon="2.42915">
        <ele>1455.146713</ele>
        <time>2026-07-17T01:13:19.276Z</time>
      </trkpt>
      <trkpt lat="42.54226" lon="2.42935">
        <ele>1457.645907</ele>
        <time>2026-07-17T01:13:52.176Z</time>
      </trkpt>
      <trkpt lat="42.54231" lon="2.42963">
        <ele>1461.481207</ele>
        <time>2026-07-17T01:14:43.528Z</time>
      </trkpt>
      <trkpt lat="42.54245" lon="2.42996">
        <ele>1466.854507</ele>
        <time>2026-07-17T01:15:50.956Z</time>
      </trkpt>
      <trkpt lat="42.54245" lon="2.43002">
        <ele>1467.721449</ele>
        <time>2026-07-17T01:16:01.035Z</time>
      </trkpt>
      <trkpt lat="42.54241" lon="2.4301">
        <ele>1469.366166</ele>
        <time>2026-07-17T01:16:20.375Z</time>
      </trkpt>
      <trkpt lat="42.54241" lon="2.43048">
        <ele>1475.217524</ele>
        <time>2026-07-17T01:17:30.104Z</time>
      </trkpt>
      <trkpt lat="42.54242" lon="2.43058">
        <ele>1476.81706</ele>
        <time>2026-07-17T01:17:49.179Z</time>
      </trkpt>
      <trkpt lat="42.54236" lon="2.43087">
        <ele>1481.598962</ele>
        <time>2026-07-17T01:18:48.462Z</time>
      </trkpt>
      <trkpt lat="42.54239" lon="2.43107">
        <ele>1484.823196</ele>
        <time>2026-07-17T01:19:28.580Z</time>
      </trkpt>
      <trkpt lat="42.54242" lon="2.43114">
        <ele>1486.126779</ele>
        <time>2026-07-17T01:19:44.642Z</time>
      </trkpt>
      <trkpt lat="42.54249" lon="2.43116">
        <ele>1487.673881</ele>
        <time>2026-07-17T01:20:03.944Z</time>
      </trkpt>
      <trkpt lat="42.54269" lon="2.43137">
        <ele>1492.877701</ele>
        <time>2026-07-17T01:21:07.297Z</time>
      </trkpt>
      <trkpt lat="42.54272" lon="2.43159">
        <ele>1496.437522</ele>
        <time>2026-07-17T01:21:49.393Z</time>
      </trkpt>
      <trkpt lat="42.54268" lon="2.43172">
        <ele>1498.724464</ele>
        <time>2026-07-17T01:22:15.542Z</time>
      </trkpt>
      <trkpt lat="42.54273" lon="2.43192">
        <ele>1502.014235</ele>
        <time>2026-07-17T01:22:52.113Z</time>
      </trkpt>
      <trkpt lat="42.54273" lon="2.43204">
        <ele>1503.587785</ele>
        <time>2026-07-17T01:23:12.923Z</time>
      </trkpt>
      <trkpt lat="42.5426" lon="2.43223">
        <ele>1506.773324</ele>
        <time>2026-07-17T01:23:54.933Z</time>
      </trkpt>
      <trkpt lat="42.54241" lon="2.43259">
        <ele>1512.188127</ele>
        <time>2026-07-17T01:25:00.376Z</time>
      </trkpt>
      <trkpt lat="42.54234" lon="2.43264">
        <ele>1513.465422</ele>
        <time>2026-07-17T01:25:15.514Z</time>
      </trkpt>
      <trkpt lat="42.54178" lon="2.4327">
        <ele>1522.786472</ele>
        <time>2026-07-17T01:27:04.622Z</time>
      </trkpt>
      <trkpt lat="42.5417" lon="2.43269">
        <ele>1524.185825</ele>
        <time>2026-07-17T01:27:20.830Z</time>
      </trkpt>
      <trkpt lat="42.54166" lon="2.43264">
        <ele>1525.051096</ele>
        <time>2026-07-17T01:27:30.772Z</time>
      </trkpt>
      <trkpt lat="42.54156" lon="2.4326">
        <ele>1526.763642</ele>
        <time>2026-07-17T01:27:50.741Z</time>
      </trkpt>
      <trkpt lat="42.54152" lon="2.43261">
        <ele>1527.469709</ele>
        <time>2026-07-17T01:27:58.904Z</time>
      </trkpt>
      <trkpt lat="42.54129" lon="2.43286">
        <ele>1532.380052</ele>
        <time>2026-07-17T01:28:57.410Z</time>
      </trkpt>
      <trkpt lat="42.54066" lon="2.43323">
        <ele>1549.554887</ele>
        <time>2026-07-17T01:31:40.748Z</time>
      </trkpt>
      <trkpt lat="42.54046" lon="2.43339">
        <ele>1555.406981</ele>
        <time>2026-07-17T01:32:46.378Z</time>
      </trkpt>
      <trkpt lat="42.5404" lon="2.43339">
        <ele>1557.037624</ele>
        <time>2026-07-17T01:33:05.630Z</time>
      </trkpt>
      <trkpt lat="42.54038" lon="2.43333">
        <ele>1558.315659</ele>
        <time>2026-07-17T01:33:20.717Z</time>
      </trkpt>
      <trkpt lat="42.54034" lon="2.43332">
        <ele>1559.275326</ele>
        <time>2026-07-17T01:33:32.190Z</time>
      </trkpt>
      <trkpt lat="42.54032" lon="2.43339">
        <ele>1560.506976</ele>
        <time>2026-07-17T01:33:47.148Z</time>
      </trkpt>
      <trkpt lat="42.54026" lon="2.4334">
        <ele>1562.044536</ele>
        <time>2026-07-17T01:34:05.984Z</time>
      </trkpt>
      <trkpt lat="42.54028" lon="2.43331">
        <ele>1563.786093</ele>
        <time>2026-07-17T01:34:27.205Z</time>
      </trkpt>
      <trkpt lat="42.54022" lon="2.43333">
        <ele>1565.197117</ele>
        <time>2026-07-17T01:34:44.427Z</time>
      </trkpt>
      <trkpt lat="42.54021" lon="2.43338">
        <ele>1566.32636</ele>
        <time>2026-07-17T01:34:58.475Z</time>
      </trkpt>
      <trkpt lat="42.54017" lon="2.43332">
        <ele>1567.726575</ele>
        <time>2026-07-17T01:35:15.706Z</time>
      </trkpt>
      <trkpt lat="42.54012" lon="2.43342">
        <ele>1569.960257</ele>
        <time>2026-07-17T01:35:43.337Z</time>
      </trkpt>
      <trkpt lat="42.54008" lon="2.43339">
        <ele>1571.310018</ele>
        <time>2026-07-17T01:36:00.135Z</time>
      </trkpt>
      <trkpt lat="42.54005" lon="2.43343">
        <ele>1572.255036</ele>
        <time>2026-07-17T01:36:11.973Z</time>
      </trkpt>
      <trkpt lat="42.54" lon="2.43339">
        <ele>1573.73313</ele>
        <time>2026-07-17T01:36:30.572Z</time>
      </trkpt>
      <trkpt lat="42.53999" lon="2.43346">
        <ele>1575.032889</ele>
        <time>2026-07-17T01:36:47.167Z</time>
      </trkpt>
      <trkpt lat="42.54" lon="2.4335">
        <ele>1575.852376</ele>
        <time>2026-07-17T01:36:57.611Z</time>
      </trkpt>
      <trkpt lat="42.53992" lon="2.43351">
        <ele>1578.074393</ele>
        <time>2026-07-17T01:37:23.805Z</time>
      </trkpt>
      <trkpt lat="42.53988" lon="2.43355">
        <ele>1579.82198</ele>
        <time>2026-07-17T01:37:40.715Z</time>
      </trkpt>
      <trkpt lat="42.53984" lon="2.43353">
        <ele>1581.289404</ele>
        <time>2026-07-17T01:37:55.134Z</time>
      </trkpt>
      <trkpt lat="42.53971" lon="2.43362">
        <ele>1586.294864</ele>
        <time>2026-07-17T01:38:44.155Z</time>
      </trkpt>
      <trkpt lat="42.53967" lon="2.43363">
        <ele>1587.680701</ele>
        <time>2026-07-17T01:38:58.021Z</time>
      </trkpt>
      <trkpt lat="42.53966" lon="2.4336">
        <ele>1588.522895</ele>
        <time>2026-07-17T01:39:06.281Z</time>
      </trkpt>
      <trkpt lat="42.53965" lon="2.43351">
        <ele>1590.837797</ele>
        <time>2026-07-17T01:39:29.530Z</time>
      </trkpt>
      <trkpt lat="42.53954" lon="2.43362">
        <ele>1595.730452</ele>
        <time>2026-07-17T01:40:18.956Z</time>
      </trkpt>
      <trkpt lat="42.53948" lon="2.43358">
        <ele>1597.987396</ele>
        <time>2026-07-17T01:40:42.005Z</time>
      </trkpt>
      <trkpt lat="42.53957" lon="2.43334">
        <ele>1604.771714</ele>
        <time>2026-07-17T01:41:52.349Z</time>
      </trkpt>
      <trkpt lat="42.53937" lon="2.43355">
        <ele>1613.343871</ele>
        <time>2026-07-17T01:43:22.440Z</time>
      </trkpt>
      <trkpt lat="42.53917" lon="2.43386">
        <ele>1623.309348</ele>
        <time>2026-07-17T01:45:06.444Z</time>
      </trkpt>
      <trkpt lat="42.53912" lon="2.43382">
        <ele>1625.279054</ele>
        <time>2026-07-17T01:45:26.887Z</time>
      </trkpt>
      <trkpt lat="42.53904" lon="2.43391">
        <ele>1628.752931</ele>
        <time>2026-07-17T01:46:02.501Z</time>
      </trkpt>
      <trkpt lat="42.53897" lon="2.43389">
        <ele>1631.197425</ele>
        <time>2026-07-17T01:46:27.962Z</time>
      </trkpt>
      <trkpt lat="42.5389" lon="2.43393">
        <ele>1633.757649</ele>
        <time>2026-07-17T01:46:54.028Z</time>
      </trkpt>
      <trkpt lat="42.53871" lon="2.43419">
        <ele>1641.695645</ele>
        <time>2026-07-17T01:48:27.802Z</time>
      </trkpt>
      <trkpt lat="42.53864" lon="2.43431">
        <ele>1644.616343</ele>
        <time>2026-07-17T01:49:07.368Z</time>
      </trkpt>
      <trkpt lat="42.53845" lon="2.43488">
        <ele>1656.048544</ele>
        <time>2026-07-17T01:51:33.660Z</time>
      </trkpt>
      <trkpt lat="42.53842" lon="2.43502">
        <ele>1658.733317</ele>
        <time>2026-07-17T01:52:05.311Z</time>
      </trkpt>
      <trkpt lat="42.53846" lon="2.43516">
        <ele>1661.284449</ele>
        <time>2026-07-17T01:52:34.573Z</time>
      </trkpt>
      <trkpt lat="42.53839" lon="2.43535">
        <ele>1665.154668</ele>
        <time>2026-07-17T01:53:16.678Z</time>
      </trkpt>
      <trkpt lat="42.53833" lon="2.43537">
        <ele>1666.896174</ele>
        <time>2026-07-17T01:53:34.725Z</time>
      </trkpt>
      <trkpt lat="42.53825" lon="2.43518">
        <ele>1670.902469</ele>
        <time>2026-07-17T01:54:13.540Z</time>
      </trkpt>
      <trkpt lat="42.53833" lon="2.43514">
        <ele>1673.062954</ele>
        <time>2026-07-17T01:54:33.213Z</time>
      </trkpt>
      <trkpt lat="42.53824" lon="2.43484">
        <ele>1678.976385</ele>
        <time>2026-07-17T01:55:24.147Z</time>
      </trkpt>
      <trkpt lat="42.53825" lon="2.43463">
        <ele>1682.9418</ele>
        <time>2026-07-17T01:55:55.860Z</time>
      </trkpt>
      <trkpt lat="42.53821" lon="2.43445">
        <ele>1684.653444</ele>
        <time>2026-07-17T01:56:21.434Z</time>
      </trkpt>
      <trkpt lat="42.5382" lon="2.43425">
        <ele>1686.396128</ele>
        <time>2026-07-17T01:56:47.981Z</time>
      </trkpt>
      <trkpt lat="42.53813" lon="2.43398">
        <ele>1688.930102</ele>
        <time>2026-07-17T01:57:25.082Z</time>
      </trkpt>
      <trkpt lat="42.53812" lon="2.43374">
        <ele>1691.050544</ele>
        <time>2026-07-17T01:57:55.552Z</time>
      </trkpt>
      <trkpt lat="42.53809" lon="2.43382">
        <ele>1691.853422</ele>
        <time>2026-07-17T01:58:07.021Z</time>
      </trkpt>
      <trkpt lat="42.53806" lon="2.43351">
        <ele>1694.636419</ele>
        <time>2026-07-17T01:58:45.868Z</time>
      </trkpt>
      <trkpt lat="42.53799" lon="2.43347">
        <ele>1695.550315</ele>
        <time>2026-07-17T01:58:58.413Z</time>
      </trkpt>
      <trkpt lat="42.5378" lon="2.43319">
        <ele>1698.820974</ele>
        <time>2026-07-17T01:59:43.223Z</time>
      </trkpt>
      <trkpt lat="42.53773" lon="2.43304">
        <ele>1700.417874</ele>
        <time>2026-07-17T02:00:05.003Z</time>
      </trkpt>
      <trkpt lat="42.53771" lon="2.43318">
        <ele>1701.685303</ele>
        <time>2026-07-17T02:00:22.121Z</time>
      </trkpt>
      <trkpt lat="42.53761" lon="2.43298">
        <ele>1703.853376</ele>
        <time>2026-07-17T02:00:50.772Z</time>
      </trkpt>
      <trkpt lat="42.53758" lon="2.43299">
        <ele>1704.212846</ele>
        <time>2026-07-17T02:00:55.109Z</time>
      </trkpt>
      <trkpt lat="42.53755" lon="2.43326">
        <ele>1707.355367</ele>
        <time>2026-07-17T02:01:24.801Z</time>
      </trkpt>
      <trkpt lat="42.53757" lon="2.43339">
        <ele>1708.880285</ele>
        <time>2026-07-17T02:01:40.186Z</time>
      </trkpt>
      <trkpt lat="42.53751" lon="2.43328">
        <ele>1710.51316</ele>
        <time>2026-07-17T02:01:56.955Z</time>
      </trkpt>
      <trkpt lat="42.5375" lon="2.43338">
        <ele>1711.697253</ele>
        <time>2026-07-17T02:02:09.646Z</time>
      </trkpt>
      <trkpt lat="42.53742" lon="2.43327">
        <ele>1713.555228</ele>
        <time>2026-07-17T02:02:31.728Z</time>
      </trkpt>
      <trkpt lat="42.53712" lon="2.43325">
        <ele>1718.425062</ele>
        <time>2026-07-17T02:03:31.068Z</time>
      </trkpt>
      <trkpt lat="42.53699" lon="2.4332">
        <ele>1720.585811</ele>
        <time>2026-07-17T02:03:58.938Z</time>
      </trkpt>
      <trkpt lat="42.53691" lon="2.43312">
        <ele>1722.167473</ele>
        <time>2026-07-17T02:04:18.767Z</time>
      </trkpt>
      <trkpt lat="42.53685" lon="2.43315">
        <ele>1723.296848</ele>
        <time>2026-07-17T02:04:35.098Z</time>
      </trkpt>
      <trkpt lat="42.53691" lon="2.43312">
        <ele>1724.426223</ele>
        <time>2026-07-17T02:04:49.910Z</time>
      </trkpt>
      <trkpt lat="42.53697" lon="2.43328">
        <ele>1726.543319</ele>
        <time>2026-07-17T02:05:20.478Z</time>
      </trkpt>
      <trkpt lat="42.53708" lon="2.43345">
        <ele>1729.264998</ele>
        <time>2026-07-17T02:05:59.751Z</time>
      </trkpt>
      <trkpt lat="42.53709" lon="2.43354">
        <ele>1730.269271</ele>
        <time>2026-07-17T02:06:15.386Z</time>
      </trkpt>
      <trkpt lat="42.53719" lon="2.43365">
        <ele>1732.301982</ele>
        <time>2026-07-17T02:06:45.483Z</time>
      </trkpt>
      <trkpt lat="42.53725" lon="2.4338">
        <ele>1735.014778</ele>
        <time>2026-07-17T02:07:17.445Z</time>
      </trkpt>
      <trkpt lat="42.53726" lon="2.43415">
        <ele>1741.879215</ele>
        <time>2026-07-17T02:08:25.755Z</time>
      </trkpt>
      <trkpt lat="42.53716" lon="2.43439">
        <ele>1747.261511</ele>
        <time>2026-07-17T02:09:25.617Z</time>
      </trkpt>
      <trkpt lat="42.53712" lon="2.43461">
        <ele>1751.823849</ele>
        <time>2026-07-17T02:10:19.971Z</time>
      </trkpt>
      <trkpt lat="42.537" lon="2.43492">
        <ele>1758.701093</ele>
        <time>2026-07-17T02:11:37.620Z</time>
      </trkpt>
      <trkpt lat="42.53697" lon="2.43472">
        <ele>1762.628102</ele>
        <time>2026-07-17T02:12:21.714Z</time>
      </trkpt>
      <trkpt lat="42.53681" lon="2.43525">
        <ele>1773.81897</ele>
        <time>2026-07-17T02:14:26.699Z</time>
      </trkpt>
      <trkpt lat="42.53673" lon="2.4358">
        <ele>1785.002063</ele>
        <time>2026-07-17T02:16:27.718Z</time>
      </trkpt>
      <trkpt lat="42.53661" lon="2.43616">
        <ele>1793.034927</ele>
        <time>2026-07-17T02:17:56.458Z</time>
      </trkpt>
      <trkpt lat="42.53652" lon="2.43595">
        <ele>1797.905224</ele>
        <time>2026-07-17T02:18:50.874Z</time>
      </trkpt>
      <trkpt lat="42.53642" lon="2.43626">
        <ele>1804.60017</ele>
        <time>2026-07-17T02:20:05.804Z</time>
      </trkpt>
      <trkpt lat="42.53641" lon="2.43642">
        <ele>1807.938179</ele>
        <time>2026-07-17T02:20:43.042Z</time>
      </trkpt>
      <trkpt lat="42.53627" lon="2.43615">
        <ele>1814.693477</ele>
        <time>2026-07-17T02:21:58.221Z</time>
      </trkpt>
      <trkpt lat="42.53621" lon="2.43663">
        <ele>1824.574952</ele>
        <time>2026-07-17T02:23:42.121Z</time>
      </trkpt>
      <trkpt lat="42.53616" lon="2.43682">
        <ele>1828.587533</ele>
        <time>2026-07-17T02:24:22.118Z</time>
      </trkpt>
      <trkpt lat="42.53616" lon="2.4375">
        <ele>1841.754179</ele>
        <time>2026-07-17T02:26:36.705Z</time>
      </trkpt>
      <trkpt lat="42.53592" lon="2.43705">
        <ele>1852.410394</ele>
        <time>2026-07-17T02:28:26.383Z</time>
      </trkpt>
      <trkpt lat="42.53589" lon="2.43733">
        <ele>1857.717016</ele>
        <time>2026-07-17T02:29:22.010Z</time>
      </trkpt>
      <trkpt lat="42.53582" lon="2.43718">
        <ele>1860.986563</ele>
        <time>2026-07-17T02:29:57.149Z</time>
      </trkpt>
      <trkpt lat="42.53581" lon="2.43722">
        <ele>1861.86864</ele>
        <time>2026-07-17T02:30:06.779Z</time>
      </trkpt>
      <trkpt lat="42.53563" lon="2.43703">
        <ele>1867.964309</ele>
        <time>2026-07-17T02:31:14.089Z</time>
      </trkpt>
      <trkpt lat="42.53545" lon="2.43721">
        <ele>1873.683672</ele>
        <time>2026-07-17T02:32:17.913Z</time>
      </trkpt>
      <trkpt lat="42.53545" lon="2.43746">
        <ele>1878.492592</ele>
        <time>2026-07-17T02:33:12.686Z</time>
      </trkpt>
      <trkpt lat="42.53536" lon="2.43745">
        <ele>1881.400115</ele>
        <time>2026-07-17T02:33:39.663Z</time>
      </trkpt>
      <trkpt lat="42.53533" lon="2.43762">
        <ele>1885.812633</ele>
        <time>2026-07-17T02:34:21.445Z</time>
      </trkpt>
      <trkpt lat="42.53538" lon="2.43773">
        <ele>1889.011498</ele>
        <time>2026-07-17T02:34:52.641Z</time>
      </trkpt>
      <trkpt lat="42.53538" lon="2.43791">
        <ele>1893.498574</ele>
        <time>2026-07-17T02:35:36.737Z</time>
      </trkpt>
      <trkpt lat="42.53534" lon="2.43795">
        <ele>1895.196593</ele>
        <time>2026-07-17T02:35:53.629Z</time>
      </trkpt>
      <trkpt lat="42.53535" lon="2.43815">
        <ele>1900.141173</ele>
        <time>2026-07-17T02:36:43.400Z</time>
      </trkpt>
      <trkpt lat="42.53545" lon="2.43868">
        <ele>1913.389584</ele>
        <time>2026-07-17T02:39:01.062Z</time>
      </trkpt>
      <trkpt lat="42.53517" lon="2.43853">
        <ele>1923.548861</ele>
        <time>2026-07-17T02:40:50.428Z</time>
      </trkpt>
      <trkpt lat="42.53516" lon="2.43862">
        <ele>1925.670375</ele>
        <time>2026-07-17T02:41:13.570Z</time>
      </trkpt>
      <trkpt lat="42.53524" lon="2.43895">
        <ele>1934.224813</ele>
        <time>2026-07-17T02:42:44.556Z</time>
      </trkpt>
      <trkpt lat="42.53517" lon="2.43935">
        <ele>1944.10211</ele>
        <time>2026-07-17T02:44:30.634Z</time>
      </trkpt>
      <trkpt lat="42.53516" lon="2.43945">
        <ele>1946.291267</ele>
        <time>2026-07-17T02:44:54.984Z</time>
      </trkpt>
      <trkpt lat="42.53512" lon="2.43951">
        <ele>1948.348361</ele>
        <time>2026-07-17T02:45:17.278Z</time>
      </trkpt>
      <trkpt lat="42.53507" lon="2.44012">
        <ele>1962.636255</ele>
        <time>2026-07-17T02:47:50.995Z</time>
      </trkpt>
      <trkpt lat="42.53501" lon="2.4404">
        <ele>1969.550062</ele>
        <time>2026-07-17T02:49:03.841Z</time>
      </trkpt>
      <trkpt lat="42.535" lon="2.44067">
        <ele>1975.736169</ele>
        <time>2026-07-17T02:50:08.077Z</time>
      </trkpt>
      <trkpt lat="42.53496" lon="2.44098">
        <ele>1983.151935</ele>
        <time>2026-07-17T02:51:23.197Z</time>
      </trkpt>
      <trkpt lat="42.53495" lon="2.44145">
        <ele>1994.118383</ele>
        <time>2026-07-17T02:53:07.023Z</time>
      </trkpt>
      <trkpt lat="42.53501" lon="2.44164">
        <ele>1997.903746</ele>
        <time>2026-07-17T02:53:51.745Z</time>
      </trkpt>
      <trkpt lat="42.53497" lon="2.44181">
        <ele>2000.727297</ele>
        <time>2026-07-17T02:54:27.252Z</time>
      </trkpt>
      <trkpt lat="42.53515" lon="2.44202">
        <ele>2005.943862</ele>
        <time>2026-07-17T02:55:30.872Z</time>
      </trkpt>
      <trkpt lat="42.53536" lon="2.44241">
        <ele>2013.764523</ele>
        <time>2026-07-17T02:57:01.198Z</time>
      </trkpt>
      <trkpt lat="42.53609" lon="2.44296">
        <ele>2032.185701</ele>
        <time>2026-07-17T03:00:14.593Z</time>
      </trkpt>
      <trkpt lat="42.53632" lon="2.44308">
        <ele>2037.584812</ele>
        <time>2026-07-17T03:01:09.754Z</time>
      </trkpt>
      <trkpt lat="42.53676" lon="2.44337">
        <ele>2048.717826</ele>
        <time>2026-07-17T03:03:06.494Z</time>
      </trkpt>
      <trkpt lat="42.53703" lon="2.44349">
        <ele>2055.215742</ele>
        <time>2026-07-17T03:04:19.624Z</time>
      </trkpt>
      <trkpt lat="42.53712" lon="2.44357">
        <ele>2057.762379</ele>
        <time>2026-07-17T03:04:49.126Z</time>
      </trkpt>
      <trkpt lat="42.53711" lon="2.44364">
        <ele>2058.899797</ele>
        <time>2026-07-17T03:05:02.376Z</time>
      </trkpt>
      <trkpt lat="42.53702" lon="2.44391">
        <ele>2063.888027</ele>
        <time>2026-07-17T03:06:01.637Z</time>
      </trkpt>
      <trkpt lat="42.53683" lon="2.44425">
        <ele>2071.189622</ele>
        <time>2026-07-17T03:07:31.007Z</time>
      </trkpt>
      <trkpt lat="42.53668" lon="2.44483">
        <ele>2081.429202</ele>
        <time>2026-07-17T03:09:41.826Z</time>
      </trkpt>
      <trkpt lat="42.53669" lon="2.44536">
        <ele>2090.046233</ele>
        <time>2026-07-17T03:11:29.164Z</time>
      </trkpt>
      <trkpt lat="42.53667" lon="2.44564">
        <ele>2094.769818</ele>
        <time>2026-07-17T03:12:24.925Z</time>
      </trkpt>
      <trkpt lat="42.53673" lon="2.44587">
        <ele>2098.750052</ele>
        <time>2026-07-17T03:13:11.406Z</time>
      </trkpt>
      <trkpt lat="42.53678" lon="2.446">
        <ele>2101.252564</ele>
        <time>2026-07-17T03:13:40.142Z</time>
      </trkpt>
      <trkpt lat="42.5368" lon="2.44611">
        <ele>2103.05108</ele>
        <time>2026-07-17T03:14:00.147Z</time>
      </trkpt>
      <trkpt lat="42.53672" lon="2.44631">
        <ele>2106.751295</ele>
        <time>2026-07-17T03:14:40.477Z</time>
      </trkpt>
      <trkpt lat="42.53656" lon="2.44657">
        <ele>2112.395969</ele>
        <time>2026-07-17T03:15:38.788Z</time>
      </trkpt>
      <trkpt lat="42.5364" lon="2.44675">
        <ele>2116.752813</ele>
        <time>2026-07-17T03:16:23.475Z</time>
      </trkpt>
      <trkpt lat="42.53639" lon="2.44686">
        <ele>2118.203977</ele>
        <time>2026-07-17T03:16:41.100Z</time>
      </trkpt>
      <trkpt lat="42.53635" lon="2.44694">
        <ele>2119.528732</ele>
        <time>2026-07-17T03:16:57.282Z</time>
      </trkpt>
      <trkpt lat="42.53631" lon="2.44718">
        <ele>2122.679044</ele>
        <time>2026-07-17T03:17:34.846Z</time>
      </trkpt>
      <trkpt lat="42.53612" lon="2.44764">
        <ele>2129.579691</ele>
        <time>2026-07-17T03:18:54.614Z</time>
      </trkpt>
      <trkpt lat="42.53608" lon="2.44808">
        <ele>2135.326158</ele>
        <time>2026-07-17T03:20:05.489Z</time>
      </trkpt>
      <trkpt lat="42.5362" lon="2.44856">
        <ele>2141.867756</ele>
        <time>2026-07-17T03:21:30.284Z</time>
      </trkpt>
      <trkpt lat="42.53621" lon="2.44888">
        <ele>2146.041224</ele>
        <time>2026-07-17T03:22:23.502Z</time>
      </trkpt>
      <trkpt lat="42.53618" lon="2.44906">
        <ele>2148.603032</ele>
        <time>2026-07-17T03:22:54.030Z</time>
      </trkpt>
      <trkpt lat="42.53605" lon="2.44926">
        <ele>2152.524611</ele>
        <time>2026-07-17T03:23:35.807Z</time>
      </trkpt>
      <trkpt lat="42.53586" lon="2.44944">
        <ele>2157.353308</ele>
        <time>2026-07-17T03:24:26.796Z</time>
      </trkpt>
      <trkpt lat="42.53557" lon="2.44965">
        <ele>2163.965596</ele>
        <time>2026-07-17T03:25:38.875Z</time>
      </trkpt>
      <trkpt lat="42.53554" lon="2.44971">
        <ele>2164.991942</ele>
        <time>2026-07-17T03:25:50.433Z</time>
      </trkpt>
      <trkpt lat="42.53533" lon="2.4503">
        <ele>2174.974278</ele>
        <time>2026-07-17T03:27:48.881Z</time>
      </trkpt>
      <trkpt lat="42.53534" lon="2.45039">
        <ele>2176.348135</ele>
        <time>2026-07-17T03:28:06.081Z</time>
      </trkpt>
      <trkpt lat="42.53535" lon="2.45092">
        <ele>2184.230398</ele>
        <time>2026-07-17T03:29:50.601Z</time>
      </trkpt>
      <trkpt lat="42.53521" lon="2.45119">
        <ele>2189.795345</ele>
        <time>2026-07-17T03:30:57.867Z</time>
      </trkpt>
      <trkpt lat="42.53501" lon="2.45148">
        <ele>2196.427192</ele>
        <time>2026-07-17T03:32:19.154Z</time>
      </trkpt>
      <trkpt lat="42.53495" lon="2.45151">
        <ele>2197.84059</ele>
        <time>2026-07-17T03:32:36.882Z</time>
      </trkpt>
      <trkpt lat="42.53492" lon="2.45171">
        <ele>2201.149028</ele>
        <time>2026-07-17T03:33:17.896Z</time>
      </trkpt>
      <trkpt lat="42.53487" lon="2.45179">
        <ele>2202.931186</ele>
        <time>2026-07-17T03:33:39.804Z</time>
      </trkpt>
      <trkpt lat="42.53477" lon="2.45212">
        <ele>2208.881334</ele>
        <time>2026-07-17T03:34:52.158Z</time>
      </trkpt>
      <trkpt lat="42.53477" lon="2.45219">
        <ele>2210.05312</ele>
        <time>2026-07-17T03:35:05.956Z</time>
      </trkpt>
      <trkpt lat="42.53472" lon="2.45228">
        <ele>2211.967228</ele>
        <time>2026-07-17T03:35:28.583Z</time>
      </trkpt>
      <trkpt lat="42.53464" lon="2.45259">
        <ele>2217.477277</ele>
        <time>2026-07-17T03:36:30.978Z</time>
      </trkpt>
      <trkpt lat="42.53463" lon="2.45267">
        <ele>2218.855658</ele>
        <time>2026-07-17T03:36:46.101Z</time>
      </trkpt>
      <trkpt lat="42.53482" lon="2.45353">
        <ele>2230.462369</ele>
        <time>2026-07-17T03:39:10.279Z</time>
      </trkpt>
      <trkpt lat="42.53483" lon="2.45367">
        <ele>2231.911505</ele>
        <time>2026-07-17T03:39:30.139Z</time>
      </trkpt>
      <trkpt lat="42.53483" lon="2.45385">
        <ele>2233.776975</ele>
        <time>2026-07-17T03:39:55.002Z</time>
      </trkpt>
      <trkpt lat="42.53465" lon="2.4545">
        <ele>2240.764224</ele>
        <time>2026-07-17T03:41:31.241Z</time>
      </trkpt>
      <trkpt lat="42.53444" lon="2.45485">
        <ele>2245.365987</ele>
        <time>2026-07-17T03:42:36.322Z</time>
      </trkpt>
      <trkpt lat="42.53436" lon="2.45492">
        <ele>2246.785435</ele>
        <time>2026-07-17T03:42:54.015Z</time>
      </trkpt>
      <trkpt lat="42.5343" lon="2.45494">
        <ele>2247.639629</ele>
        <time>2026-07-17T03:43:04.531Z</time>
      </trkpt>
      <trkpt lat="42.53404" lon="2.4551">
        <ele>2249.619691</ele>
        <time>2026-07-17T03:43:48.722Z</time>
      </trkpt>
      <trkpt lat="42.53387" lon="2.45513">
        <ele>2248.914552</ele>
        <time>2026-07-17T03:44:14.742Z</time>
      </trkpt>
      <trkpt lat="42.53362" lon="2.45529">
        <ele>2247.828157</ele>
        <time>2026-07-17T03:44:51.440Z</time>
      </trkpt>
      <trkpt lat="42.53338" lon="2.45593">
        <ele>2245.719502</ele>
        <time>2026-07-17T03:46:16.546Z</time>
      </trkpt>
      <trkpt lat="42.5333" lon="2.45637">
        <ele>2244.401183</ele>
        <time>2026-07-17T03:47:16.725Z</time>
      </trkpt>
      <trkpt lat="42.53321" lon="2.45661">
        <ele>2243.605747</ele>
        <time>2026-07-17T03:47:55.503Z</time>
      </trkpt>
      <trkpt lat="42.53314" lon="2.45704">
        <ele>2240.849544</ele>
        <time>2026-07-17T03:49:01.810Z</time>
      </trkpt>
      <trkpt lat="42.5331" lon="2.45715">
        <ele>2239.596675</ele>
        <time>2026-07-17T03:49:19.516Z</time>
      </trkpt>
      <trkpt lat="42.53297" lon="2.45736">
        <ele>2236.743423</ele>
        <time>2026-07-17T03:49:59.530Z</time>
      </trkpt>
      <trkpt lat="42.53287" lon="2.45762">
        <ele>2233.799531</ele>
        <time>2026-07-17T03:50:40.160Z</time>
      </trkpt>
      <trkpt lat="42.53239" lon="2.45797">
        <ele>2226.124273</ele>
        <time>2026-07-17T03:52:22.993Z</time>
      </trkpt>
      <trkpt lat="42.53224" lon="2.45803">
        <ele>2223.910989</ele>
        <time>2026-07-17T03:52:52.280Z</time>
      </trkpt>
      <trkpt lat="42.53213" lon="2.45812">
        <ele>2222.117059</ele>
        <time>2026-07-17T03:53:16.198Z</time>
      </trkpt>
      <trkpt lat="42.53192" lon="2.45818">
        <ele>2219.204256</ele>
        <time>2026-07-17T03:53:55.156Z</time>
      </trkpt>
      <trkpt lat="42.53156" lon="2.45872">
        <ele>2210.207687</ele>
        <time>2026-07-17T03:55:37.982Z</time>
      </trkpt>
      <trkpt lat="42.53131" lon="2.45922">
        <ele>2202.458086</ele>
        <time>2026-07-17T03:57:05.981Z</time>
      </trkpt>
      <trkpt lat="42.53128" lon="2.45932">
        <ele>2201.041649</ele>
        <time>2026-07-17T03:57:22.771Z</time>
      </trkpt>
      <trkpt lat="42.53126" lon="2.45964">
        <ele>2196.922566</ele>
        <time>2026-07-17T03:58:12.321Z</time>
      </trkpt>
      <trkpt lat="42.53143" lon="2.45978">
        <ele>2193.422272</ele>
        <time>2026-07-17T03:58:56.686Z</time>
      </trkpt>
      <trkpt lat="42.5315" lon="2.45999">
        <ele>2190.414644</ele>
        <time>2026-07-17T03:59:36.271Z</time>
      </trkpt>
      <trkpt lat="42.53166" lon="2.46031">
        <ele>2185.670317</ele>
        <time>2026-07-17T04:00:41.280Z</time>
      </trkpt>
      <trkpt lat="42.53171" lon="2.46035">
        <ele>2184.766796</ele>
        <time>2026-07-17T04:00:55.217Z</time>
      </trkpt>
      <trkpt lat="42.53174" lon="2.46062">
        <ele>2181.847801</ele>
        <time>2026-07-17T04:01:39.438Z</time>
      </trkpt>
      <trkpt lat="42.53199" lon="2.46068">
        <ele>2178.212075</ele>
        <time>2026-07-17T04:02:31.888Z</time>
      </trkpt>
      <trkpt lat="42.53216" lon="2.46083">
        <ele>2175.309714</ele>
        <time>2026-07-17T04:03:11.681Z</time>
      </trkpt>
      <trkpt lat="42.53225" lon="2.46084">
        <ele>2174.041463</ele>
        <time>2026-07-17T04:03:28.659Z</time>
      </trkpt>
      <trkpt lat="42.53229" lon="2.46095">
        <ele>2172.768309</ele>
        <time>2026-07-17T04:03:45.429Z</time>
      </trkpt>
      <trkpt lat="42.53244" lon="2.46097">
        <ele>2170.59716</ele>
        <time>2026-07-17T04:04:13.665Z</time>
      </trkpt>
      <trkpt lat="42.53255" lon="2.46099">
        <ele>2168.993578</ele>
        <time>2026-07-17T04:04:34.292Z</time>
      </trkpt>
      <trkpt lat="42.53259" lon="2.46103">
        <ele>2168.335191</ele>
        <time>2026-07-17T04:04:42.969Z</time>
      </trkpt>
      <trkpt lat="42.53262" lon="2.46117">
        <ele>2166.689909</ele>
        <time>2026-07-17T04:05:04.133Z</time>
      </trkpt>
      <trkpt lat="42.53274" lon="2.46125">
        <ele>2164.801349</ele>
        <time>2026-07-17T04:05:28.277Z</time>
      </trkpt>
      <trkpt lat="42.5328" lon="2.46131">
        <ele>2163.74324</ele>
        <time>2026-07-17T04:05:41.764Z</time>
      </trkpt>
      <trkpt lat="42.53285" lon="2.46149">
        <ele>2161.743226</ele>
        <time>2026-07-17T04:06:06.696Z</time>
      </trkpt>
      <trkpt lat="42.53286" lon="2.46192">
        <ele>2159.419854</ele>
        <time>2026-07-17T04:07:01.719Z</time>
      </trkpt>
      <trkpt lat="42.5329" lon="2.46207">
        <ele>2158.926953</ele>
        <time>2026-07-17T04:07:21.084Z</time>
      </trkpt>
      <trkpt lat="42.53292" lon="2.46211">
        <ele>2158.749362</ele>
        <time>2026-07-17T04:07:28.030Z</time>
      </trkpt>
      <trkpt lat="42.53309" lon="2.46221">
        <ele>2157.951466</ele>
        <time>2026-07-17T04:07:58.597Z</time>
      </trkpt>
      <trkpt lat="42.53323" lon="2.46237">
        <ele>2157.205335</ele>
        <time>2026-07-17T04:08:26.635Z</time>
      </trkpt>
      <trkpt lat="42.53326" lon="2.46248">
        <ele>2156.827508</ele>
        <time>2026-07-17T04:08:40.774Z</time>
      </trkpt>
      <trkpt lat="42.53328" lon="2.46273">
        <ele>2156.038108</ele>
        <time>2026-07-17T04:09:09.595Z</time>
      </trkpt>
      <trkpt lat="42.53326" lon="2.46286">
        <ele>2155.628056</ele>
        <time>2026-07-17T04:09:24.618Z</time>
      </trkpt>
      <trkpt lat="42.53321" lon="2.46297">
        <ele>2155.22666</ele>
        <time>2026-07-17T04:09:39.687Z</time>
      </trkpt>
      <trkpt lat="42.53298" lon="2.46313">
        <ele>2154.138759</ele>
        <time>2026-07-17T04:10:20.962Z</time>
      </trkpt>
      <trkpt lat="42.53295" lon="2.46319">
        <ele>2153.895773</ele>
        <time>2026-07-17T04:10:30.320Z</time>
      </trkpt>
      <trkpt lat="42.53294" lon="2.46348">
        <ele>2153.016598</ele>
        <time>2026-07-17T04:11:04.010Z</time>
      </trkpt>
      <trkpt lat="42.53289" lon="2.46361">
        <ele>2152.596102</ele>
        <time>2026-07-17T04:11:22.536Z</time>
      </trkpt>
      <trkpt lat="42.53288" lon="2.4637">
        <ele>2152.398339</ele>
        <time>2026-07-17T04:11:32.650Z</time>
      </trkpt>
      <trkpt lat="42.53275" lon="2.46366">
        <ele>2151.972928</ele>
        <time>2026-07-17T04:11:49.949Z</time>
      </trkpt>
      <trkpt lat="42.53288" lon="2.4637">
        <ele>2151.547516</ele>
        <time>2026-07-17T04:12:07.297Z</time>
      </trkpt>
      <trkpt lat="42.5329" lon="2.46374">
        <ele>2151.446665</ele>
        <time>2026-07-17T04:12:12.587Z</time>
      </trkpt>
      <trkpt lat="42.53298" lon="2.46377">
        <ele>2151.196988</ele>
        <time>2026-07-17T04:12:25.327Z</time>
      </trkpt>
      <trkpt lat="42.53305" lon="2.46402">
        <ele>2150.598466</ele>
        <time>2026-07-17T04:12:55.610Z</time>
      </trkpt>
      <trkpt lat="42.5331" lon="2.46407">
        <ele>2150.406885</ele>
        <time>2026-07-17T04:13:05.565Z</time>
      </trkpt>
      <trkpt lat="42.53333" lon="2.46409">
        <ele>2149.693143</ele>
        <time>2026-07-17T04:13:42.004Z</time>
      </trkpt>
      <trkpt lat="42.53336" lon="2.46412">
        <ele>2149.554015</ele>
        <time>2026-07-17T04:13:49.330Z</time>
      </trkpt>
      <trkpt lat="42.53351" lon="2.46436">
        <ele>2148.838589</ele>
        <time>2026-07-17T04:14:19.463Z</time>
      </trkpt>
      <trkpt lat="42.53361" lon="2.46444">
        <ele>2148.467811</ele>
        <time>2026-07-17T04:14:35.035Z</time>
      </trkpt>
      <trkpt lat="42.53396" lon="2.46462">
        <ele>2147.305826</ele>
        <time>2026-07-17T04:15:23.555Z</time>
      </trkpt>
      <trkpt lat="42.53418" lon="2.4649">
        <ele>2148.030725</ele>
        <time>2026-07-17T04:16:01.303Z</time>
      </trkpt>
      <trkpt lat="42.5342" lon="2.46513">
        <ele>2148.578176</ele>
        <time>2026-07-17T04:16:21.624Z</time>
      </trkpt>
      <trkpt lat="42.53427" lon="2.46524">
        <ele>2148.917292</ele>
        <time>2026-07-17T04:16:34.106Z</time>
      </trkpt>
      <trkpt lat="42.53406" lon="2.46549">
        <ele>2149.829443</ele>
        <time>2026-07-17T04:17:08.520Z</time>
      </trkpt>
      <trkpt lat="42.53323" lon="2.46627">
        <ele>2153.320026</ele>
        <time>2026-07-17T04:19:32.429Z</time>
      </trkpt>
      <trkpt lat="42.53288" lon="2.46677">
        <ele>2160.69103</ele>
        <time>2026-07-17T04:20:57.670Z</time>
      </trkpt>
      <trkpt lat="42.53261" lon="2.46703">
        <ele>2165.360445</ele>
        <time>2026-07-17T04:22:00.405Z</time>
      </trkpt>
      <trkpt lat="42.53246" lon="2.46724">
        <ele>2168.48381</ele>
        <time>2026-07-17T04:22:45.677Z</time>
      </trkpt>
      <trkpt lat="42.5322" lon="2.46721">
        <ele>2172.267839</ele>
        <time>2026-07-17T04:24:04.750Z</time>
      </trkpt>
      <trkpt lat="42.53215" lon="2.46732">
        <ele>2173.60554</ele>
        <time>2026-07-17T04:24:32.606Z</time>
      </trkpt>
      <trkpt lat="42.53206" lon="2.46741">
        <ele>2175.157848</ele>
        <time>2026-07-17T04:25:04.945Z</time>
      </trkpt>
      <trkpt lat="42.53206" lon="2.46754">
        <ele>2176.568112</ele>
        <time>2026-07-17T04:25:34.340Z</time>
      </trkpt>
      <trkpt lat="42.53194" lon="2.4679">
        <ele>2181.332033</ele>
        <time>2026-07-17T04:26:59.449Z</time>
      </trkpt>
      <trkpt lat="42.53193" lon="2.46779">
        <ele>2182.824249</ele>
        <time>2026-07-17T04:27:22.095Z</time>
      </trkpt>
      <trkpt lat="42.53191" lon="2.46773">
        <ele>2183.873131</ele>
        <time>2026-07-17T04:27:38.125Z</time>
      </trkpt>
      <trkpt lat="42.53186" lon="2.46769">
        <ele>2184.945495</ele>
        <time>2026-07-17T04:27:54.885Z</time>
      </trkpt>
      <trkpt lat="42.53174" lon="2.46769">
        <ele>2187.294127</ele>
        <time>2026-07-17T04:28:31.933Z</time>
      </trkpt>
      <trkpt lat="42.53165" lon="2.46774">
        <ele>2189.101576</ele>
        <time>2026-07-17T04:29:01.135Z</time>
      </trkpt>
      <trkpt lat="42.53172" lon="2.46787">
        <ele>2191.385218</ele>
        <time>2026-07-17T04:29:38.530Z</time>
      </trkpt>
      <trkpt lat="42.53172" lon="2.468">
        <ele>2193.271823</ele>
        <time>2026-07-17T04:30:09.327Z</time>
      </trkpt>
      <trkpt lat="42.53169" lon="2.46809">
        <ele>2194.680759</ele>
        <time>2026-07-17T04:30:32.302Z</time>
      </trkpt>
      <trkpt lat="42.53162" lon="2.46818">
        <ele>2196.479379</ele>
        <time>2026-07-17T04:31:01.192Z</time>
      </trkpt>
      <trkpt lat="42.53149" lon="2.46846">
        <ele>2201.148833</ele>
        <time>2026-07-17T04:32:16.545Z</time>
      </trkpt>
      <trkpt lat="42.5313" lon="2.46871">
        <ele>2206.329123</ele>
        <time>2026-07-17T04:33:42.049Z</time>
      </trkpt>
      <trkpt lat="42.53122" lon="2.46878">
        <ele>2208.138369</ele>
        <time>2026-07-17T04:34:12.243Z</time>
      </trkpt>
      <trkpt lat="42.53117" lon="2.46886">
        <ele>2209.599968</ele>
        <time>2026-07-17T04:34:36.630Z</time>
      </trkpt>
      <trkpt lat="42.53112" lon="2.4689">
        <ele>2210.763125</ele>
        <time>2026-07-17T04:34:56.028Z</time>
      </trkpt>
      <trkpt lat="42.53101" lon="2.46892">
        <ele>2212.958161</ele>
        <time>2026-07-17T04:35:32.620Z</time>
      </trkpt>
      <trkpt lat="42.53097" lon="2.4689">
        <ele>2213.695757</ele>
        <time>2026-07-17T04:35:44.320Z</time>
      </trkpt>
      <trkpt lat="42.53096" lon="2.46884">
        <ele>2214.698307</ele>
        <time>2026-07-17T04:35:58.939Z</time>
      </trkpt>
      <trkpt lat="42.53092" lon="2.46878">
        <ele>2216.12736</ele>
        <time>2026-07-17T04:36:19.777Z</time>
      </trkpt>
      <trkpt lat="42.53082" lon="2.46881">
        <ele>2218.2674</ele>
        <time>2026-07-17T04:36:51.268Z</time>
      </trkpt>
      <trkpt lat="42.53075" lon="2.46893">
        <ele>2220.82366</ele>
        <time>2026-07-17T04:37:29.827Z</time>
      </trkpt>
      <trkpt lat="42.53069" lon="2.46895">
        <ele>2222.110293</ele>
        <time>2026-07-17T04:37:49.376Z</time>
      </trkpt>
      <trkpt lat="42.53057" lon="2.46892">
        <ele>2224.780811</ele>
        <time>2026-07-17T04:38:30.796Z</time>
      </trkpt>
      <trkpt lat="42.53054" lon="2.46885">
        <ele>2226.085751</ele>
        <time>2026-07-17T04:38:51.591Z</time>
      </trkpt>
      <trkpt lat="42.5305" lon="2.46884">
        <ele>2226.949068</ele>
        <time>2026-07-17T04:39:05.181Z</time>
      </trkpt>
      <trkpt lat="42.53042" lon="2.46868">
        <ele>2230.258816</ele>
        <time>2026-07-17T04:39:57.771Z</time>
      </trkpt>
      <trkpt lat="42.53038" lon="2.46867">
        <ele>2231.025533</ele>
        <time>2026-07-17T04:40:10.052Z</time>
      </trkpt>
      <trkpt lat="42.53036" lon="2.46873">
        <ele>2232.064806</ele>
        <time>2026-07-17T04:40:26.989Z</time>
      </trkpt>
      <trkpt lat="42.53024" lon="2.46885">
        <ele>2235.483777</ele>
        <time>2026-07-17T04:41:21.858Z</time>
      </trkpt>
      <trkpt lat="42.53011" lon="2.46882">
        <ele>2238.506869</ele>
        <time>2026-07-17T04:42:10.784Z</time>
      </trkpt>
      <trkpt lat="42.53" lon="2.46896">
        <ele>2241.807982</ele>
        <time>2026-07-17T04:43:04.219Z</time>
      </trkpt>
      <trkpt lat="42.52997" lon="2.46879">
        <ele>2244.73394</ele>
        <time>2026-07-17T04:43:51.787Z</time>
      </trkpt>
      <trkpt lat="42.5299" lon="2.46865">
        <ele>2247.374374</ele>
        <time>2026-07-17T04:44:34.187Z</time>
      </trkpt>
      <trkpt lat="42.5295" lon="2.46849">
        <ele>2256.516508</ele>
        <time>2026-07-17T04:46:59.594Z</time>
      </trkpt>
      <trkpt lat="42.52946" lon="2.46851">
        <ele>2257.236365</ele>
        <time>2026-07-17T04:47:11.170Z</time>
      </trkpt>
      <trkpt lat="42.52954" lon="2.46874">
        <ele>2261.110888</ele>
        <time>2026-07-17T04:48:13.588Z</time>
      </trkpt>
      <trkpt lat="42.52955" lon="2.46891">
        <ele>2263.600173</ele>
        <time>2026-07-17T04:48:53.807Z</time>
      </trkpt>
      <trkpt lat="42.52951" lon="2.46903">
        <ele>2265.667082</ele>
        <time>2026-07-17T04:49:26.705Z</time>
      </trkpt>
      <trkpt lat="42.5295" lon="2.46912">
        <ele>2267.041988</ele>
        <time>2026-07-17T04:49:48.495Z</time>
      </trkpt>
      <trkpt lat="42.5293" lon="2.46892">
        <ele>2271.992345</ele>
        <time>2026-07-17T04:51:05.427Z</time>
      </trkpt>
      <trkpt lat="42.529" lon="2.46884">
        <ele>2278.301854</ele>
        <time>2026-07-17T04:52:41.630Z</time>
      </trkpt>
      <trkpt lat="42.52899" lon="2.46886">
        <ele>2278.75557</ele>
        <time>2026-07-17T04:52:48.509Z</time>
      </trkpt>
      <trkpt lat="42.52905" lon="2.46902">
        <ele>2281.465345</ele>
        <time>2026-07-17T04:53:29.462Z</time>
      </trkpt>
      <trkpt lat="42.52906" lon="2.46914">
        <ele>2283.382531</ele>
        <time>2026-07-17T04:53:58.465Z</time>
      </trkpt>
      <trkpt lat="42.52864" lon="2.46901">
        <ele>2292.683158</ele>
        <time>2026-07-17T04:56:17.032Z</time>
      </trkpt>
      <trkpt lat="42.52843" lon="2.46901">
        <ele>2297.505407</ele>
        <time>2026-07-17T04:57:24.464Z</time>
      </trkpt>
      <trkpt lat="42.52834" lon="2.46898">
        <ele>2299.718951</ele>
        <time>2026-07-17T04:57:56.433Z</time>
      </trkpt>
      <trkpt lat="42.52815" lon="2.46905">
        <ele>2304.419318</ele>
        <time>2026-07-17T04:59:06.570Z</time>
      </trkpt>
      <trkpt lat="42.52802" lon="2.46906">
        <ele>2307.356573</ele>
        <time>2026-07-17T04:59:51.553Z</time>
      </trkpt>
      <trkpt lat="42.52798" lon="2.46909">
        <ele>2308.492337</ele>
        <time>2026-07-17T05:00:09.038Z</time>
      </trkpt>
      <trkpt lat="42.52758" lon="2.46916">
        <ele>2318.014727</ele>
        <time>2026-07-17T05:02:38.220Z</time>
      </trkpt>
      <trkpt lat="42.52769" lon="2.46933">
        <ele>2321.937679</ele>
        <time>2026-07-17T05:03:40.709Z</time>
      </trkpt>
      <trkpt lat="42.52763" lon="2.46937">
        <ele>2323.610615</ele>
        <time>2026-07-17T05:04:07.453Z</time>
      </trkpt>
      <trkpt lat="42.52755" lon="2.46935">
        <ele>2325.332427</ele>
        <time>2026-07-17T05:04:34.979Z</time>
      </trkpt>
      <trkpt lat="42.5275" lon="2.46937">
        <ele>2326.592199</ele>
        <time>2026-07-17T05:04:55.039Z</time>
      </trkpt>
      <trkpt lat="42.52765" lon="2.4696">
        <ele>2331.765605</ele>
        <time>2026-07-17T05:06:17.452Z</time>
      </trkpt>
      <trkpt lat="42.52764" lon="2.46963">
        <ele>2332.387145</ele>
        <time>2026-07-17T05:06:27.400Z</time>
      </trkpt>
      <trkpt lat="42.52735" lon="2.46972">
        <ele>2339.834595</ele>
        <time>2026-07-17T05:08:18.786Z</time>
      </trkpt>
      <trkpt lat="42.52717" lon="2.46973">
        <ele>2344.298813</ele>
        <time>2026-07-17T05:09:25.674Z</time>
      </trkpt>
      <trkpt lat="42.52729" lon="2.46999">
        <ele>2349.979981</ele>
        <time>2026-07-17T05:10:51.248Z</time>
      </trkpt>
      <trkpt lat="42.52731" lon="2.4701">
        <ele>2352.063236</ele>
        <time>2026-07-17T05:11:22.516Z</time>
      </trkpt>
      <trkpt lat="42.52726" lon="2.47048">
        <ele>2359.305621</ele>
        <time>2026-07-17T05:13:09.801Z</time>
      </trkpt>
      <trkpt lat="42.52714" lon="2.47074">
        <ele>2365.029737</ele>
        <time>2026-07-17T05:14:33.888Z</time>
      </trkpt>
      <trkpt lat="42.52708" lon="2.47056">
        <ele>2368.655944</ele>
        <time>2026-07-17T05:15:27.316Z</time>
      </trkpt>
      <trkpt lat="42.527" lon="2.47045">
        <ele>2371.586794</ele>
        <time>2026-07-17T05:16:10.831Z</time>
      </trkpt>
      <trkpt lat="42.52693" lon="2.47042">
        <ele>2373.50365</ele>
        <time>2026-07-17T05:16:39.189Z</time>
      </trkpt>
      <trkpt lat="42.52689" lon="2.47054">
        <ele>2375.9425</ele>
        <time>2026-07-17T05:17:15.507Z</time>
      </trkpt>
      <trkpt lat="42.52682" lon="2.47047">
        <ele>2378.16169</ele>
        <time>2026-07-17T05:17:48.163Z</time>
      </trkpt>
      <trkpt lat="42.52676" lon="2.47045">
        <ele>2379.692683</ele>
        <time>2026-07-17T05:18:11.640Z</time>
      </trkpt>
      <trkpt lat="42.52675" lon="2.47059">
        <ele>2382.224036</ele>
        <time>2026-07-17T05:18:50.689Z</time>
      </trkpt>
      <trkpt lat="42.5267" lon="2.47054">
        <ele>2383.835366</ele>
        <time>2026-07-17T05:19:15.635Z</time>
      </trkpt>
      <trkpt lat="42.52668" lon="2.47061">
        <ele>2385.248596</ele>
        <time>2026-07-17T05:19:37.422Z</time>
      </trkpt>
      <trkpt lat="42.52665" lon="2.47063">
        <ele>2386.035214</ele>
        <time>2026-07-17T05:19:49.419Z</time>
      </trkpt>
      <trkpt lat="42.52655" lon="2.47055">
        <ele>2388.827435</ele>
        <time>2026-07-17T05:20:32.145Z</time>
      </trkpt>
      <trkpt lat="42.5263" lon="2.47052">
        <ele>2395.015897</ele>
        <time>2026-07-17T05:22:06.412Z</time>
      </trkpt>
      <trkpt lat="42.52634" lon="2.47068">
        <ele>2398.060048</ele>
        <time>2026-07-17T05:22:52.259Z</time>
      </trkpt>
      <trkpt lat="42.52625" lon="2.4706">
        <ele>2400.597712</ele>
        <time>2026-07-17T05:23:29.964Z</time>
      </trkpt>
      <trkpt lat="42.52619" lon="2.47062">
        <ele>2401.961604</ele>
        <time>2026-07-17T05:23:50.181Z</time>
      </trkpt>
      <trkpt lat="42.52604" lon="2.47057">
        <ele>2405.764042</ele>
        <time>2026-07-17T05:24:46.426Z</time>
      </trkpt>
      <trkpt lat="42.52607" lon="2.47068">
        <ele>2407.90005</ele>
        <time>2026-07-17T05:25:17.415Z</time>
      </trkpt>
      <trkpt lat="42.52605" lon="2.4707">
        <ele>2408.424035</ele>
        <time>2026-07-17T05:25:25.044Z</time>
      </trkpt>
      <trkpt lat="42.52597" lon="2.47065">
        <ele>2410.691698</ele>
        <time>2026-07-17T05:25:58.299Z</time>
      </trkpt>
      <trkpt lat="42.52599" lon="2.47075">
        <ele>2412.391098</ele>
        <time>2026-07-17T05:26:23.379Z</time>
      </trkpt>
      <trkpt lat="42.52597" lon="2.47077">
        <ele>2412.996916</ele>
        <time>2026-07-17T05:26:32.639Z</time>
      </trkpt>
      <trkpt lat="42.52585" lon="2.47069">
        <ele>2416.231797</ele>
        <time>2026-07-17T05:27:20.437Z</time>
      </trkpt>
      <trkpt lat="42.52587" lon="2.47082">
        <ele>2418.438816</ele>
        <time>2026-07-17T05:27:53.167Z</time>
      </trkpt>
      <trkpt lat="42.52562" lon="2.47068">
        <ele>2424.892917</ele>
        <time>2026-07-17T05:29:31.188Z</time>
      </trkpt>
      <trkpt lat="42.52558" lon="2.47069">
        <ele>2425.679828</ele>
        <time>2026-07-17T05:29:43.351Z</time>
      </trkpt>
      <trkpt lat="42.52526" lon="2.47057">
        <ele>2433.412836</ele>
        <time>2026-07-17T05:31:45.154Z</time>
      </trkpt>
      <trkpt lat="42.52526" lon="2.47071">
        <ele>2435.733872</ele>
        <time>2026-07-17T05:32:22.020Z</time>
      </trkpt>
      <trkpt lat="42.52537" lon="2.47096">
        <ele>2440.678799</ele>
        <time>2026-07-17T05:33:39.487Z</time>
      </trkpt>
      <trkpt lat="42.52539" lon="2.47104">
        <ele>2442.082076</ele>
        <time>2026-07-17T05:34:01.707Z</time>
      </trkpt>
      <trkpt lat="42.52504" lon="2.47092">
        <ele>2450.46639</ele>
        <time>2026-07-17T05:36:11.526Z</time>
      </trkpt>
      <trkpt lat="42.52505" lon="2.47104">
        <ele>2452.533138</ele>
        <time>2026-07-17T05:36:43.455Z</time>
      </trkpt>
      <trkpt lat="42.52502" lon="2.47111">
        <ele>2453.851373</ele>
        <time>2026-07-17T05:37:03.513Z</time>
      </trkpt>
      <trkpt lat="42.52501" lon="2.47124">
        <ele>2456.188995</ele>
        <time>2026-07-17T05:37:38.745Z</time>
      </trkpt>
      <trkpt lat="42.52504" lon="2.47147">
        <ele>2460.09213</ele>
        <time>2026-07-17T05:38:36.655Z</time>
      </trkpt>
      <trkpt lat="42.52467" lon="2.47131">
        <ele>2468.723734</ele>
        <time>2026-07-17T05:40:45.153Z</time>
      </trkpt>
      <trkpt lat="42.52467" lon="2.47157">
        <ele>2472.841078</ele>
        <time>2026-07-17T05:41:46.284Z</time>
      </trkpt>
      <trkpt lat="42.52465" lon="2.47163">
        <ele>2473.927265</ele>
        <time>2026-07-17T05:42:02.065Z</time>
      </trkpt>
      <trkpt lat="42.52453" lon="2.47157">
        <ele>2476.860496</ele>
        <time>2026-07-17T05:42:45.918Z</time>
      </trkpt>
      <trkpt lat="42.52421" lon="2.47134">
        <ele>2484.49893</ele>
        <time>2026-07-17T05:44:40.856Z</time>
      </trkpt>
      <trkpt lat="42.52413" lon="2.47133">
        <ele>2486.435386</ele>
        <time>2026-07-17T05:45:10.796Z</time>
      </trkpt>
      <trkpt lat="42.52402" lon="2.47126">
        <ele>2489.046364</ele>
        <time>2026-07-17T05:45:50.969Z</time>
      </trkpt>
      <trkpt lat="42.52392" lon="2.47108">
        <ele>2492.618166</ele>
        <time>2026-07-17T05:46:47.443Z</time>
      </trkpt>
      <trkpt lat="42.52386" lon="2.47117">
        <ele>2494.540213</ele>
        <time>2026-07-17T05:47:09.477Z</time>
      </trkpt>
      <trkpt lat="42.52381" lon="2.47092">
        <ele>2498.691209</ele>
        <time>2026-07-17T05:47:58.782Z</time>
      </trkpt>
      <trkpt lat="42.52372" lon="2.47074">
        <ele>2502.008975</ele>
        <time>2026-07-17T05:48:52.838Z</time>
      </trkpt>
      <trkpt lat="42.5237" lon="2.4708">
        <ele>2503.030653</ele>
        <time>2026-07-17T05:49:09.649Z</time>
      </trkpt>
      <trkpt lat="42.52367" lon="2.47078">
        <ele>2503.966401</ele>
        <time>2026-07-17T05:49:23.470Z</time>
      </trkpt>
      <trkpt lat="42.52333" lon="2.47042">
        <ele>2514.305833</ele>
        <time>2026-07-17T05:51:59.483Z</time>
      </trkpt>
      <trkpt lat="42.52319" lon="2.4702">
        <ele>2519.370897</ele>
        <time>2026-07-17T05:53:16.855Z</time>
      </trkpt>
      <trkpt lat="42.52316" lon="2.47028">
        <ele>2520.978528</ele>
        <time>2026-07-17T05:53:42.117Z</time>
      </trkpt>
      <trkpt lat="42.52313" lon="2.47023">
        <ele>2522.15633</ele>
        <time>2026-07-17T05:54:00.489Z</time>
      </trkpt>
      <trkpt lat="42.52307" lon="2.47042">
        <ele>2525.666112</ele>
        <time>2026-07-17T05:54:55.324Z</time>
      </trkpt>
      <trkpt lat="42.52296" lon="2.47024">
        <ele>2529.644173</ele>
        <time>2026-07-17T05:55:57.606Z</time>
      </trkpt>
      <trkpt lat="42.52291" lon="2.47032">
        <ele>2531.443592</ele>
        <time>2026-07-17T05:56:25.093Z</time>
      </trkpt>
      <trkpt lat="42.52288" lon="2.47031">
        <ele>2532.210311</ele>
        <time>2026-07-17T05:56:37.085Z</time>
      </trkpt>
      <trkpt lat="42.52288" lon="2.47026">
        <ele>2533.133735</ele>
        <time>2026-07-17T05:56:51.019Z</time>
      </trkpt>
      <trkpt lat="42.52282" lon="2.47012">
        <ele>2536.040264</ele>
        <time>2026-07-17T05:57:34.942Z</time>
      </trkpt>
      <trkpt lat="42.52257" lon="2.4698">
        <ele>2544.324273</ele>
        <time>2026-07-17T05:59:39.333Z</time>
      </trkpt>
      <trkpt lat="42.52253" lon="2.46985">
        <ele>2545.573139</ele>
        <time>2026-07-17T05:59:58.019Z</time>
      </trkpt>
      <trkpt lat="42.52247" lon="2.46985">
        <ele>2547.010445</ele>
        <time>2026-07-17T06:00:20.069Z</time>
      </trkpt>
      <trkpt lat="42.52246" lon="2.46973">
        <ele>2549.02826</ele>
        <time>2026-07-17T06:00:51.261Z</time>
      </trkpt>
      <trkpt lat="42.52239" lon="2.46974">
        <ele>2550.69071</ele>
        <time>2026-07-17T06:01:16.612Z</time>
      </trkpt>
      <trkpt lat="42.52237" lon="2.46971">
        <ele>2551.34681</ele>
        <time>2026-07-17T06:01:26.885Z</time>
      </trkpt>
      <trkpt lat="42.52233" lon="2.46952">
        <ele>2554.806189</ele>
        <time>2026-07-17T06:02:20.007Z</time>
      </trkpt>
      <trkpt lat="42.52227" lon="2.46956">
        <ele>2556.341607</ele>
        <time>2026-07-17T06:02:43.372Z</time>
      </trkpt>
      <trkpt lat="42.52224" lon="2.46943">
        <ele>2558.538738</ele>
        <time>2026-07-17T06:03:16.862Z</time>
      </trkpt>
      <trkpt lat="42.52219" lon="2.46946">
        <ele>2559.779393</ele>
        <time>2026-07-17T06:03:35.444Z</time>
      </trkpt>
      <trkpt lat="42.52216" lon="2.46941">
        <ele>2560.834017</ele>
        <time>2026-07-17T06:03:51.169Z</time>
      </trkpt>
      <trkpt lat="42.52212" lon="2.46942">
        <ele>2561.948175</ele>
        <time>2026-07-17T06:04:08.263Z</time>
      </trkpt>
      <trkpt lat="42.52212" lon="2.46937">
        <ele>2562.830569</ele>
        <time>2026-07-17T06:04:21.438Z</time>
      </trkpt>
      <trkpt lat="42.5221" lon="2.46935">
        <ele>2563.548813</ele>
        <time>2026-07-17T06:04:32.184Z</time>
      </trkpt>
      <trkpt lat="42.52206" lon="2.46917">
        <ele>2566.615704</ele>
        <time>2026-07-17T06:05:18.237Z</time>
      </trkpt>
      <trkpt lat="42.52203" lon="2.46917">
        <ele>2567.469616</ele>
        <time>2026-07-17T06:05:31.217Z</time>
      </trkpt>
      <trkpt lat="42.52205" lon="2.46906">
        <ele>2569.398131</ele>
        <time>2026-07-17T06:06:00.086Z</time>
      </trkpt>
      <trkpt lat="42.52204" lon="2.46904">
        <ele>2569.945831</ele>
        <time>2026-07-17T06:06:08.412Z</time>
      </trkpt>
      <trkpt lat="42.52196" lon="2.46909">
        <ele>2571.982448</ele>
        <time>2026-07-17T06:06:39.260Z</time>
      </trkpt>
      <trkpt lat="42.52189" lon="2.4691">
        <ele>2573.530217</ele>
        <time>2026-07-17T06:07:02.345Z</time>
      </trkpt>
      <trkpt lat="42.52191" lon="2.46891">
        <ele>2576.768854</ele>
        <time>2026-07-17T06:07:51.400Z</time>
      </trkpt>
      <trkpt lat="42.52184" lon="2.46897">
        <ele>2578.573702</ele>
        <time>2026-07-17T06:08:18.752Z</time>
      </trkpt>
      <trkpt lat="42.52184" lon="2.46884">
        <ele>2580.724832</ele>
        <time>2026-07-17T06:08:51.112Z</time>
      </trkpt>
      <trkpt lat="42.52178" lon="2.46887">
        <ele>2582.08018</ele>
        <time>2026-07-17T06:09:11.547Z</time>
      </trkpt>
      <trkpt lat="42.52178" lon="2.46874">
        <ele>2584.138844</ele>
        <time>2026-07-17T06:09:42.575Z</time>
      </trkpt>
      <trkpt lat="42.52175" lon="2.46863">
        <ele>2586.142006</ele>
        <time>2026-07-17T06:10:12.949Z</time>
      </trkpt>
      <trkpt lat="42.52167" lon="2.46871">
        <ele>2588.313601</ele>
        <time>2026-07-17T06:10:45.704Z</time>
      </trkpt>
      <trkpt lat="42.52166" lon="2.46865">
        <ele>2589.571986</ele>
        <time>2026-07-17T06:11:03.875Z</time>
      </trkpt>
      <trkpt lat="42.5216" lon="2.46869">
        <ele>2591.099878</ele>
        <time>2026-07-17T06:11:26.127Z</time>
      </trkpt>
      <trkpt lat="42.52157" lon="2.46849">
        <ele>2594.744795</ele>
        <time>2026-07-17T06:12:19.273Z</time>
      </trkpt>
      <trkpt lat="42.5213" lon="2.46782">
        <ele>2608.689011</ele>
        <time>2026-07-17T06:15:48.035Z</time>
      </trkpt>
      <trkpt lat="42.52122" lon="2.46743">
        <ele>2616.054326</ele>
        <time>2026-07-17T06:17:41.936Z</time>
      </trkpt>
      <trkpt lat="42.5211" lon="2.46682">
        <ele>2627.589925</ele>
        <time>2026-07-17T06:20:42.219Z</time>
      </trkpt>
      <trkpt lat="42.52107" lon="2.46681">
        <ele>2628.435675</ele>
        <time>2026-07-17T06:20:55.451Z</time>
      </trkpt>
      <trkpt lat="42.52098" lon="2.46687">
        <ele>2630.977139</ele>
        <time>2026-07-17T06:21:34.518Z</time>
      </trkpt>
      <trkpt lat="42.52093" lon="2.46624">
        <ele>2639.796858</ele>
        <time>2026-07-17T06:24:24.365Z</time>
      </trkpt>
      <trkpt lat="42.52085" lon="2.46593">
        <ele>2644.217833</ele>
        <time>2026-07-17T06:25:46.234Z</time>
      </trkpt>
      <trkpt lat="42.52076" lon="2.466">
        <ele>2646.206687</ele>
        <time>2026-07-17T06:26:21.487Z</time>
      </trkpt>
      <trkpt lat="42.52068" lon="2.46602">
        <ele>2647.646169</ele>
        <time>2026-07-17T06:26:46.150Z</time>
      </trkpt>
      <trkpt lat="42.52065" lon="2.46575">
        <ele>2651.249091</ele>
        <time>2026-07-17T06:27:44.492Z</time>
      </trkpt>
      <trkpt lat="42.52061" lon="2.46563">
        <ele>2653.023815</ele>
        <time>2026-07-17T06:28:11.826Z</time>
      </trkpt>
      <trkpt lat="42.52038" lon="2.46526">
        <ele>2659.357571</ele>
        <time>2026-07-17T06:29:42.542Z</time>
      </trkpt>
      <trkpt lat="42.52021" lon="2.46507">
        <ele>2663.349857</ele>
        <time>2026-07-17T06:30:35.151Z</time>
      </trkpt>
      <trkpt lat="42.51997" lon="2.46484">
        <ele>2666.198937</ele>
        <time>2026-07-17T06:31:41.835Z</time>
      </trkpt>
      <trkpt lat="42.5197" lon="2.46469">
        <ele>2667.917493</ele>
        <time>2026-07-17T06:32:44.159Z</time>
      </trkpt>
      <trkpt lat="42.51944" lon="2.46459">
        <ele>2669.520588</ele>
        <time>2026-07-17T06:33:40.998Z</time>
      </trkpt>
      <trkpt lat="42.51917" lon="2.46456">
        <ele>2671.121526</ele>
        <time>2026-07-17T06:34:35.628Z</time>
      </trkpt>
      <trkpt lat="42.51911" lon="2.46453">
        <ele>2671.500369</ele>
        <time>2026-07-17T06:34:48.229Z</time>
      </trkpt>
      <trkpt lat="42.51861" lon="2.46417">
        <ele>2674.85569</ele>
        <time>2026-07-17T06:36:30.213Z</time>
      </trkpt>
      <trkpt lat="42.51844" lon="2.46399">
        <ele>2674.456791</ele>
        <time>2026-07-17T06:37:06.767Z</time>
      </trkpt>
      <trkpt lat="42.51831" lon="2.46394">
        <ele>2672.863547</ele>
        <time>2026-07-17T06:37:29.340Z</time>
      </trkpt>
      <trkpt lat="42.51816" lon="2.46393">
        <ele>2670.966789</ele>
        <time>2026-07-17T06:37:57.341Z</time>
      </trkpt>
      <trkpt lat="42.51812" lon="2.46403">
        <ele>2670.002092</ele>
        <time>2026-07-17T06:38:12.068Z</time>
      </trkpt>
      <trkpt lat="42.51807" lon="2.46404">
        <ele>2669.471791</ele>
        <time>2026-07-17T06:38:20.176Z</time>
      </trkpt>
      <trkpt lat="42.518" lon="2.46405">
        <ele>2668.586351</ele>
        <time>2026-07-17T06:38:33.879Z</time>
      </trkpt>
      <trkpt lat="42.51795" lon="2.46403">
        <ele>2667.929367</ele>
        <time>2026-07-17T06:38:44.280Z</time>
      </trkpt>
      <trkpt lat="42.51795" lon="2.4646">
        <ele>2662.786735</ele>
        <time>2026-07-17T06:40:09.889Z</time>
      </trkpt>
      <trkpt lat="42.51768" lon="2.46427">
        <ele>2658.369456</ele>
        <time>2026-07-17T06:41:30.575Z</time>
      </trkpt>
      <trkpt lat="42.51713" lon="2.46385">
        <ele>2648.799379</ele>
        <time>2026-07-17T06:44:03.740Z</time>
      </trkpt>
      <trkpt lat="42.51679" lon="2.46346">
        <ele>2639.958645</ele>
        <time>2026-07-17T06:45:54.222Z</time>
      </trkpt>
      <trkpt lat="42.51681" lon="2.4636">
        <ele>2637.909056</ele>
        <time>2026-07-17T06:46:19.354Z</time>
      </trkpt>
      <trkpt lat="42.51672" lon="2.46357">
        <ele>2636.163966</ele>
        <time>2026-07-17T06:46:40.702Z</time>
      </trkpt>
      <trkpt lat="42.51662" lon="2.46348">
        <ele>2633.812628</ele>
        <time>2026-07-17T06:47:09.156Z</time>
      </trkpt>
      <trkpt lat="42.51661" lon="2.46352">
        <ele>2633.056624</ele>
        <time>2026-07-17T06:47:18.368Z</time>
      </trkpt>
      <trkpt lat="42.51648" lon="2.46338">
        <ele>2629.672753</ele>
        <time>2026-07-17T06:47:58.816Z</time>
      </trkpt>
      <trkpt lat="42.51593" lon="2.46306">
        <ele>2617.867865</ele>
        <time>2026-07-17T06:50:14.169Z</time>
      </trkpt>
      <trkpt lat="42.5157" lon="2.46285">
        <ele>2612.663423</ele>
        <time>2026-07-17T06:51:14.500Z</time>
      </trkpt>
      <trkpt lat="42.51536" lon="2.46264">
        <ele>2605.495253</ele>
        <time>2026-07-17T06:52:37.900Z</time>
      </trkpt>
      <trkpt lat="42.5152" lon="2.46247">
        <ele>2601.775731</ele>
        <time>2026-07-17T06:53:22.326Z</time>
      </trkpt>
      <trkpt lat="42.51494" lon="2.46237">
        <ele>2596.605961</ele>
        <time>2026-07-17T06:54:24.053Z</time>
      </trkpt>
      <trkpt lat="42.51479" lon="2.46225">
        <ele>2593.240784</ele>
        <time>2026-07-17T06:55:01.989Z</time>
      </trkpt>
      <trkpt lat="42.51463" lon="2.46216">
        <ele>2589.915434</ele>
        <time>2026-07-17T06:55:41.785Z</time>
      </trkpt>
      <trkpt lat="42.51431" lon="2.46187">
        <ele>2582.558382</ele>
        <time>2026-07-17T06:57:12.764Z</time>
      </trkpt>
      <trkpt lat="42.51423" lon="2.4617">
        <ele>2579.286096</ele>
        <time>2026-07-17T06:57:51.471Z</time>
      </trkpt>
      <trkpt lat="42.51413" lon="2.46201">
        <ele>2573.806097</ele>
        <time>2026-07-17T06:58:57.821Z</time>
      </trkpt>
      <trkpt lat="42.51404" lon="2.4621">
        <ele>2571.348453</ele>
        <time>2026-07-17T06:59:28.791Z</time>
      </trkpt>
      <trkpt lat="42.51394" lon="2.46214">
        <ele>2569.071888</ele>
        <time>2026-07-17T06:59:58.872Z</time>
      </trkpt>
      <trkpt lat="42.51393" lon="2.46191">
        <ele>2565.369969</ele>
        <time>2026-07-17T07:00:46.100Z</time>
      </trkpt>
      <trkpt lat="42.5138" lon="2.46196">
        <ele>2562.489689</ele>
        <time>2026-07-17T07:01:21.644Z</time>
      </trkpt>
      <trkpt lat="42.51383" lon="2.46183">
        <ele>2560.455809</ele>
        <time>2026-07-17T07:01:45.179Z</time>
      </trkpt>
      <trkpt lat="42.5136" lon="2.46193">
        <ele>2555.367228</ele>
        <time>2026-07-17T07:02:47.300Z</time>
      </trkpt>
      <trkpt lat="42.51369" lon="2.46171">
        <ele>2551.449248</ele>
        <time>2026-07-17T07:03:33.966Z</time>
      </trkpt>
      <trkpt lat="42.51371" lon="2.46158">
        <ele>2549.343787</ele>
        <time>2026-07-17T07:04:01.290Z</time>
      </trkpt>
      <trkpt lat="42.51368" lon="2.46139">
        <ele>2546.279408</ele>
        <time>2026-07-17T07:04:37.776Z</time>
      </trkpt>
      <trkpt lat="42.51362" lon="2.46153">
        <ele>2545.219514</ele>
        <time>2026-07-17T07:05:04.128Z</time>
      </trkpt>
      <trkpt lat="42.51334" lon="2.46168">
        <ele>2545.810688</ele>
        <time>2026-07-17T07:06:04.793Z</time>
      </trkpt>
      <trkpt lat="42.51348" lon="2.46157">
        <ele>2546.133898</ele>
        <time>2026-07-17T07:06:34.330Z</time>
      </trkpt>
      <trkpt lat="42.5137" lon="2.46116">
        <ele>2546.874392</ele>
        <time>2026-07-17T07:07:38.154Z</time>
      </trkpt>
      <trkpt lat="42.51376" lon="2.46109">
        <ele>2547.028946</ele>
        <time>2026-07-17T07:07:53.979Z</time>
      </trkpt>
      <trkpt lat="42.51385" lon="2.46105">
        <ele>2547.20726</ele>
        <time>2026-07-17T07:08:10.604Z</time>
      </trkpt>
      <trkpt lat="42.51407" lon="2.46112">
        <ele>2547.641324</ele>
        <time>2026-07-17T07:09:00.437Z</time>
      </trkpt>
      <trkpt lat="42.51436" lon="2.46101">
        <ele>2548.238911</ele>
        <time>2026-07-17T07:10:16.225Z</time>
      </trkpt>
      <trkpt lat="42.51448" lon="2.46078">
        <ele>2548.937209</ele>
        <time>2026-07-17T07:11:16.848Z</time>
      </trkpt>
      <trkpt lat="42.51464" lon="2.46067">
        <ele>2552.502007</ele>
        <time>2026-07-17T07:12:17.798Z</time>
      </trkpt>
      <trkpt lat="42.51466" lon="2.46068">
        <ele>2553.017643</ele>
        <time>2026-07-17T07:12:29.310Z</time>
      </trkpt>
      <trkpt lat="42.51484" lon="2.46052">
        <ele>2557.21748</ele>
        <time>2026-07-17T07:13:47.505Z</time>
      </trkpt>
      <trkpt lat="42.51495" lon="2.4603">
        <ele>2561.133191</ele>
        <time>2026-07-17T07:14:55.974Z</time>
      </trkpt>
      <trkpt lat="42.51515" lon="2.46015">
        <ele>2565.592885</ele>
        <time>2026-07-17T07:16:11.515Z</time>
      </trkpt>
      <trkpt lat="42.51539" lon="2.45979">
        <ele>2572.776702</ele>
        <time>2026-07-17T07:18:10.155Z</time>
      </trkpt>
      <trkpt lat="42.51546" lon="2.45974">
        <ele>2574.273678</ele>
        <time>2026-07-17T07:18:38.226Z</time>
      </trkpt>
      <trkpt lat="42.51548" lon="2.45969">
        <ele>2575.083901</ele>
        <time>2026-07-17T07:18:52.963Z</time>
      </trkpt>
      <trkpt lat="42.51555" lon="2.45966">
        <ele>2576.573082</ele>
        <time>2026-07-17T07:19:19.048Z</time>
      </trkpt>
      <trkpt lat="42.51565" lon="2.45952">
        <ele>2579.507737</ele>
        <time>2026-07-17T07:20:06.152Z</time>
      </trkpt>
      <trkpt lat="42.51567" lon="2.45942">
        <ele>2581.021516</ele>
        <time>2026-07-17T07:20:27.976Z</time>
      </trkpt>
      <trkpt lat="42.51571" lon="2.45937">
        <ele>2582.132423</ele>
        <time>2026-07-17T07:20:41.509Z</time>
      </trkpt>
      <trkpt lat="42.51594" lon="2.45921">
        <ele>2587.047649</ele>
        <time>2026-07-17T07:21:51.756Z</time>
      </trkpt>
      <trkpt lat="42.51617" lon="2.45896">
        <ele>2592.539224</ele>
        <time>2026-07-17T07:23:15.857Z</time>
      </trkpt>
      <trkpt lat="42.51628" lon="2.45886">
        <ele>2595.033415</ele>
        <time>2026-07-17T07:23:54.792Z</time>
      </trkpt>
      <trkpt lat="42.51632" lon="2.45885">
        <ele>2595.779786</ele>
        <time>2026-07-17T07:24:06.590Z</time>
      </trkpt>
      <trkpt lat="42.51641" lon="2.45871">
        <ele>2598.376526</ele>
        <time>2026-07-17T07:24:48.289Z</time>
      </trkpt>
      <trkpt lat="42.5165" lon="2.45844">
        <ele>2602.410174</ele>
        <time>2026-07-17T07:25:54.634Z</time>
      </trkpt>
      <trkpt lat="42.5168" lon="2.45802">
        <ele>2610.428844</ele>
        <time>2026-07-17T07:28:06.142Z</time>
      </trkpt>
      <trkpt lat="42.51711" lon="2.45771">
        <ele>2617.515846</ele>
        <time>2026-07-17T07:29:57.614Z</time>
      </trkpt>
      <trkpt lat="42.51733" lon="2.45764">
        <ele>2622.833319</ele>
        <time>2026-07-17T07:31:10.494Z</time>
      </trkpt>
      <trkpt lat="42.5173" lon="2.45771">
        <ele>2624.288064</ele>
        <time>2026-07-17T07:31:32.420Z</time>
      </trkpt>
      <trkpt lat="42.51736" lon="2.45772">
        <ele>2625.711348</ele>
        <time>2026-07-17T07:31:55.753Z</time>
      </trkpt>
      <trkpt lat="42.51776" lon="2.45734">
        <ele>2637.538865</ele>
        <time>2026-07-17T07:35:01.170Z</time>
      </trkpt>
      <trkpt lat="42.51822" lon="2.45702">
        <ele>2650.144787</ele>
        <time>2026-07-17T07:38:19.178Z</time>
      </trkpt>
      <trkpt lat="42.51829" lon="2.45693">
        <ele>2652.534821</ele>
        <time>2026-07-17T07:38:55.316Z</time>
      </trkpt>
      <trkpt lat="42.5185" lon="2.45699">
        <ele>2657.691438</ele>
        <time>2026-07-17T07:40:24.662Z</time>
      </trkpt>
      <trkpt lat="42.51856" lon="2.45692">
        <ele>2659.678638</ele>
        <time>2026-07-17T07:40:59.447Z</time>
      </trkpt>
      <trkpt lat="42.51864" lon="2.45694">
        <ele>2661.587668</ele>
        <time>2026-07-17T07:41:32.954Z</time>
      </trkpt>
      <trkpt lat="42.51875" lon="2.45691">
        <ele>2663.710898</ele>
        <time>2026-07-17T07:42:21.652Z</time>
      </trkpt>
      <trkpt lat="42.51874" lon="2.45687">
        <ele>2664.201701</ele>
        <time>2026-07-17T07:42:33.024Z</time>
      </trkpt>
      <trkpt lat="42.51886" lon="2.45685">
        <ele>2666.380825</ele>
        <time>2026-07-17T07:43:22.968Z</time>
      </trkpt>
      <trkpt lat="42.51887" lon="2.45671">
        <ele>2668.327871</ele>
        <time>2026-07-17T07:44:07.128Z</time>
      </trkpt>
      <trkpt lat="42.51892" lon="2.45668">
        <ele>2669.397162</ele>
        <time>2026-07-17T07:44:30.411Z</time>
      </trkpt>
      <trkpt lat="42.51895" lon="2.45668">
        <ele>2670.010872</ele>
        <time>2026-07-17T07:44:43.712Z</time>
      </trkpt>
      <trkpt lat="42.51896" lon="2.45673">
        <ele>2670.642096</ele>
        <time>2026-07-17T07:44:57.761Z</time>
      </trkpt>
      <trkpt lat="42.51899" lon="2.4567">
        <ele>2671.276847</ele>
        <time>2026-07-17T07:45:11.536Z</time>
      </trkpt>
      <trkpt lat="42.51898" lon="2.45665">
        <ele>2671.884765</ele>
        <time>2026-07-17T07:45:24.130Z</time>
      </trkpt>
      <trkpt lat="42.51891" lon="2.45656">
        <ele>2673.803788</ele>
        <time>2026-07-17T07:46:04.622Z</time>
      </trkpt>
      <trkpt lat="42.51905" lon="2.45652">
        <ele>2676.47371</ele>
        <time>2026-07-17T07:46:49.345Z</time>
      </trkpt>
      <trkpt lat="42.51906" lon="2.45652">
        <ele>2676.822843</ele>
        <time>2026-07-17T07:46:54.788Z</time>
      </trkpt>
      <trkpt lat="42.51914" lon="2.45656">
        <ele>2678.276162</ele>
        <time>2026-07-17T07:47:18.338Z</time>
      </trkpt>
      <trkpt lat="42.5192" lon="2.45653">
        <ele>2679.421789</ele>
        <time>2026-07-17T07:47:36.942Z</time>
      </trkpt>
      <trkpt lat="42.51933" lon="2.45656">
        <ele>2681.874863</ele>
        <time>2026-07-17T07:48:15.381Z</time>
      </trkpt>
      <trkpt lat="42.51921" lon="2.45643">
        <ele>2684.645234</ele>
        <time>2026-07-17T07:48:56.377Z</time>
      </trkpt>
      <trkpt lat="42.51961" lon="2.4565">
        <ele>2691.999377</ele>
        <time>2026-07-17T07:50:30.652Z</time>
      </trkpt>
      <trkpt lat="42.51956" lon="2.45642">
        <ele>2693.326488</ele>
        <time>2026-07-17T07:50:45.236Z</time>
      </trkpt>
      <trkpt lat="42.51948" lon="2.45638">
        <ele>2694.763238</ele>
        <time>2026-07-17T07:51:02.093Z</time>
      </trkpt>
      <trkpt lat="42.51923" lon="2.45614">
        <ele>2694.656798</ele>
        <time>2026-07-17T07:51:58.685Z</time>
      </trkpt>
      <trkpt lat="42.51938" lon="2.45614">
        <ele>2694.606114</ele>
        <time>2026-07-17T07:52:23.690Z</time>
      </trkpt>
      <trkpt lat="42.51985" lon="2.45624">
        <ele>2694.441642</ele>
        <time>2026-07-17T07:53:37.702Z</time>
      </trkpt>
      <trkpt lat="42.51969" lon="2.45602">
        <ele>2694.36343</ele>
        <time>2026-07-17T07:54:13.353Z</time>
      </trkpt>
      <trkpt lat="42.5196" lon="2.45594">
        <ele>2694.325934</ele>
        <time>2026-07-17T07:54:30.987Z</time>
      </trkpt>
      <trkpt lat="42.51967" lon="2.45592">
        <ele>2694.300612</ele>
        <time>2026-07-17T07:54:42.980Z</time>
      </trkpt>
      <trkpt lat="42.52028" lon="2.45613">
        <ele>2691.62705</ele>
        <time>2026-07-17T07:56:31.876Z</time>
      </trkpt>
      <trkpt lat="42.51984" lon="2.45552">
        <ele>2682.134437</ele>
        <time>2026-07-17T07:58:28.427Z</time>
      </trkpt>
      <trkpt lat="42.51965" lon="2.45533">
        <ele>2678.673923</ele>
        <time>2026-07-17T07:59:12.745Z</time>
      </trkpt>
      <trkpt lat="42.51963" lon="2.45528">
        <ele>2678.083325</ele>
        <time>2026-07-17T07:59:20.565Z</time>
      </trkpt>
      <trkpt lat="42.51966" lon="2.45528">
        <ele>2677.672421</ele>
        <time>2026-07-17T07:59:25.937Z</time>
      </trkpt>
      <trkpt lat="42.52013" lon="2.45541">
        <ele>2670.409971</ele>
        <time>2026-07-17T08:01:08.597Z</time>
      </trkpt>
      <trkpt lat="42.52048" lon="2.45558">
        <ele>2663.437898</ele>
        <time>2026-07-17T08:02:35.973Z</time>
      </trkpt>
      <trkpt lat="42.5206" lon="2.45568">
        <ele>2659.946318</ele>
        <time>2026-07-17T08:03:11.255Z</time>
      </trkpt>
      <trkpt lat="42.52084" lon="2.45569">
        <ele>2654.12372</ele>
        <time>2026-07-17T08:04:10.749Z</time>
      </trkpt>
      <trkpt lat="42.52092" lon="2.45573">
        <ele>2652.194079</ele>
        <time>2026-07-17T08:04:30.440Z</time>
      </trkpt>
      <trkpt lat="42.52101" lon="2.45571">
        <ele>2650.027592</ele>
        <time>2026-07-17T08:04:52.615Z</time>
      </trkpt>
      <trkpt lat="42.52106" lon="2.45575">
        <ele>2648.450021</ele>
        <time>2026-07-17T08:05:08.881Z</time>
      </trkpt>
      <trkpt lat="42.52125" lon="2.45573">
        <ele>2643.853422</ele>
        <time>2026-07-17T08:05:56.672Z</time>
      </trkpt>
      <trkpt lat="42.52127" lon="2.45568">
        <ele>2642.821228</ele>
        <time>2026-07-17T08:06:07.429Z</time>
      </trkpt>
      <trkpt lat="42.5213" lon="2.4557">
        <ele>2641.797239</ele>
        <time>2026-07-17T08:06:18.163Z</time>
      </trkpt>
      <trkpt lat="42.52128" lon="2.45563">
        <ele>2640.412354</ele>
        <time>2026-07-17T08:06:32.719Z</time>
      </trkpt>
      <trkpt lat="42.52135" lon="2.45569">
        <ele>2638.285534</ele>
        <time>2026-07-17T08:06:54.941Z</time>
      </trkpt>
      <trkpt lat="42.52123" lon="2.45541">
        <ele>2632.561956</ele>
        <time>2026-07-17T08:07:55.194Z</time>
      </trkpt>
      <trkpt lat="42.52127" lon="2.45542">
        <ele>2631.684503</ele>
        <time>2026-07-17T08:08:04.518Z</time>
      </trkpt>
      <trkpt lat="42.52147" lon="2.45561">
        <ele>2625.684867</ele>
        <time>2026-07-17T08:09:07.228Z</time>
      </trkpt>
      <trkpt lat="42.52163" lon="2.45568">
        <ele>2621.708992</ele>
        <time>2026-07-17T08:09:48.931Z</time>
      </trkpt>
      <trkpt lat="42.52139" lon="2.45521">
        <ele>2611.567874</ele>
        <time>2026-07-17T08:11:33.474Z</time>
      </trkpt>
      <trkpt lat="42.52185" lon="2.45548">
        <ele>2599.637755</ele>
        <time>2026-07-17T08:13:35.462Z</time>
      </trkpt>
      <trkpt lat="42.52224" lon="2.45567">
        <ele>2589.638012</ele>
        <time>2026-07-17T08:15:19.848Z</time>
      </trkpt>
      <trkpt lat="42.52237" lon="2.45571">
        <ele>2586.480386</ele>
        <time>2026-07-17T08:15:52.342Z</time>
      </trkpt>
      <trkpt lat="42.52254" lon="2.45565">
        <ele>2582.402818</ele>
        <time>2026-07-17T08:16:34.042Z</time>
      </trkpt>
      <trkpt lat="42.52269" lon="2.45569">
        <ele>2579.142536</ele>
        <time>2026-07-17T08:17:10.869Z</time>
      </trkpt>
      <trkpt lat="42.52277" lon="2.45566">
        <ele>2577.526826</ele>
        <time>2026-07-17T08:17:31.150Z</time>
      </trkpt>
      <trkpt lat="42.52287" lon="2.45571">
        <ele>2575.624292</ele>
        <time>2026-07-17T08:17:54.326Z</time>
      </trkpt>
      <trkpt lat="42.5229" lon="2.45565">
        <ele>2574.68596</ele>
        <time>2026-07-17T08:18:05.568Z</time>
      </trkpt>
      <trkpt lat="42.52315" lon="2.45561">
        <ele>2570.082984</ele>
        <time>2026-07-17T08:18:59.053Z</time>
      </trkpt>
      <trkpt lat="42.5233" lon="2.45553">
        <ele>2567.088658</ele>
        <time>2026-07-17T08:19:32.421Z</time>
      </trkpt>
      <trkpt lat="42.52357" lon="2.45533">
        <ele>2561.374014</ele>
        <time>2026-07-17T08:20:33.518Z</time>
      </trkpt>
      <trkpt lat="42.52365" lon="2.45533">
        <ele>2559.838682</ele>
        <time>2026-07-17T08:20:49.761Z</time>
      </trkpt>
      <trkpt lat="42.52409" lon="2.45508">
        <ele>2551.109781</ele>
        <time>2026-07-17T08:22:22.831Z</time>
      </trkpt>
      <trkpt lat="42.5242" lon="2.45498">
        <ele>2548.648624</ele>
        <time>2026-07-17T08:22:49.203Z</time>
      </trkpt>
      <trkpt lat="42.52475" lon="2.45485">
        <ele>2537.662838</ele>
        <time>2026-07-17T08:24:44.054Z</time>
      </trkpt>
      <trkpt lat="42.52493" lon="2.45477">
        <ele>2533.896778</ele>
        <time>2026-07-17T08:25:24.691Z</time>
      </trkpt>
      <trkpt lat="42.52499" lon="2.45478">
        <ele>2532.849534</ele>
        <time>2026-07-17T08:25:36.207Z</time>
      </trkpt>
      <trkpt lat="42.52514" lon="2.45471">
        <ele>2529.661705</ele>
        <time>2026-07-17T08:26:11.233Z</time>
      </trkpt>
      <trkpt lat="42.52546" lon="2.45464">
        <ele>2523.231272</ele>
        <time>2026-07-17T08:27:23.682Z</time>
      </trkpt>
      <trkpt lat="42.52635" lon="2.45437">
        <ele>2504.729003</ele>
        <time>2026-07-17T08:30:53.145Z</time>
      </trkpt>
      <trkpt lat="42.52642" lon="2.45431">
        <ele>2502.857643</ele>
        <time>2026-07-17T08:31:13.411Z</time>
      </trkpt>
      <trkpt lat="42.52657" lon="2.45427">
        <ele>2499.59777</ele>
        <time>2026-07-17T08:31:48.644Z</time>
      </trkpt>
      <trkpt lat="42.52692" lon="2.45403">
        <ele>2491.043581</ele>
        <time>2026-07-17T08:33:21.436Z</time>
      </trkpt>
      <trkpt lat="42.52718" lon="2.45393">
        <ele>2485.260757</ele>
        <time>2026-07-17T08:34:23.904Z</time>
      </trkpt>
      <trkpt lat="42.52738" lon="2.4539">
        <ele>2480.918499</ele>
        <time>2026-07-17T08:35:10.668Z</time>
      </trkpt>
      <trkpt lat="42.52797" lon="2.45414">
        <ele>2467.663195</ele>
        <time>2026-07-17T08:37:28.558Z</time>
      </trkpt>
      <trkpt lat="42.52817" lon="2.45429">
        <ele>2462.782138</ele>
        <time>2026-07-17T08:38:17.730Z</time>
      </trkpt>
      <trkpt lat="42.52837" lon="2.45456">
        <ele>2456.80218</ele>
        <time>2026-07-17T08:39:18.241Z</time>
      </trkpt>
      <trkpt lat="42.52846" lon="2.45459">
        <ele>2454.958472</ele>
        <time>2026-07-17T08:39:36.814Z</time>
      </trkpt>
      <trkpt lat="42.5285" lon="2.45457">
        <ele>2454.050885</ele>
        <time>2026-07-17T08:39:46.151Z</time>
      </trkpt>
      <trkpt lat="42.52853" lon="2.45445">
        <ele>2452.141519</ele>
        <time>2026-07-17T08:40:05.597Z</time>
      </trkpt>
      <trkpt lat="42.52845" lon="2.45402">
        <ele>2445.216162</ele>
        <time>2026-07-17T08:41:17.512Z</time>
      </trkpt>
      <trkpt lat="42.52858" lon="2.45412">
        <ele>2442.075371</ele>
        <time>2026-07-17T08:41:50.684Z</time>
      </trkpt>
      <trkpt lat="42.52873" lon="2.45411">
        <ele>2438.767395</ele>
        <time>2026-07-17T08:42:26.314Z</time>
      </trkpt>
      <trkpt lat="42.52977" lon="2.45365">
        <ele>2410.283238</ele>
        <time>2026-07-17T08:47:07.839Z</time>
      </trkpt>
      <trkpt lat="42.53038" lon="2.45352">
        <ele>2393.301711</ele>
        <time>2026-07-17T08:50:03.830Z</time>
      </trkpt>
      <trkpt lat="42.53055" lon="2.45346">
        <ele>2388.595044</ele>
        <time>2026-07-17T08:50:51.507Z</time>
      </trkpt>
      <trkpt lat="42.53065" lon="2.45338">
        <ele>2385.526684</ele>
        <time>2026-07-17T08:51:23.741Z</time>
      </trkpt>
      <trkpt lat="42.53077" lon="2.45335">
        <ele>2382.806401</ele>
        <time>2026-07-17T08:51:57.565Z</time>
      </trkpt>
      <trkpt lat="42.53118" lon="2.45314">
        <ele>2373.39355</ele>
        <time>2026-07-17T08:53:50.671Z</time>
      </trkpt>
      <trkpt lat="42.53132" lon="2.45313">
        <ele>2370.282097</ele>
        <time>2026-07-17T08:54:26.048Z</time>
      </trkpt>
      <trkpt lat="42.53162" lon="2.45292">
        <ele>2362.963983</ele>
        <time>2026-07-17T08:55:44.997Z</time>
      </trkpt>
      <trkpt lat="42.53185" lon="2.45286">
        <ele>2357.947165</ele>
        <time>2026-07-17T08:56:35.180Z</time>
      </trkpt>
      <trkpt lat="42.53205" lon="2.45261">
        <ele>2351.927222</ele>
        <time>2026-07-17T08:57:30.610Z</time>
      </trkpt>
      <trkpt lat="42.53215" lon="2.45244">
        <ele>2348.531514</ele>
        <time>2026-07-17T08:58:00.899Z</time>
      </trkpt>
      <trkpt lat="42.53219" lon="2.45243">
        <ele>2347.601401</ele>
        <time>2026-07-17T08:58:09.059Z</time>
      </trkpt>
      <trkpt lat="42.53229" lon="2.45232">
        <ele>2345.50311</ele>
        <time>2026-07-17T08:58:33.014Z</time>
      </trkpt>
      <trkpt lat="42.53258" lon="2.45225">
        <ele>2341.150796</ele>
        <time>2026-07-17T08:59:28.447Z</time>
      </trkpt>
      <trkpt lat="42.53268" lon="2.45226">
        <ele>2339.7287</ele>
        <time>2026-07-17T08:59:46.376Z</time>
      </trkpt>
      <trkpt lat="42.53271" lon="2.45223">
        <ele>2339.096934</ele>
        <time>2026-07-17T08:59:54.324Z</time>
      </trkpt>
      <trkpt lat="42.53278" lon="2.45204">
        <ele>2336.751912</ele>
        <time>2026-07-17T09:00:23.756Z</time>
      </trkpt>
      <trkpt lat="42.53289" lon="2.45184">
        <ele>2334.050925</ele>
        <time>2026-07-17T09:00:57.536Z</time>
      </trkpt>
      <trkpt lat="42.53292" lon="2.45184">
        <ele>2333.710604</ele>
        <time>2026-07-17T09:01:01.807Z</time>
      </trkpt>
      <trkpt lat="42.53291" lon="2.45205">
        <ele>2331.51579</ele>
        <time>2026-07-17T09:01:29.427Z</time>
      </trkpt>
      <trkpt lat="42.53295" lon="2.45219">
        <ele>2329.855694</ele>
        <time>2026-07-17T09:01:50.342Z</time>
      </trkpt>
      <trkpt lat="42.53296" lon="2.45238">
        <ele>2327.768509</ele>
        <time>2026-07-17T09:02:16.840Z</time>
      </trkpt>
      <trkpt lat="42.53308" lon="2.45294">
        <ele>2321.478294</ele>
        <time>2026-07-17T09:03:38.094Z</time>
      </trkpt>
      <trkpt lat="42.53306" lon="2.45307">
        <ele>2319.758521</ele>
        <time>2026-07-17T09:03:58.950Z</time>
      </trkpt>
      <trkpt lat="42.53311" lon="2.45311">
        <ele>2318.470164</ele>
        <time>2026-07-17T09:04:10.144Z</time>
      </trkpt>
      <trkpt lat="42.53313" lon="2.45413">
        <ele>2299.305036</ele>
        <time>2026-07-17T09:07:21.346Z</time>
      </trkpt>
      <trkpt lat="42.53317" lon="2.45417">
        <ele>2298.038261</ele>
        <time>2026-07-17T09:07:34.541Z</time>
      </trkpt>
      <trkpt lat="42.5332" lon="2.45414">
        <ele>2296.983693</ele>
        <time>2026-07-17T09:07:45.366Z</time>
      </trkpt>
      <trkpt lat="42.53329" lon="2.45423">
        <ele>2294.341963</ele>
        <time>2026-07-17T09:08:07.665Z</time>
      </trkpt>
      <trkpt lat="42.53336" lon="2.45435">
        <ele>2291.343268</ele>
        <time>2026-07-17T09:08:33.113Z</time>
      </trkpt>
      <trkpt lat="42.53349" lon="2.4545">
        <ele>2286.887293</ele>
        <time>2026-07-17T09:09:11.712Z</time>
      </trkpt>
      <trkpt lat="42.53353" lon="2.45451">
        <ele>2285.906155</ele>
        <time>2026-07-17T09:09:20.185Z</time>
      </trkpt>
      <trkpt lat="42.53357" lon="2.45464">
        <ele>2283.264848</ele>
        <time>2026-07-17T09:09:43.475Z</time>
      </trkpt>
      <trkpt lat="42.53371" lon="2.45484">
        <ele>2278.144674</ele>
        <time>2026-07-17T09:10:28.059Z</time>
      </trkpt>
      <trkpt lat="42.53362" lon="2.45529">
        <ele>2270.430054</ele>
        <time>2026-07-17T09:12:03.659Z</time>
      </trkpt>
      <trkpt lat="42.53387" lon="2.45513">
        <ele>2264.852287</ele>
        <time>2026-07-17T09:13:01.609Z</time>
      </trkpt>
      <trkpt lat="42.53404" lon="2.4551">
        <ele>2261.23196</ele>
        <time>2026-07-17T09:13:35.271Z</time>
      </trkpt>
      <trkpt lat="42.5343" lon="2.45494">
        <ele>2255.556641</ele>
        <time>2026-07-17T09:14:22.813Z</time>
      </trkpt>
      <trkpt lat="42.53436" lon="2.45492">
        <ele>2254.297056</ele>
        <time>2026-07-17T09:14:32.743Z</time>
      </trkpt>
      <trkpt lat="42.53444" lon="2.45485">
        <ele>2252.203953</ele>
        <time>2026-07-17T09:14:48.911Z</time>
      </trkpt>
      <trkpt lat="42.53465" lon="2.4545">
        <ele>2245.418243</ele>
        <time>2026-07-17T09:15:41.117Z</time>
      </trkpt>
      <trkpt lat="42.53483" lon="2.45385">
        <ele>2235.228184</ele>
        <time>2026-07-17T09:16:58.414Z</time>
      </trkpt>
      <trkpt lat="42.53483" lon="2.45367">
        <ele>2232.59302</ele>
        <time>2026-07-17T09:17:18.776Z</time>
      </trkpt>
      <trkpt lat="42.53482" lon="2.45353">
        <ele>2230.545972</ele>
        <time>2026-07-17T09:17:34.818Z</time>
      </trkpt>
      <trkpt lat="42.53463" lon="2.45267">
        <ele>2217.625997</ele>
        <time>2026-07-17T09:19:22.513Z</time>
      </trkpt>
      <trkpt lat="42.53464" lon="2.45259">
        <ele>2216.439435</ele>
        <time>2026-07-17T09:19:33.629Z</time>
      </trkpt>
      <trkpt lat="42.53472" lon="2.45228">
        <ele>2211.696182</ele>
        <time>2026-07-17T09:20:19.351Z</time>
      </trkpt>
      <trkpt lat="42.53477" lon="2.45219">
        <ele>2210.048447</ele>
        <time>2026-07-17T09:20:35.863Z</time>
      </trkpt>
      <trkpt lat="42.53477" lon="2.45212">
        <ele>2209.03973</ele>
        <time>2026-07-17T09:20:45.927Z</time>
      </trkpt>
      <trkpt lat="42.53487" lon="2.45179">
        <ele>2203.917623</ele>
        <time>2026-07-17T09:21:38.552Z</time>
      </trkpt>
      <trkpt lat="42.53492" lon="2.45171">
        <ele>2202.338338</ele>
        <time>2026-07-17T09:21:54.462Z</time>
      </trkpt>
      <trkpt lat="42.53495" lon="2.45151">
        <ele>2199.02739</ele>
        <time>2026-07-17T09:22:24.250Z</time>
      </trkpt>
      <trkpt lat="42.53501" lon="2.45148">
        <ele>2197.61292</ele>
        <time>2026-07-17T09:22:37.113Z</time>
      </trkpt>
      <trkpt lat="42.53521" lon="2.45119">
        <ele>2190.97604</ele>
        <time>2026-07-17T09:23:36.177Z</time>
      </trkpt>
      <trkpt lat="42.53535" lon="2.45092">
        <ele>2185.395865</ele>
        <time>2026-07-17T09:24:25.144Z</time>
      </trkpt>
      <trkpt lat="42.53534" lon="2.45039">
        <ele>2176.588871</ele>
        <time>2026-07-17T09:25:41.348Z</time>
      </trkpt>
      <trkpt lat="42.53533" lon="2.4503">
        <ele>2175.053835</ele>
        <time>2026-07-17T09:25:53.961Z</time>
      </trkpt>
      <trkpt lat="42.53554" lon="2.44971">
        <ele>2163.90039</ele>
        <time>2026-07-17T09:27:21.368Z</time>
      </trkpt>
      <trkpt lat="42.53557" lon="2.44965">
        <ele>2162.753636</ele>
        <time>2026-07-17T09:27:29.938Z</time>
      </trkpt>
      <trkpt lat="42.53586" lon="2.44944">
        <ele>2156.707026</ele>
        <time>2026-07-17T09:28:23.677Z</time>
      </trkpt>
      <trkpt lat="42.53605" lon="2.44926">
        <ele>2152.436581</ele>
        <time>2026-07-17T09:29:01.836Z</time>
      </trkpt>
      <trkpt lat="42.53618" lon="2.44906">
        <ele>2148.968381</ele>
        <time>2026-07-17T09:29:33.076Z</time>
      </trkpt>
      <trkpt lat="42.53621" lon="2.44888">
        <ele>2146.46599</ele>
        <time>2026-07-17T09:29:55.860Z</time>
      </trkpt>
      <trkpt lat="42.5362" lon="2.44856">
        <ele>2142.198184</ele>
        <time>2026-07-17T09:30:35.472Z</time>
      </trkpt>
      <trkpt lat="42.53608" lon="2.44808">
        <ele>2135.508719</ele>
        <time>2026-07-17T09:31:38.459Z</time>
      </trkpt>
      <trkpt lat="42.53612" lon="2.44764">
        <ele>2129.632358</ele>
        <time>2026-07-17T09:32:31.433Z</time>
      </trkpt>
      <trkpt lat="42.53631" lon="2.44718">
        <ele>2122.012994</ele>
        <time>2026-07-17T09:33:32.744Z</time>
      </trkpt>
      <trkpt lat="42.53635" lon="2.44694">
        <ele>2118.528042</ele>
        <time>2026-07-17T09:34:01.064Z</time>
      </trkpt>
      <trkpt lat="42.53639" lon="2.44686">
        <ele>2117.062566</ele>
        <time>2026-07-17T09:34:13.179Z</time>
      </trkpt>
      <trkpt lat="42.5364" lon="2.44675">
        <ele>2115.457253</ele>
        <time>2026-07-17T09:34:26.373Z</time>
      </trkpt>
      <trkpt lat="42.53656" lon="2.44657">
        <ele>2111.517234</ele>
        <time>2026-07-17T09:34:59.703Z</time>
      </trkpt>
      <trkpt lat="42.53672" lon="2.44631">
        <ele>2106.603947</ele>
        <time>2026-07-17T09:35:42.951Z</time>
      </trkpt>
      <trkpt lat="42.5368" lon="2.44611">
        <ele>2103.383174</ele>
        <time>2026-07-17T09:36:12.691Z</time>
      </trkpt>
      <trkpt lat="42.53678" lon="2.446">
        <ele>2101.817693</ele>
        <time>2026-07-17T09:36:27.394Z</time>
      </trkpt>
      <trkpt lat="42.53673" lon="2.44587">
        <ele>2099.639435</ele>
        <time>2026-07-17T09:36:48.459Z</time>
      </trkpt>
      <trkpt lat="42.53667" lon="2.44564">
        <ele>2096.174925</ele>
        <time>2026-07-17T09:37:22.459Z</time>
      </trkpt>
      <trkpt lat="42.53669" lon="2.44536">
        <ele>2091.460381</ele>
        <time>2026-07-17T09:38:03.194Z</time>
      </trkpt>
      <trkpt lat="42.53668" lon="2.44483">
        <ele>2082.080641</ele>
        <time>2026-07-17T09:39:21.201Z</time>
      </trkpt>
      <trkpt lat="42.53683" lon="2.44425">
        <ele>2071.052851</ele>
        <time>2026-07-17T09:40:55.941Z</time>
      </trkpt>
      <trkpt lat="42.53702" lon="2.44391">
        <ele>2063.286878</ele>
        <time>2026-07-17T09:42:00.857Z</time>
      </trkpt>
      <trkpt lat="42.53711" lon="2.44364">
        <ele>2057.981399</ele>
        <time>2026-07-17T09:42:44.030Z</time>
      </trkpt>
      <trkpt lat="42.53712" lon="2.44357">
        <ele>2056.771643</ele>
        <time>2026-07-17T09:42:53.702Z</time>
      </trkpt>
      <trkpt lat="42.53703" lon="2.44349">
        <ele>2054.06304</ele>
        <time>2026-07-17T09:43:15.243Z</time>
      </trkpt>
      <trkpt lat="42.53676" lon="2.44337">
        <ele>2047.685172</ele>
        <time>2026-07-17T09:44:08.820Z</time>
      </trkpt>
      <trkpt lat="42.53632" lon="2.44308">
        <ele>2037.615536</ele>
        <time>2026-07-17T09:45:35.038Z</time>
      </trkpt>
      <trkpt lat="42.53609" lon="2.44296">
        <ele>2032.639357</ele>
        <time>2026-07-17T09:46:15.982Z</time>
      </trkpt>
      <trkpt lat="42.53536" lon="2.44241">
        <ele>2015.322466</ele>
        <time>2026-07-17T09:48:39.410Z</time>
      </trkpt>
      <trkpt lat="42.53515" lon="2.44202">
        <ele>2006.107827</ele>
        <time>2026-07-17T09:49:45.672Z</time>
      </trkpt>
      <trkpt lat="42.53497" lon="2.44181">
        <ele>1999.55458</ele>
        <time>2026-07-17T09:50:32.084Z</time>
      </trkpt>
      <trkpt lat="42.53501" lon="2.44164">
        <ele>1996.007528</ele>
        <time>2026-07-17T09:50:57.901Z</time>
      </trkpt>
      <trkpt lat="42.53495" lon="2.44145">
        <ele>1991.675794</ele>
        <time>2026-07-17T09:51:30.326Z</time>
      </trkpt>
      <trkpt lat="42.53496" lon="2.44098">
        <ele>1982.141873</ele>
        <time>2026-07-17T09:52:45.219Z</time>
      </trkpt>
      <trkpt lat="42.535" lon="2.44067">
        <ele>1975.694814</ele>
        <time>2026-07-17T09:53:39.090Z</time>
      </trkpt>
      <trkpt lat="42.53501" lon="2.4404">
        <ele>1970.316787</ele>
        <time>2026-07-17T09:54:25.050Z</time>
      </trkpt>
      <trkpt lat="42.53507" lon="2.44012">
        <ele>1964.306117</ele>
        <time>2026-07-17T09:55:17.122Z</time>
      </trkpt>
      <trkpt lat="42.53512" lon="2.43951">
        <ele>1948.978566</ele>
        <time>2026-07-17T09:57:06.800Z</time>
      </trkpt>
      <trkpt lat="42.53516" lon="2.43945">
        <ele>1946.753517</ele>
        <time>2026-07-17T09:57:22.692Z</time>
      </trkpt>
      <trkpt lat="42.53517" lon="2.43935">
        <ele>1944.385622</ele>
        <time>2026-07-17T09:57:40.027Z</time>
      </trkpt>
      <trkpt lat="42.53524" lon="2.43895">
        <ele>1933.884125</ele>
        <time>2026-07-17T09:58:55.611Z</time>
      </trkpt>
      <trkpt lat="42.53516" lon="2.43862">
        <ele>1925.042082</ele>
        <time>2026-07-17T10:00:00.368Z</time>
      </trkpt>
      <trkpt lat="42.53517" lon="2.43853">
        <ele>1922.849242</ele>
        <time>2026-07-17T10:00:16.804Z</time>
      </trkpt>
      <trkpt lat="42.53545" lon="2.43868">
        <ele>1912.348404</ele>
        <time>2026-07-17T10:01:34.552Z</time>
      </trkpt>
      <trkpt lat="42.53535" lon="2.43815">
        <ele>1899.189722</ele>
        <time>2026-07-17T10:03:12.694Z</time>
      </trkpt>
      <trkpt lat="42.53534" lon="2.43795">
        <ele>1894.915705</ele>
        <time>2026-07-17T10:03:48.269Z</time>
      </trkpt>
      <trkpt lat="42.53538" lon="2.43791">
        <ele>1893.447964</ele>
        <time>2026-07-17T10:04:00.345Z</time>
      </trkpt>
      <trkpt lat="42.53538" lon="2.43773">
        <ele>1889.569406</ele>
        <time>2026-07-17T10:04:31.916Z</time>
      </trkpt>
      <trkpt lat="42.53533" lon="2.43762">
        <ele>1886.804358</ele>
        <time>2026-07-17T10:04:54.277Z</time>
      </trkpt>
      <trkpt lat="42.53536" lon="2.43745">
        <ele>1882.990246</ele>
        <time>2026-07-17T10:05:24.293Z</time>
      </trkpt>
      <trkpt lat="42.53545" lon="2.43746">
        <ele>1880.477029</ele>
        <time>2026-07-17T10:05:43.708Z</time>
      </trkpt>
      <trkpt lat="42.53545" lon="2.43721">
        <ele>1875.242041</ele>
        <time>2026-07-17T10:06:23.215Z</time>
      </trkpt>
      <trkpt lat="42.53563" lon="2.43703">
        <ele>1868.923274</ele>
        <time>2026-07-17T10:07:09.409Z</time>
      </trkpt>
      <trkpt lat="42.53581" lon="2.43722">
        <ele>1862.188763</ele>
        <time>2026-07-17T10:07:58.170Z</time>
      </trkpt>
      <trkpt lat="42.53582" lon="2.43718">
        <ele>1861.214243</ele>
        <time>2026-07-17T10:08:05.151Z</time>
      </trkpt>
      <trkpt lat="42.53589" lon="2.43733">
        <ele>1857.602039</ele>
        <time>2026-07-17T10:08:30.676Z</time>
      </trkpt>
      <trkpt lat="42.53592" lon="2.43705">
        <ele>1851.739268</ele>
        <time>2026-07-17T10:09:11.179Z</time>
      </trkpt>
      <trkpt lat="42.53616" lon="2.4375">
        <ele>1840.935619</ele>
        <time>2026-07-17T10:10:31.180Z</time>
      </trkpt>
      <trkpt lat="42.53616" lon="2.43682">
        <ele>1827.909479</ele>
        <time>2026-07-17T10:12:09.322Z</time>
      </trkpt>
      <trkpt lat="42.53621" lon="2.43663">
        <ele>1824.102165</ele>
        <time>2026-07-17T10:12:38.442Z</time>
      </trkpt>
      <trkpt lat="42.53627" lon="2.43615">
        <ele>1814.726185</ele>
        <time>2026-07-17T10:13:53.686Z</time>
      </trkpt>
      <trkpt lat="42.53641" lon="2.43642">
        <ele>1808.316459</ele>
        <time>2026-07-17T10:14:47.848Z</time>
      </trkpt>
      <trkpt lat="42.53642" lon="2.43626">
        <ele>1805.14921</ele>
        <time>2026-07-17T10:15:14.663Z</time>
      </trkpt>
      <trkpt lat="42.53652" lon="2.43595">
        <ele>1798.417327</ele>
        <time>2026-07-17T10:16:08.625Z</time>
      </trkpt>
      <trkpt lat="42.53661" lon="2.43616">
        <ele>1793.411947</ele>
        <time>2026-07-17T10:16:47.818Z</time>
      </trkpt>
      <trkpt lat="42.53673" lon="2.4358">
        <ele>1785.156283</ele>
        <time>2026-07-17T10:17:51.791Z</time>
      </trkpt>
      <trkpt lat="42.53681" lon="2.43525">
        <ele>1773.522095</ele>
        <time>2026-07-17T10:19:19.297Z</time>
      </trkpt>
      <trkpt lat="42.53697" lon="2.43472">
        <ele>1761.827798</ele>
        <time>2026-07-17T10:20:49.441Z</time>
      </trkpt>
      <trkpt lat="42.537" lon="2.43492">
        <ele>1757.724131</ele>
        <time>2026-07-17T10:21:21.226Z</time>
      </trkpt>
      <trkpt lat="42.53712" lon="2.43461">
        <ele>1751.015208</ele>
        <time>2026-07-17T10:22:17.171Z</time>
      </trkpt>
      <trkpt lat="42.53716" lon="2.43439">
        <ele>1747.331876</ele>
        <time>2026-07-17T10:22:56.154Z</time>
      </trkpt>
      <trkpt lat="42.53726" lon="2.43415">
        <ele>1742.986565</ele>
        <time>2026-07-17T10:23:37.960Z</time>
      </trkpt>
      <trkpt lat="42.53725" lon="2.4338">
        <ele>1737.44467</ele>
        <time>2026-07-17T10:24:28.135Z</time>
      </trkpt>
      <trkpt lat="42.53719" lon="2.43365">
        <ele>1734.623717</ele>
        <time>2026-07-17T10:24:51.906Z</time>
      </trkpt>
      <trkpt lat="42.53709" lon="2.43354">
        <ele>1731.865585</ele>
        <time>2026-07-17T10:25:14.652Z</time>
      </trkpt>
      <trkpt lat="42.53708" lon="2.43345">
        <ele>1730.502913</ele>
        <time>2026-07-17T10:25:26.624Z</time>
      </trkpt>
      <trkpt lat="42.53697" lon="2.43328">
        <ele>1726.80994</ele>
        <time>2026-07-17T10:25:56.397Z</time>
      </trkpt>
      <trkpt lat="42.53691" lon="2.43312">
        <ele>1723.937307</ele>
        <time>2026-07-17T10:26:19.566Z</time>
      </trkpt>
      <trkpt lat="42.53699" lon="2.4332">
        <ele>1721.791192</ele>
        <time>2026-07-17T10:26:35.420Z</time>
      </trkpt>
      <trkpt lat="42.53712" lon="2.43325">
        <ele>1718.85933</ele>
        <time>2026-07-17T10:26:57.708Z</time>
      </trkpt>
      <trkpt lat="42.53742" lon="2.43327">
        <ele>1712.783725</ele>
        <time>2026-07-17T10:27:45.538Z</time>
      </trkpt>
      <trkpt lat="42.5375" lon="2.43338">
        <ele>1711.381026</ele>
        <time>2026-07-17T10:28:03.609Z</time>
      </trkpt>
      <trkpt lat="42.53751" lon="2.43328">
        <ele>1710.487082</ele>
        <time>2026-07-17T10:28:14.758Z</time>
      </trkpt>
      <trkpt lat="42.53757" lon="2.43339">
        <ele>1709.254325</ele>
        <time>2026-07-17T10:28:30.209Z</time>
      </trkpt>
      <trkpt lat="42.53755" lon="2.43326">
        <ele>1708.103072</ele>
        <time>2026-07-17T10:28:44.692Z</time>
      </trkpt>
      <trkpt lat="42.53758" lon="2.43299">
        <ele>1705.637658</ele>
        <time>2026-07-17T10:29:13.408Z</time>
      </trkpt>
      <trkpt lat="42.53761" lon="2.43298">
        <ele>1705.272643</ele>
        <time>2026-07-17T10:29:17.466Z</time>
      </trkpt>
      <trkpt lat="42.53771" lon="2.43318">
        <ele>1703.071132</ele>
        <time>2026-07-17T10:29:43.288Z</time>
      </trkpt>
      <trkpt lat="42.53773" lon="2.43304">
        <ele>1701.784155</ele>
        <time>2026-07-17T10:29:58.606Z</time>
      </trkpt>
      <trkpt lat="42.5378" lon="2.43319">
        <ele>1700.162625</ele>
        <time>2026-07-17T10:30:18.034Z</time>
      </trkpt>
      <trkpt lat="42.53799" lon="2.43347">
        <ele>1696.841522</ele>
        <time>2026-07-17T10:30:57.957Z</time>
      </trkpt>
      <trkpt lat="42.53806" lon="2.43351">
        <ele>1695.91353</ele>
        <time>2026-07-17T10:31:09.122Z</time>
      </trkpt>
      <trkpt lat="42.53809" lon="2.43382">
        <ele>1693.08761</ele>
        <time>2026-07-17T10:31:43.403Z</time>
      </trkpt>
      <trkpt lat="42.53812" lon="2.43374">
        <ele>1692.272349</ele>
        <time>2026-07-17T10:31:53.427Z</time>
      </trkpt>
      <trkpt lat="42.53813" lon="2.43398">
        <ele>1689.228491</ele>
        <time>2026-07-17T10:32:19.752Z</time>
      </trkpt>
      <trkpt lat="42.5382" lon="2.43425">
        <ele>1685.156037</ele>
        <time>2026-07-17T10:32:51.347Z</time>
      </trkpt>
      <trkpt lat="42.53821" lon="2.43445">
        <ele>1682.355297</ele>
        <time>2026-07-17T10:33:13.404Z</time>
      </trkpt>
      <trkpt lat="42.53825" lon="2.43463">
        <ele>1679.735023</ele>
        <time>2026-07-17T10:33:34.167Z</time>
      </trkpt>
      <trkpt lat="42.53824" lon="2.43484">
        <ele>1676.690701</ele>
        <time>2026-07-17T10:33:58.852Z</time>
      </trkpt>
      <trkpt lat="42.53833" lon="2.43514">
        <ele>1672.150851</ele>
        <time>2026-07-17T10:34:36.948Z</time>
      </trkpt>
      <trkpt lat="42.53825" lon="2.43518">
        <ele>1670.492207</ele>
        <time>2026-07-17T10:34:51.568Z</time>
      </trkpt>
      <trkpt lat="42.53833" lon="2.43537">
        <ele>1667.4165</ele>
        <time>2026-07-17T10:35:20.186Z</time>
      </trkpt>
      <trkpt lat="42.53839" lon="2.43535">
        <ele>1666.079514</ele>
        <time>2026-07-17T10:35:33.404Z</time>
      </trkpt>
      <trkpt lat="42.53846" lon="2.43516">
        <ele>1663.108276</ele>
        <time>2026-07-17T10:36:04.080Z</time>
      </trkpt>
      <trkpt lat="42.53842" lon="2.43502">
        <ele>1661.149725</ele>
        <time>2026-07-17T10:36:25.285Z</time>
      </trkpt>
      <trkpt lat="42.53845" lon="2.43488">
        <ele>1659.088575</ele>
        <time>2026-07-17T10:36:48.157Z</time>
      </trkpt>
      <trkpt lat="42.53864" lon="2.43431">
        <ele>1645.353944</ele>
        <time>2026-07-17T10:38:33.117Z</time>
      </trkpt>
      <trkpt lat="42.53871" lon="2.43419">
        <ele>1641.483247</ele>
        <time>2026-07-17T10:39:01.376Z</time>
      </trkpt>
      <trkpt lat="42.5389" lon="2.43393">
        <ele>1632.476773</ele>
        <time>2026-07-17T10:40:08.240Z</time>
      </trkpt>
      <trkpt lat="42.53897" lon="2.43389">
        <ele>1629.966518</ele>
        <time>2026-07-17T10:40:26.827Z</time>
      </trkpt>
      <trkpt lat="42.53904" lon="2.43391">
        <ele>1627.569736</ele>
        <time>2026-07-17T10:40:44.958Z</time>
      </trkpt>
      <trkpt lat="42.53912" lon="2.43382">
        <ele>1624.16366</ele>
        <time>2026-07-17T10:41:10.333Z</time>
      </trkpt>
      <trkpt lat="42.53917" lon="2.43386">
        <ele>1622.232399</ele>
        <time>2026-07-17T10:41:24.886Z</time>
      </trkpt>
      <trkpt lat="42.53937" lon="2.43355">
        <ele>1612.461425</ele>
        <time>2026-07-17T10:42:38.919Z</time>
      </trkpt>
      <trkpt lat="42.53957" lon="2.43334">
        <ele>1604.056577</ele>
        <time>2026-07-17T10:43:43.011Z</time>
      </trkpt>
      <trkpt lat="42.53948" lon="2.43358">
        <ele>1597.423417</ele>
        <time>2026-07-17T10:44:33.095Z</time>
      </trkpt>
      <trkpt lat="42.53954" lon="2.43362">
        <ele>1595.464482</ele>
        <time>2026-07-17T10:44:49.529Z</time>
      </trkpt>
      <trkpt lat="42.53965" lon="2.43351">
        <ele>1591.217858</ele>
        <time>2026-07-17T10:45:24.796Z</time>
      </trkpt>
      <trkpt lat="42.53966" lon="2.4336">
        <ele>1589.208618</ele>
        <time>2026-07-17T10:45:41.397Z</time>
      </trkpt>
      <trkpt lat="42.53967" lon="2.43363">
        <ele>1588.477628</ele>
        <time>2026-07-17T10:45:47.295Z</time>
      </trkpt>
      <trkpt lat="42.53971" lon="2.43362">
        <ele>1587.274778</ele>
        <time>2026-07-17T10:45:57.204Z</time>
      </trkpt>
      <trkpt lat="42.53984" lon="2.43353">
        <ele>1582.930244</ele>
        <time>2026-07-17T10:46:32.265Z</time>
      </trkpt>
      <trkpt lat="42.53988" lon="2.43355">
        <ele>1581.656581</ele>
        <time>2026-07-17T10:46:42.588Z</time>
      </trkpt>
      <trkpt lat="42.53992" lon="2.43351">
        <ele>1580.139746</ele>
        <time>2026-07-17T10:46:54.700Z</time>
      </trkpt>
      <trkpt lat="42.54" lon="2.4335">
        <ele>1577.74837</ele>
        <time>2026-07-17T10:47:13.478Z</time>
      </trkpt>
      <trkpt lat="42.53999" lon="2.43346">
        <ele>1576.790578</ele>
        <time>2026-07-17T10:47:20.969Z</time>
      </trkpt>
      <trkpt lat="42.54" lon="2.43339">
        <ele>1575.271457</ele>
        <time>2026-07-17T10:47:32.884Z</time>
      </trkpt>
      <trkpt lat="42.54005" lon="2.43343">
        <ele>1573.543903</ele>
        <time>2026-07-17T10:47:46.239Z</time>
      </trkpt>
      <trkpt lat="42.54008" lon="2.43339">
        <ele>1572.439392</ele>
        <time>2026-07-17T10:47:54.744Z</time>
      </trkpt>
      <trkpt lat="42.54012" lon="2.43342">
        <ele>1570.86183</ele>
        <time>2026-07-17T10:48:06.822Z</time>
      </trkpt>
      <trkpt lat="42.54017" lon="2.43332">
        <ele>1568.251166</ele>
        <time>2026-07-17T10:48:26.696Z</time>
      </trkpt>
      <trkpt lat="42.54021" lon="2.43338">
        <ele>1566.614635</ele>
        <time>2026-07-17T10:48:39.099Z</time>
      </trkpt>
      <trkpt lat="42.54022" lon="2.43333">
        <ele>1565.294808</ele>
        <time>2026-07-17T10:48:49.206Z</time>
      </trkpt>
      <trkpt lat="42.54028" lon="2.43331">
        <ele>1563.645643</ele>
        <time>2026-07-17T10:49:01.608Z</time>
      </trkpt>
      <trkpt lat="42.54026" lon="2.4334">
        <ele>1561.610162</ele>
        <time>2026-07-17T10:49:16.892Z</time>
      </trkpt>
      <trkpt lat="42.54032" lon="2.43339">
        <ele>1559.813105</ele>
        <time>2026-07-17T10:49:30.456Z</time>
      </trkpt>
      <trkpt lat="42.54034" lon="2.43332">
        <ele>1558.373588</ele>
        <time>2026-07-17T10:49:41.231Z</time>
      </trkpt>
      <trkpt lat="42.54038" lon="2.43333">
        <ele>1557.251957</ele>
        <time>2026-07-17T10:49:49.516Z</time>
      </trkpt>
      <trkpt lat="42.5404" lon="2.43339">
        <ele>1555.758226</ele>
        <time>2026-07-17T10:50:00.405Z</time>
      </trkpt>
      <trkpt lat="42.54046" lon="2.43339">
        <ele>1553.852376</ele>
        <time>2026-07-17T10:50:14.311Z</time>
      </trkpt>
      <trkpt lat="42.54066" lon="2.43323">
        <ele>1547.012615</ele>
        <time>2026-07-17T10:51:01.946Z</time>
      </trkpt>
      <trkpt lat="42.54129" lon="2.43286">
        <ele>1534.077758</ele>
        <time>2026-07-17T10:53:02.649Z</time>
      </trkpt>
      <trkpt lat="42.54152" lon="2.43261">
        <ele>1528.912344</ele>
        <time>2026-07-17T10:53:48.130Z</time>
      </trkpt>
      <trkpt lat="42.54156" lon="2.4326">
        <ele>1528.164017</ele>
        <time>2026-07-17T10:53:54.627Z</time>
      </trkpt>
      <trkpt lat="42.54166" lon="2.43264">
        <ele>1526.348969</ele>
        <time>2026-07-17T10:54:10.511Z</time>
      </trkpt>
      <trkpt lat="42.5417" lon="2.43269">
        <ele>1525.431909</ele>
        <time>2026-07-17T10:54:18.475Z</time>
      </trkpt>
      <trkpt lat="42.54178" lon="2.4327">
        <ele>1523.9488</ele>
        <time>2026-07-17T10:54:31.445Z</time>
      </trkpt>
      <trkpt lat="42.54234" lon="2.43264">
        <ele>1514.069853</ele>
        <time>2026-07-17T10:55:57.743Z</time>
      </trkpt>
      <trkpt lat="42.54241" lon="2.43259">
        <ele>1512.661243</ele>
        <time>2026-07-17T10:56:09.705Z</time>
      </trkpt>
      <trkpt lat="42.5426" lon="2.43223">
        <ele>1506.173417</ele>
        <time>2026-07-17T10:57:00.406Z</time>
      </trkpt>
      <trkpt lat="42.54273" lon="2.43204">
        <ele>1502.356618</ele>
        <time>2026-07-17T10:57:31.761Z</time>
      </trkpt>
      <trkpt lat="42.54273" lon="2.43192">
        <ele>1500.563074</ele>
        <time>2026-07-17T10:57:47.183Z</time>
      </trkpt>
      <trkpt lat="42.54268" lon="2.43172">
        <ele>1497.484659</ele>
        <time>2026-07-17T10:58:14.233Z</time>
      </trkpt>
      <trkpt lat="42.54272" lon="2.43159">
        <ele>1495.344645</ele>
        <time>2026-07-17T10:58:33.512Z</time>
      </trkpt>
      <trkpt lat="42.54269" lon="2.43137">
        <ele>1492.013529</ele>
        <time>2026-07-17T10:59:04.432Z</time>
      </trkpt>
      <trkpt lat="42.54249" lon="2.43116">
        <ele>1487.144036</ele>
        <time>2026-07-17T10:59:50.805Z</time>
      </trkpt>
      <trkpt lat="42.54242" lon="2.43114">
        <ele>1485.69633</ele>
        <time>2026-07-17T11:00:04.898Z</time>
      </trkpt>
      <trkpt lat="42.54239" lon="2.43107">
        <ele>1484.476497</ele>
        <time>2026-07-17T11:00:16.641Z</time>
      </trkpt>
      <trkpt lat="42.54236" lon="2.43087">
        <ele>1481.459408</ele>
        <time>2026-07-17T11:00:45.937Z</time>
      </trkpt>
      <trkpt lat="42.54242" lon="2.43058">
        <ele>1476.987797</ele>
        <time>2026-07-17T11:01:29.264Z</time>
      </trkpt>
      <trkpt lat="42.54241" lon="2.43048">
        <ele>1475.505477</ele>
        <time>2026-07-17T11:01:43.244Z</time>
      </trkpt>
      <trkpt lat="42.54241" lon="2.4301">
        <ele>1470.082912</ele>
        <time>2026-07-17T11:02:34.412Z</time>
      </trkpt>
      <trkpt lat="42.54245" lon="2.43002">
        <ele>1468.558721</ele>
        <time>2026-07-17T11:02:48.632Z</time>
      </trkpt>
      <trkpt lat="42.54245" lon="2.42996">
        <ele>1467.755309</ele>
        <time>2026-07-17T11:02:56.041Z</time>
      </trkpt>
      <trkpt lat="42.54231" lon="2.42963">
        <ele>1462.277833</ele>
        <time>2026-07-17T11:03:45.760Z</time>
      </trkpt>
      <trkpt lat="42.54226" lon="2.42935">
        <ele>1457.985941</ele>
        <time>2026-07-17T11:04:23.744Z</time>
      </trkpt>
      <trkpt lat="42.54227" lon="2.42915">
        <ele>1455.189218</ele>
        <time>2026-07-17T11:04:48.131Z</time>
      </trkpt>
      <trkpt lat="42.54222" lon="2.42895">
        <ele>1452.149294</ele>
        <time>2026-07-17T11:05:14.407Z</time>
      </trkpt>
      <trkpt lat="42.54231" lon="2.42849">
        <ele>1445.146239</ele>
        <time>2026-07-17T11:06:12.895Z</time>
      </trkpt>
      <trkpt lat="42.54236" lon="2.42844">
        <ele>1443.995124</ele>
        <time>2026-07-17T11:06:22.220Z</time>
      </trkpt>
      <trkpt lat="42.54244" lon="2.4284">
        <ele>1442.280291</ele>
        <time>2026-07-17T11:06:36.185Z</time>
      </trkpt>
      <trkpt lat="42.54251" lon="2.42831">
        <ele>1441.096905</ele>
        <time>2026-07-17T11:06:52.408Z</time>
      </trkpt>
      <trkpt lat="42.54261" lon="2.42809">
        <ele>1439.395491</ele>
        <time>2026-07-17T11:07:21.636Z</time>
      </trkpt>
      <trkpt lat="42.54263" lon="2.42798">
        <ele>1438.594326</ele>
        <time>2026-07-17T11:07:35.360Z</time>
      </trkpt>
      <trkpt lat="42.54261" lon="2.42779">
        <ele>1437.339756</ele>
        <time>2026-07-17T11:07:56.714Z</time>
      </trkpt>
      <trkpt lat="42.54264" lon="2.42759">
        <ele>1435.936626</ele>
        <time>2026-07-17T11:08:20.380Z</time>
      </trkpt>
      <trkpt lat="42.5426" lon="2.4272">
        <ele>1433.281892</ele>
        <time>2026-07-17T11:09:04.969Z</time>
      </trkpt>
      <trkpt lat="42.54274" lon="2.42665">
        <ele>1429.34364</ele>
        <time>2026-07-17T11:10:06.709Z</time>
      </trkpt>
      <trkpt lat="42.54284" lon="2.42651">
        <ele>1428.025383</ele>
        <time>2026-07-17T11:10:25.223Z</time>
      </trkpt>
      <trkpt lat="42.5429" lon="2.42636">
        <ele>1426.862405</ele>
        <time>2026-07-17T11:10:40.620Z</time>
      </trkpt>
      <trkpt lat="42.54292" lon="2.42614">
        <ele>1425.397689</ele>
        <time>2026-07-17T11:11:01.535Z</time>
      </trkpt>
      <trkpt lat="42.5429" lon="2.42573">
        <ele>1429.716252</ele>
        <time>2026-07-17T11:11:46.013Z</time>
      </trkpt>
      <trkpt lat="42.54304" lon="2.42555">
        <ele>1432.702242</ele>
        <time>2026-07-17T11:12:19.613Z</time>
      </trkpt>
      <trkpt lat="42.54308" lon="2.42535">
        <ele>1435.012863</ele>
        <time>2026-07-17T11:12:49.469Z</time>
      </trkpt>
      <trkpt lat="42.54315" lon="2.42555">
        <ele>1437.469298</ele>
        <time>2026-07-17T11:13:24.539Z</time>
      </trkpt>
      <trkpt lat="42.54317" lon="2.42573">
        <ele>1439.454366</ele>
        <time>2026-07-17T11:13:54.801Z</time>
      </trkpt>
      <trkpt lat="42.54319" lon="2.42575">
        <ele>1439.925901</ele>
        <time>2026-07-17T11:14:01.996Z</time>
      </trkpt>
      <trkpt lat="42.54324" lon="2.42572">
        <ele>1440.639561</ele>
        <time>2026-07-17T11:14:13.020Z</time>
      </trkpt>
      <trkpt lat="42.54372" lon="2.42506">
        <ele>1451.005916</ele>
        <time>2026-07-17T11:17:11.034Z</time>
      </trkpt>
      <trkpt lat="42.54376" lon="2.42494">
        <ele>1452.457994</ele>
        <time>2026-07-17T11:17:35.073Z</time>
      </trkpt>
      <trkpt lat="42.54384" lon="2.42483">
        <ele>1453.658297</ele>
        <time>2026-07-17T11:18:01.333Z</time>
      </trkpt>
      <trkpt lat="42.54387" lon="2.42468">
        <ele>1454.919587</ele>
        <time>2026-07-17T11:18:27.694Z</time>
      </trkpt>
      <trkpt lat="42.54398" lon="2.42452">
        <ele>1456.682206</ele>
        <time>2026-07-17T11:19:03.294Z</time>
      </trkpt>
      <trkpt lat="42.54401" lon="2.42453">
        <ele>1457.005347</ele>
        <time>2026-07-17T11:19:09.477Z</time>
      </trkpt>
      <trkpt lat="42.54415" lon="2.4248">
        <ele>1459.607902</ele>
        <time>2026-07-17T11:19:58.315Z</time>
      </trkpt>
      <trkpt lat="42.54419" lon="2.42482">
        <ele>1460.053996</ele>
        <time>2026-07-17T11:20:05.895Z</time>
      </trkpt>
      <trkpt lat="42.54419" lon="2.42496">
        <ele>1461.202911</ele>
        <time>2026-07-17T11:20:25.054Z</time>
      </trkpt>
      <trkpt lat="42.54429" lon="2.42504">
        <ele>1462.454736</ele>
        <time>2026-07-17T11:20:44.489Z</time>
      </trkpt>
      <trkpt lat="42.54432" lon="2.42513">
        <ele>1463.275452</ele>
        <time>2026-07-17T11:20:56.680Z</time>
      </trkpt>
      <trkpt lat="42.54435" lon="2.42532">
        <ele>1464.818</ele>
        <time>2026-07-17T11:21:18.924Z</time>
      </trkpt>
      <trkpt lat="42.54435" lon="2.4255">
        <ele>1466.270461</ele>
        <time>2026-07-17T11:21:39.140Z</time>
      </trkpt>
      <trkpt lat="42.54445" lon="2.42571">
        <ele>1468.205548</ele>
        <time>2026-07-17T11:22:05.027Z</time>
      </trkpt>
      <trkpt lat="42.54446" lon="2.42584">
        <ele>1469.319841</ele>
        <time>2026-07-17T11:22:19.348Z</time>
      </trkpt>
      <trkpt lat="42.54453" lon="2.42599">
        <ele>1470.678678</ele>
        <time>2026-07-17T11:22:36.181Z</time>
      </trkpt>
      <trkpt lat="42.54497" lon="2.42659">
        <ele>1471.032418</ele>
        <time>2026-07-17T11:23:53.299Z</time>
      </trkpt>
      <trkpt lat="42.54511" lon="2.42688">
        <ele>1470.620337</ele>
        <time>2026-07-17T11:24:26.399Z</time>
      </trkpt>
      <trkpt lat="42.54537" lon="2.42721">
        <ele>1470.030413</ele>
        <time>2026-07-17T11:25:15.053Z</time>
      </trkpt>
      <trkpt lat="42.54544" lon="2.42728">
        <ele>1469.88505</ele>
        <time>2026-07-17T11:25:27.059Z</time>
      </trkpt>
      <trkpt lat="42.54573" lon="2.42737">
        <ele>1469.381773</ele>
        <time>2026-07-17T11:26:06.411Z</time>
      </trkpt>
      <trkpt lat="42.54583" lon="2.42737">
        <ele>1469.224769</ele>
        <time>2026-07-17T11:26:18.252Z</time>
      </trkpt>
      <trkpt lat="42.54587" lon="2.4273">
        <ele>1469.125484</ele>
        <time>2026-07-17T11:26:25.530Z</time>
      </trkpt>
      <trkpt lat="42.54597" lon="2.42733">
        <ele>1468.949348</ele>
        <time>2026-07-17T11:26:38.750Z</time>
      </trkpt>
      <trkpt lat="42.54602" lon="2.42742">
        <ele>1469.268813</ele>
        <time>2026-07-17T11:26:49.264Z</time>
      </trkpt>
      <trkpt lat="42.54615" lon="2.42741">
        <ele>1470.006605</ele>
        <time>2026-07-17T11:27:06.938Z</time>
      </trkpt>
      <trkpt lat="42.54639" lon="2.42751">
        <ele>1471.445018</ele>
        <time>2026-07-17T11:27:43.334Z</time>
      </trkpt>
      <trkpt lat="42.54676" lon="2.42793">
        <ele>1474.180086</ele>
        <time>2026-07-17T11:28:57.706Z</time>
      </trkpt>
      <trkpt lat="42.54683" lon="2.4281">
        <ele>1474.991137</ele>
        <time>2026-07-17T11:29:20.099Z</time>
      </trkpt>
      <trkpt lat="42.54699" lon="2.42833">
        <ele>1476.323819</ele>
        <time>2026-07-17T11:29:56.447Z</time>
      </trkpt>
      <trkpt lat="42.54735" lon="2.42835">
        <ele>1478.345826</ele>
        <time>2026-07-17T11:30:50.841Z</time>
      </trkpt>
      <trkpt lat="42.54767" lon="2.42831">
        <ele>1478.521469</ele>
        <time>2026-07-17T11:31:37.807Z</time>
      </trkpt>
      <trkpt lat="42.54779" lon="2.42827">
        <ele>1478.158703</ele>
        <time>2026-07-17T11:31:53.853Z</time>
      </trkpt>
      <trkpt lat="42.54786" lon="2.42819">
        <ele>1477.883808</ele>
        <time>2026-07-17T11:32:05.404Z</time>
      </trkpt>
      <trkpt lat="42.54799" lon="2.42812">
        <ele>1477.452625</ele>
        <time>2026-07-17T11:32:22.610Z</time>
      </trkpt>
      <trkpt lat="42.54811" lon="2.42799">
        <ele>1477.001718</ele>
        <time>2026-07-17T11:32:41.099Z</time>
      </trkpt>
      <trkpt lat="42.5482" lon="2.42799">
        <ele>1476.731933</ele>
        <time>2026-07-17T11:32:52.286Z</time>
      </trkpt>
      <trkpt lat="42.54854" lon="2.42772">
        <ele>1475.542173</ele>
        <time>2026-07-17T11:33:43.156Z</time>
      </trkpt>
      <trkpt lat="42.54873" lon="2.42765">
        <ele>1474.969971</ele>
        <time>2026-07-17T11:34:08.658Z</time>
      </trkpt>
      <trkpt lat="42.54879" lon="2.42761">
        <ele>1474.743208</ele>
        <time>2026-07-17T11:34:18.976Z</time>
      </trkpt>
      <trkpt lat="42.54888" lon="2.42749">
        <ele>1474.376404</ele>
        <time>2026-07-17T11:34:35.917Z</time>
      </trkpt>
      <trkpt lat="42.54897" lon="2.42748">
        <ele>1474.097783</ele>
        <time>2026-07-17T11:34:48.990Z</time>
      </trkpt>
      <trkpt lat="42.54905" lon="2.42755">
        <ele>1473.819976</ele>
        <time>2026-07-17T11:35:02.535Z</time>
      </trkpt>
      <trkpt lat="42.54912" lon="2.42774">
        <ele>1471.447732</ele>
        <time>2026-07-17T11:35:25.312Z</time>
      </trkpt>
      <trkpt lat="42.54924" lon="2.42797">
        <ele>1467.375964</ele>
        <time>2026-07-17T11:35:57.350Z</time>
      </trkpt>
      <trkpt lat="42.54954" lon="2.42825">
        <ele>1460.351051</ele>
        <time>2026-07-17T11:36:58.346Z</time>
      </trkpt>
      <trkpt lat="42.54969" lon="2.42832">
        <ele>1457.274541</ele>
        <time>2026-07-17T11:37:26.230Z</time>
      </trkpt>
      <trkpt lat="42.55013" lon="2.42845">
        <ele>1448.654787</ele>
        <time>2026-07-17T11:38:48.019Z</time>
      </trkpt>
      <trkpt lat="42.55033" lon="2.42847">
        <ele>1444.701772</ele>
        <time>2026-07-17T11:39:27.861Z</time>
      </trkpt>
      <trkpt lat="42.55028" lon="2.42839">
        <ele>1443.135005</ele>
        <time>2026-07-17T11:39:43.791Z</time>
      </trkpt>
      <trkpt lat="42.55035" lon="2.42835">
        <ele>1441.682438</ele>
        <time>2026-07-17T11:39:58.692Z</time>
      </trkpt>
      <trkpt lat="42.55018" lon="2.42806">
        <ele>1435.079913</ele>
        <time>2026-07-17T11:40:51.768Z</time>
      </trkpt>
      <trkpt lat="42.55035" lon="2.4281">
        <ele>1429.655041</ele>
        <time>2026-07-17T11:41:26.924Z</time>
      </trkpt>
      <trkpt lat="42.55024" lon="2.42789">
        <ele>1423.46919</ele>
        <time>2026-07-17T11:42:07.485Z</time>
      </trkpt>
      <trkpt lat="42.55019" lon="2.42768">
        <ele>1418.472699</ele>
        <time>2026-07-17T11:42:41.147Z</time>
      </trkpt>
      <trkpt lat="42.55018" lon="2.42744">
        <ele>1412.8019</ele>
        <time>2026-07-17T11:43:20.220Z</time>
      </trkpt>
      <trkpt lat="42.55032" lon="2.42756">
        <ele>1407.600163</ele>
        <time>2026-07-17T11:43:57.262Z</time>
      </trkpt>
      <trkpt lat="42.5505" lon="2.42724">
        <ele>1398.349199</ele>
        <time>2026-07-17T11:45:07.073Z</time>
      </trkpt>
      <trkpt lat="42.55064" lon="2.42704">
        <ele>1391.802595</ele>
        <time>2026-07-17T11:45:59.413Z</time>
      </trkpt>
      <trkpt lat="42.55086" lon="2.42682">
        <ele>1383.184261</ele>
        <time>2026-07-17T11:47:12.286Z</time>
      </trkpt>
      <trkpt lat="42.55124" lon="2.42634">
        <ele>1362.587295</ele>
        <time>2026-07-17T11:49:39.170Z</time>
      </trkpt>
      <trkpt lat="42.55134" lon="2.42617">
        <ele>1356.111297</ele>
        <time>2026-07-17T11:50:26.376Z</time>
      </trkpt>
      <trkpt lat="42.55165" lon="2.42595">
        <ele>1341.962064</ele>
        <time>2026-07-17T11:52:08.689Z</time>
      </trkpt>
      <trkpt lat="42.55171" lon="2.42583">
        <ele>1337.408341</ele>
        <time>2026-07-17T11:52:41.710Z</time>
      </trkpt>
      <trkpt lat="42.55191" lon="2.42512">
        <ele>1314.852147</ele>
        <time>2026-07-17T11:55:15.056Z</time>
      </trkpt>
      <trkpt lat="42.552" lon="2.42485">
        <ele>1306.91177</ele>
        <time>2026-07-17T11:56:09.871Z</time>
      </trkpt>
      <trkpt lat="42.55201" lon="2.42467">
        <ele>1303.091599</ele>
        <time>2026-07-17T11:56:41.213Z</time>
      </trkpt>
      <trkpt lat="42.5521" lon="2.42473">
        <ele>1300.23026</ele>
        <time>2026-07-17T11:57:04.059Z</time>
      </trkpt>
      <trkpt lat="42.55211" lon="2.42467">
        <ele>1298.867603</ele>
        <time>2026-07-17T11:57:14.669Z</time>
      </trkpt>
      <trkpt lat="42.55203" lon="2.42433">
        <ele>1291.005114</ele>
        <time>2026-07-17T11:58:13.858Z</time>
      </trkpt>
      <trkpt lat="42.55234" lon="2.42439">
        <ele>1281.566043</ele>
        <time>2026-07-17T11:59:21.656Z</time>
      </trkpt>
      <trkpt lat="42.55239" lon="2.42446">
        <ele>1279.58038</ele>
        <time>2026-07-17T11:59:35.588Z</time>
      </trkpt>
      <trkpt lat="42.55244" lon="2.42465">
        <ele>1275.135376</ele>
        <time>2026-07-17T12:00:07.324Z</time>
      </trkpt>
      <trkpt lat="42.55255" lon="2.42487">
        <ele>1269.455926</ele>
        <time>2026-07-17T12:00:48.349Z</time>
      </trkpt>
      <trkpt lat="42.55258" lon="2.42471">
        <ele>1265.812353</ele>
        <time>2026-07-17T12:01:14.272Z</time>
      </trkpt>
      <trkpt lat="42.55262" lon="2.42466">
        <ele>1264.240155</ele>
        <time>2026-07-17T12:01:25.440Z</time>
      </trkpt>
      <trkpt lat="42.55267" lon="2.42481">
        <ele>1260.698835</ele>
        <time>2026-07-17T12:01:50.271Z</time>
      </trkpt>
      <trkpt lat="42.5527" lon="2.42471">
        <ele>1258.522627</ele>
        <time>2026-07-17T12:02:05.564Z</time>
      </trkpt>
      <trkpt lat="42.55281" lon="2.42495">
        <ele>1252.587189</ele>
        <time>2026-07-17T12:02:49.314Z</time>
      </trkpt>
      <trkpt lat="42.55287" lon="2.42513">
        <ele>1248.753883</ele>
        <time>2026-07-17T12:03:18.378Z</time>
      </trkpt>
      <trkpt lat="42.55304" lon="2.42459">
        <ele>1236.91447</ele>
        <time>2026-07-17T12:04:49.770Z</time>
      </trkpt>
      <trkpt lat="42.55329" lon="2.4242">
        <ele>1226.314835</ele>
        <time>2026-07-17T12:06:12.170Z</time>
      </trkpt>
      <trkpt lat="42.5533" lon="2.42484">
        <ele>1213.249967</ele>
        <time>2026-07-17T12:07:55.808Z</time>
      </trkpt>
      <trkpt lat="42.55332" lon="2.42495">
        <ele>1210.914914</ele>
        <time>2026-07-17T12:08:13.873Z</time>
      </trkpt>
      <trkpt lat="42.55339" lon="2.42501">
        <ele>1208.708372</ele>
        <time>2026-07-17T12:08:31.175Z</time>
      </trkpt>
      <trkpt lat="42.55347" lon="2.42514">
        <ele>1205.348739</ele>
        <time>2026-07-17T12:08:56.954Z</time>
      </trkpt>
      <trkpt lat="42.55349" lon="2.42509">
        <ele>1204.062017</ele>
        <time>2026-07-17T12:09:06.949Z</time>
      </trkpt>
      <trkpt lat="42.55359" lon="2.42526">
        <ele>1199.622959</ele>
        <time>2026-07-17T12:09:41.646Z</time>
      </trkpt>
      <trkpt lat="42.55365" lon="2.42516">
        <ele>1197.072054</ele>
        <time>2026-07-17T12:10:01.558Z</time>
      </trkpt>
      <trkpt lat="42.5537" lon="2.4253">
        <ele>1193.835258</ele>
        <time>2026-07-17T12:10:26.777Z</time>
      </trkpt>
      <trkpt lat="42.5537" lon="2.42542">
        <ele>1191.51259</ele>
        <time>2026-07-17T12:10:44.934Z</time>
      </trkpt>
      <trkpt lat="42.55377" lon="2.42551">
        <ele>1188.818373</ele>
        <time>2026-07-17T12:11:05.866Z</time>
      </trkpt>
      <trkpt lat="42.55383" lon="2.42569">
        <ele>1184.792189</ele>
        <time>2026-07-17T12:11:37.026Z</time>
      </trkpt>
      <trkpt lat="42.55394" lon="2.42561">
        <ele>1181.532158</ele>
        <time>2026-07-17T12:12:02.180Z</time>
      </trkpt>
      <trkpt lat="42.55397" lon="2.42536">
        <ele>1176.455583</ele>
        <time>2026-07-17T12:12:41.679Z</time>
      </trkpt>
      <trkpt lat="42.55401" lon="2.42535">
        <ele>1175.534803</ele>
        <time>2026-07-17T12:12:49.001Z</time>
      </trkpt>
      <trkpt lat="42.55409" lon="2.42563">
        <ele>1169.318987</ele>
        <time>2026-07-17T12:13:38.602Z</time>
      </trkpt>
      <trkpt lat="42.55414" lon="2.42594">
        <ele>1162.857598</ele>
        <time>2026-07-17T12:14:29.673Z</time>
      </trkpt>
      <trkpt lat="42.5543" lon="2.42575">
        <ele>1157.14687</ele>
        <time>2026-07-17T12:15:14.841Z</time>
      </trkpt>
      <trkpt lat="42.55435" lon="2.42562">
        <ele>1154.832964</ele>
        <time>2026-07-17T12:15:36.898Z</time>
      </trkpt>
      <trkpt lat="42.55434" lon="2.425">
        <ele>1144.956259</ele>
        <time>2026-07-17T12:17:07.449Z</time>
      </trkpt>
      <trkpt lat="42.55441" lon="2.42505">
        <ele>1143.183691</ele>
        <time>2026-07-17T12:17:22.904Z</time>
      </trkpt>
      <trkpt lat="42.55464" lon="2.42544">
        <ele>1135.2001</ele>
        <time>2026-07-17T12:18:29.217Z</time>
      </trkpt>
      <trkpt lat="42.55483" lon="2.42565">
        <ele>1129.747301</ele>
        <time>2026-07-17T12:19:13.165Z</time>
      </trkpt>
      <trkpt lat="42.55483" lon="2.42587">
        <ele>1126.255916</ele>
        <time>2026-07-17T12:19:40.404Z</time>
      </trkpt>
      <trkpt lat="42.55493" lon="2.42574">
        <ele>1123.105456</ele>
        <time>2026-07-17T12:20:04.562Z</time>
      </trkpt>
      <trkpt lat="42.55496" lon="2.4256">
        <ele>1120.861969</ele>
        <time>2026-07-17T12:20:21.326Z</time>
      </trkpt>
      <trkpt lat="42.55491" lon="2.42488">
        <ele>1110.601975</ele>
        <time>2026-07-17T12:21:48.617Z</time>
      </trkpt>
      <trkpt lat="42.55497" lon="2.42493">
        <ele>1109.312031</ele>
        <time>2026-07-17T12:21:59.874Z</time>
      </trkpt>
      <trkpt lat="42.5551" lon="2.42514">
        <ele>1105.570302</ele>
        <time>2026-07-17T12:22:32.814Z</time>
      </trkpt>
      <trkpt lat="42.55517" lon="2.4253">
        <ele>1102.949133</ele>
        <time>2026-07-17T12:22:55.996Z</time>
      </trkpt>
      <trkpt lat="42.55524" lon="2.42537">
        <ele>1101.383679</ele>
        <time>2026-07-17T12:23:10.136Z</time>
      </trkpt>
      <trkpt lat="42.55515" lon="2.42492">
        <ele>1094.936114</ele>
        <time>2026-07-17T12:24:08.743Z</time>
      </trkpt>
      <trkpt lat="42.55518" lon="2.4248">
        <ele>1093.310914</ele>
        <time>2026-07-17T12:24:23.811Z</time>
      </trkpt>
      <trkpt lat="42.55513" lon="2.42467">
        <ele>1091.358523</ele>
        <time>2026-07-17T12:24:41.675Z</time>
      </trkpt>
      <trkpt lat="42.55516" lon="2.4246">
        <ele>1090.319657</ele>
        <time>2026-07-17T12:24:51.295Z</time>
      </trkpt>
      <trkpt lat="42.5553" lon="2.42454">
        <ele>1087.58994</ele>
        <time>2026-07-17T12:25:16.683Z</time>
      </trkpt>
      <trkpt lat="42.55538" lon="2.42445">
        <ele>1085.605604</ele>
        <time>2026-07-17T12:25:35.025Z</time>
      </trkpt>
      <trkpt lat="42.5558" lon="2.42327">
        <ele>1065.940871</ele>
        <time>2026-07-17T12:28:24.741Z</time>
      </trkpt>
      <trkpt lat="42.55583" lon="2.42302">
        <ele>1062.108425</ele>
        <time>2026-07-17T12:28:57.925Z</time>
      </trkpt>
      <trkpt lat="42.55581" lon="2.42281">
        <ele>1058.873713</ele>
        <time>2026-07-17T12:29:26.739Z</time>
      </trkpt>
      <trkpt lat="42.5555" lon="2.42235">
        <ele>1049.458455</ele>
        <time>2026-07-17T12:30:52.651Z</time>
      </trkpt>
      <trkpt lat="42.55539" lon="2.42225">
        <ele>1047.004229</ele>
        <time>2026-07-17T12:31:16.557Z</time>
      </trkpt>
      <trkpt lat="42.55551" lon="2.42224">
        <ele>1044.799431</ele>
        <time>2026-07-17T12:31:38.930Z</time>
      </trkpt>
      <trkpt lat="42.55571" lon="2.42231">
        <ele>1041.057586</ele>
        <time>2026-07-17T12:32:15.736Z</time>
      </trkpt>
      <trkpt lat="42.55601" lon="2.42238">
        <ele>1035.621925</ele>
        <time>2026-07-17T12:33:06.960Z</time>
      </trkpt>
      <trkpt lat="42.55611" lon="2.42243">
        <ele>1033.790759</ele>
        <time>2026-07-17T12:33:23.378Z</time>
      </trkpt>
      <trkpt lat="42.55635" lon="2.42267">
        <ele>1028.381973</ele>
        <time>2026-07-17T12:34:11.121Z</time>
      </trkpt>
      <trkpt lat="42.55645" lon="2.42287">
        <ele>1025.129157</ele>
        <time>2026-07-17T12:34:39.718Z</time>
      </trkpt>
      <trkpt lat="42.55648" lon="2.42335">
        <ele>1018.81341</ele>
        <time>2026-07-17T12:35:35.535Z</time>
      </trkpt>
      <trkpt lat="42.55646" lon="2.42345">
        <ele>1017.518296</ele>
        <time>2026-07-17T12:35:46.907Z</time>
      </trkpt>
      <trkpt lat="42.55646" lon="2.42369">
        <ele>1014.241826</ele>
        <time>2026-07-17T12:36:14.433Z</time>
      </trkpt>
      <trkpt lat="42.55647" lon="2.42388">
        <ele>1011.509531</ele>
        <time>2026-07-17T12:36:36.573Z</time>
      </trkpt>
      <trkpt lat="42.5565" lon="2.42393">
        <ele>1010.523213</ele>
        <time>2026-07-17T12:36:44.561Z</time>
      </trkpt>
      <trkpt lat="42.55666" lon="2.4239">
        <ele>1007.514921</ele>
        <time>2026-07-17T12:37:08.860Z</time>
      </trkpt>
      <trkpt lat="42.55693" lon="2.42392">
        <ele>1002.240085</ele>
        <time>2026-07-17T12:37:52.107Z</time>
      </trkpt>
      <trkpt lat="42.55734" lon="2.42366">
        <ele>993.675626</ele>
        <time>2026-07-17T12:39:06.975Z</time>
      </trkpt>
      <trkpt lat="42.55762" lon="2.42351">
        <ele>987.839643</ele>
        <time>2026-07-17T12:40:03.358Z</time>
      </trkpt>
      <trkpt lat="42.5578" lon="2.42327">
        <ele>983.080711</ele>
        <time>2026-07-17T12:40:52.057Z</time>
      </trkpt>
      <trkpt lat="42.55779" lon="2.42324">
        <ele>982.536119</ele>
        <time>2026-07-17T12:40:57.794Z</time>
      </trkpt>
      <trkpt lat="42.55772" lon="2.42322">
        <ele>981.088797</ele>
        <time>2026-07-17T12:41:10.930Z</time>
      </trkpt>
      <trkpt lat="42.55771" lon="2.42313">
        <ele>979.448143</ele>
        <time>2026-07-17T12:41:24.700Z</time>
      </trkpt>
      <trkpt lat="42.55774" lon="2.42306">
        <ele>977.764643</ele>
        <time>2026-07-17T12:41:37.837Z</time>
      </trkpt>
      <trkpt lat="42.55776" lon="2.42282">
        <ele>973.485908</ele>
        <time>2026-07-17T12:42:12.416Z</time>
      </trkpt>
      <trkpt lat="42.5578" lon="2.42263">
        <ele>969.726347</ele>
        <time>2026-07-17T12:42:42.811Z</time>
      </trkpt>
      <trkpt lat="42.55781" lon="2.42214">
        <ele>960.986754</ele>
        <time>2026-07-17T12:43:54.110Z</time>
      </trkpt>
      <trkpt lat="42.55793" lon="2.42179">
        <ele>953.815741</ele>
        <time>2026-07-17T12:44:52.275Z</time>
      </trkpt>
      <trkpt lat="42.55793" lon="2.42146">
        <ele>947.96681</ele>
        <time>2026-07-17T12:45:40.117Z</time>
      </trkpt>
      <trkpt lat="42.55796" lon="2.4214">
        <ele>946.69462</ele>
        <time>2026-07-17T12:45:50.487Z</time>
      </trkpt>
      <trkpt lat="42.55796" lon="2.42129">
        <ele>944.660133</ele>
        <time>2026-07-17T12:46:07.364Z</time>
      </trkpt>
      <trkpt lat="42.558" lon="2.42124">
        <ele>943.215705</ele>
        <time>2026-07-17T12:46:19.292Z</time>
      </trkpt>
      <trkpt lat="42.55815" lon="2.42077">
        <ele>934.208606</ele>
        <time>2026-07-17T12:47:33.952Z</time>
      </trkpt>
      <trkpt lat="42.55815" lon="2.42059">
        <ele>930.945898</ele>
        <time>2026-07-17T12:48:01.585Z</time>
      </trkpt>
      <trkpt lat="42.5583" lon="2.4204">
        <ele>926.21202</ele>
        <time>2026-07-17T12:48:41.337Z</time>
      </trkpt>
      <trkpt lat="42.55835" lon="2.42039">
        <ele>924.856163</ele>
        <time>2026-07-17T12:48:52.590Z</time>
      </trkpt>
      <trkpt lat="42.55841" lon="2.42032">
        <ele>923.159792</ele>
        <time>2026-07-17T12:49:06.920Z</time>
      </trkpt>
      <trkpt lat="42.55846" lon="2.42019">
        <ele>920.599296</ele>
        <time>2026-07-17T12:49:28.380Z</time>
      </trkpt>
      <trkpt lat="42.55858" lon="2.42006">
        <ele>916.931232</ele>
        <time>2026-07-17T12:49:59.230Z</time>
      </trkpt>
      <trkpt lat="42.5586" lon="2.41995">
        <ele>915.023944</ele>
        <time>2026-07-17T12:50:15.254Z</time>
      </trkpt>
      <trkpt lat="42.55865" lon="2.41987">
        <ele>913.143724</ele>
        <time>2026-07-17T12:50:30.920Z</time>
      </trkpt>
      <trkpt lat="42.55867" lon="2.41978">
        <ele>911.422431</ele>
        <time>2026-07-17T12:50:45.373Z</time>
      </trkpt>
      <trkpt lat="42.5586" lon="2.41961">
        <ele>908.114322</ele>
        <time>2026-07-17T12:51:12.828Z</time>
      </trkpt>
      <trkpt lat="42.55866" lon="2.41952">
        <ele>905.885538</ele>
        <time>2026-07-17T12:51:31.153Z</time>
      </trkpt>
      <trkpt lat="42.55862" lon="2.41944">
        <ele>904.292631</ele>
        <time>2026-07-17T12:51:44.214Z</time>
      </trkpt>
      <trkpt lat="42.55875" lon="2.41928">
        <ele>899.989625</ele>
        <time>2026-07-17T12:52:19.014Z</time>
      </trkpt>
      <trkpt lat="42.55873" lon="2.4192">
        <ele>898.58767</ele>
        <time>2026-07-17T12:52:30.213Z</time>
      </trkpt>
      <trkpt lat="42.55878" lon="2.41912">
        <ele>896.91011</ele>
        <time>2026-07-17T12:52:43.560Z</time>
      </trkpt>
      <trkpt lat="42.55877" lon="2.41906">
        <ele>895.88607</ele>
        <time>2026-07-17T12:52:51.643Z</time>
      </trkpt>
      <trkpt lat="42.55873" lon="2.41902">
        <ele>894.785535</ele>
        <time>2026-07-17T12:53:01.152Z</time>
      </trkpt>
      <trkpt lat="42.55879" lon="2.41895">
        <ele>893.519206</ele>
        <time>2026-07-17T12:53:16.446Z</time>
      </trkpt>
      <trkpt lat="42.55874" lon="2.4189">
        <ele>892.547463</ele>
        <time>2026-07-17T12:53:27.843Z</time>
      </trkpt>
      <trkpt lat="42.55875" lon="2.41887">
        <ele>892.143274</ele>
        <time>2026-07-17T12:53:32.543Z</time>
      </trkpt>
      <trkpt lat="42.55881" lon="2.41889">
        <ele>891.153132</ele>
        <time>2026-07-17T12:53:44.129Z</time>
      </trkpt>
      <trkpt lat="42.5588" lon="2.41883">
        <ele>890.503637</ele>
        <time>2026-07-17T12:53:51.636Z</time>
      </trkpt>
      <trkpt lat="42.55895" lon="2.41877">
        <ele>888.084745</ele>
        <time>2026-07-17T12:54:18.791Z</time>
      </trkpt>
      <trkpt lat="42.55917" lon="2.41893">
        <ele>884.301179</ele>
        <time>2026-07-17T12:54:58.970Z</time>
      </trkpt>
      <trkpt lat="42.55931" lon="2.41893">
        <ele>882.239394</ele>
        <time>2026-07-17T12:55:20.176Z</time>
      </trkpt>
      <trkpt lat="42.5593" lon="2.41889">
        <ele>881.835121</ele>
        <time>2026-07-17T12:55:24.320Z</time>
      </trkpt>
      <trkpt lat="42.55916" lon="2.41882">
        <ele>879.54902</ele>
        <time>2026-07-17T12:55:47.440Z</time>
      </trkpt>
      <trkpt lat="42.55911" lon="2.41867">
        <ele>877.759459</ele>
        <time>2026-07-17T12:56:05.162Z</time>
      </trkpt>
      <trkpt lat="42.55909" lon="2.41848">
        <ele>875.558142</ele>
        <time>2026-07-17T12:56:26.618Z</time>
      </trkpt>
      <trkpt lat="42.5591" lon="2.41827">
        <ele>873.248251</ele>
        <time>2026-07-17T12:56:48.773Z</time>
      </trkpt>
      <trkpt lat="42.55905" lon="2.4181">
        <ele>871.19421</ele>
        <time>2026-07-17T12:57:08.199Z</time>
      </trkpt>
      <trkpt lat="42.55894" lon="2.41797">
        <ele>868.921605</ele>
        <time>2026-07-17T12:57:29.748Z</time>
      </trkpt>
      <trkpt lat="42.55887" lon="2.41796">
        <ele>867.840232</ele>
        <time>2026-07-17T12:57:40.011Z</time>
      </trkpt>
      <trkpt lat="42.55876" lon="2.41787">
        <ele>866.357756</ele>
        <time>2026-07-17T12:57:58.424Z</time>
      </trkpt>
      <trkpt lat="42.55862" lon="2.41782">
        <ele>864.775189</ele>
        <time>2026-07-17T12:58:18.636Z</time>
      </trkpt>
      <trkpt lat="42.5583" lon="2.41792">
        <ele>861.038107</ele>
        <time>2026-07-17T12:59:06.605Z</time>
      </trkpt>
      <trkpt lat="42.55827" lon="2.41789">
        <ele>860.664335</ele>
        <time>2026-07-17T12:59:11.375Z</time>
      </trkpt>
      <trkpt lat="42.55829" lon="2.4178">
        <ele>859.879137</ele>
        <time>2026-07-17T12:59:21.683Z</time>
      </trkpt>
      <trkpt lat="42.55835" lon="2.41778">
        <ele>859.260181</ele>
        <time>2026-07-17T12:59:29.787Z</time>
      </trkpt>
      <trkpt lat="42.55837" lon="2.41774">
        <ele>858.784532</ele>
        <time>2026-07-17T12:59:35.957Z</time>
      </trkpt>
      <trkpt lat="42.55824" lon="2.41772">
        <ele>857.332337</ele>
        <time>2026-07-17T12:59:54.902Z</time>
      </trkpt>
      <trkpt lat="42.55823" lon="2.41763">
        <ele>856.559576</ele>
        <time>2026-07-17T13:00:05.006Z</time>
      </trkpt>
      <trkpt lat="42.55818" lon="2.41759">
        <ele>855.960052</ele>
        <time>2026-07-17T13:00:12.939Z</time>
      </trkpt>
      <trkpt lat="42.55832" lon="2.41745">
        <ele>854.022791</ele>
        <time>2026-07-17T13:00:38.801Z</time>
      </trkpt>
      <trkpt lat="42.55833" lon="2.41735">
        <ele>853.166965</ele>
        <time>2026-07-17T13:00:50.233Z</time>
      </trkpt>
      <trkpt lat="42.55828" lon="2.41724">
        <ele>852.107685</ele>
        <time>2026-07-17T13:01:04.690Z</time>
      </trkpt>
      <trkpt lat="42.55829" lon="2.41714">
        <ele>851.254544</ele>
        <time>2026-07-17T13:01:16.070Z</time>
      </trkpt>
      <trkpt lat="42.55837" lon="2.41696">
        <ele>849.475269</ele>
        <time>2026-07-17T13:01:39.969Z</time>
      </trkpt>
      <trkpt lat="42.55837" lon="2.41691">
        <ele>849.049747</ele>
        <time>2026-07-17T13:01:45.597Z</time>
      </trkpt>
      <trkpt lat="42.55826" lon="2.4168">
        <ele>847.508263</ele>
        <time>2026-07-17T13:02:05.904Z</time>
      </trkpt>
      <trkpt lat="42.55817" lon="2.41661">
        <ele>847.425568</ele>
        <time>2026-07-17T13:02:30.453Z</time>
      </trkpt>
      <trkpt lat="42.55812" lon="2.41658">
        <ele>847.425568</ele>
        <time>2026-07-17T13:02:38.668Z</time>
      </trkpt>
      <trkpt lat="42.55809" lon="2.41654">
        <ele>847.425568</ele>
        <time>2026-07-17T13:02:44.082Z</time>
      </trkpt>
      <trkpt lat="42.55813" lon="2.41642">
        <ele>847.425568</ele>
        <time>2026-07-17T13:02:57.062Z</time>
      </trkpt>
      <trkpt lat="42.55812" lon="2.41634">
        <ele>847.425568</ele>
        <time>2026-07-17T13:03:05.319Z</time>
      </trkpt>
      <trkpt lat="42.55818" lon="2.41612">
        <ele>847.425568</ele>
        <time>2026-07-17T13:03:29.262Z</time>
      </trkpt>
      <trkpt lat="42.55816" lon="2.416">
        <ele>847.425568</ele>
        <time>2026-07-17T13:03:40.920Z</time>
      </trkpt>
      <trkpt lat="42.55807" lon="2.41574">
        <ele>847.425568</ele>
        <time>2026-07-17T13:04:08.845Z</time>
      </trkpt>
      <trkpt lat="42.55798" lon="2.41563">
        <ele>847.425568</ele>
        <time>2026-07-17T13:04:24.969Z</time>
      </trkpt>
      <trkpt lat="42.55775" lon="2.41546">
        <ele>847.425568</ele>
        <time>2026-07-17T13:04:56.338Z</time>
      </trkpt>
      <trkpt lat="42.55769" lon="2.41559">
        <ele>847.425568</ele>
        <time>2026-07-17T13:05:09.994Z</time>
      </trkpt>
      <trkpt lat="42.55765" lon="2.41576">
        <ele>847.425568</ele>
        <time>2026-07-17T13:05:26.287Z</time>
      </trkpt>
    </trkseg>
  </trk>
</gpx>